Little Piney Creek (Missouri), Newburg (06932000)

StateMissouriLatestGood (158 cfs)
RiverLittle Piney CreekRatingObservedEstimated
Updated2026-05-10 14:00 (1 hour ago)Flood - The river is flooding. Obstacles can be treacherous or deadly. The river should be avoided at this stage for casual trips and definitely for the inexperienced. Trips should be attempted only with protective gear and equipment.Flood(none)535
Discharge158 cfs (median: 174 cfs)High - The river is high and potentially dangerous, especially for the young and / or inexperienced. Normal stream obstacles are sometimes difficult to navigate. Extended distances can be attempted, but canoe travel may not be advisable.High(none)280
Height2.86 feetGood - Conditions are ideal for a canoe or kayak. Boats typically will drag on fewer than one-quarter of riffles, if at all, and portages are unnecessary or rare. Normal float lengths can be attempted without a problem.Good(none)154
TrendSteady (falling over 24 hours)Low - River is low but can still be floated. Some riffles are okay but most come with significant dragging and might need a portage. Float lengths should be reduced to accommodate low flow, dragging, and portages.Low140111
USGSExternal icon USGS Site (External icon Duck Duck Go Maps)Poor - River is too low to float comfortably. Most or all riffles will drag or must be portaged and some obstacles (such as slick shelf rock) cause undue problems. Avoid the river at this stage for casual paddling trips.Poor(none)68

Trending Data

Plot Image

Trips for Little Piney Creek (Missouri), Newburg (06932000)

DateStartEndDistanceConditionDischargeHeightFishingDetails
Click for details2011-07-10 Newburg Gasconade River Total trip distance: 6.0 miles4.8 Low 114 2.32 None NoneNone Bowe, Michelle
Edmond, Brian
Edmond, Julian
Bowe, Michelle; Edmond, Brian; Edmond, Julian
This was Julian's first float trip. Many areas could have been attempted, especially with a kayak, but we were cautious.This was Julian's first float trip.  Many areas could have been attempted, especially with a kayak, but we were cautious. USGS Gauge Data:
Newburg (06932000)
Discharge: 114
Height: 2.32
<b>USGS Gauge Data:</b></br />Newburg (06932000)<br />Discharge: 114<br />Height: 2.32
Source: EdmondSource: Edmond

A total of 1 rows are displayed.

Trip Summary for Little Piney Creek (Missouri), Newburg (06932000)

Miles4.8
Trips1
People3
Dates1
Years1
Months1
Rows1
Sources1

Condition Descriptions

Fishing Conditions

Fish Species

Notes

Classic Trip List

The classic River Trips application is still available for use. It is updated with the new system using a data retrofit. It is no longer maintained. The original River Trips application is no longer updated (as of 1 Dec 2016) but can be checked for errors or for the condition of the data before it was converted to the new system.

Gauge Data Table

ObservationHeightDischargeMaximum
Discharge
Minimum
Discharge
Mean
Discharge
P05P10P20P25P50
(Median)
P75P80P90P95
2026-05-10 14:00 2.86 158 3420 (1950) 45 (1956) 266 53 71 95 106 174 290 335 484 822
2026-05-10 13:00 2.86 158 3420 (1950) 45 (1956) 266 53 71 95 106 174 290 335 484 822
2026-05-10 12:00 2.87 160 3420 (1950) 45 (1956) 266 53 71 95 106 174 290 335 484 822
2026-05-10 11:00 2.87 160 3420 (1950) 45 (1956) 266 53 71 95 106 174 290 335 484 822
2026-05-10 10:00 2.88 162 3420 (1950) 45 (1956) 266 53 71 95 106 174 290 335 484 822
2026-05-10 09:00 2.88 162 3420 (1950) 45 (1956) 266 53 71 95 106 174 290 335 484 822
2026-05-10 08:00 2.88 162 3420 (1950) 45 (1956) 266 53 71 95 106 174 290 335 484 822
2026-05-10 07:00 2.88 162 3420 (1950) 45 (1956) 266 53 71 95 106 174 290 335 484 822
2026-05-10 06:00 2.89 164 3420 (1950) 45 (1956) 266 53 71 95 106 174 290 335 484 822
2026-05-10 05:00 2.89 164 3420 (1950) 45 (1956) 266 53 71 95 106 174 290 335 484 822
2026-05-10 04:00 2.89 164 3420 (1950) 45 (1956) 266 53 71 95 106 174 290 335 484 822
2026-05-10 03:00 2.89 164 3420 (1950) 45 (1956) 266 53 71 95 106 174 290 335 484 822
2026-05-10 02:00 2.90 166 3420 (1950) 45 (1956) 266 53 71 95 106 174 290 335 484 822
2026-05-10 01:00 2.90 166 3420 (1950) 45 (1956) 266 53 71 95 106 174 290 335 484 822
2026-05-10 00:00 2.90 166 3420 (1950) 45 (1956) 266 53 71 95 106 174 290 335 484 822
2026-05-09 23:00 2.90 166 3420 (1950) 45 (1956) 266 53 71 95 106 174 290 335 484 822
2026-05-09 22:00 2.91 168 2220 (2002) 44 (1956) 265 53 62 84 100 160 308 330 488 728
2026-05-09 21:00 2.91 168 2220 (2002) 44 (1956) 265 53 62 84 100 160 308 330 488 728
2026-05-09 20:00 2.92 169 2220 (2002) 44 (1956) 265 53 62 84 100 160 308 330 488 728
2026-05-09 19:00 2.92 169 2220 (2002) 44 (1956) 265 53 62 84 100 160 308 330 488 728
2026-05-09 18:00 2.93 171 2220 (2002) 44 (1956) 265 53 62 84 100 160 308 330 488 728
2026-05-09 17:00 2.93 171 2220 (2002) 44 (1956) 265 53 62 84 100 160 308 330 488 728
2026-05-09 16:00 2.95 175 2220 (2002) 44 (1956) 265 53 62 84 100 160 308 330 488 728
2026-05-09 15:00 2.95 175 2220 (2002) 44 (1956) 265 53 62 84 100 160 308 330 488 728
2026-05-09 14:00 2.96 177 2220 (2002) 44 (1956) 265 53 62 84 100 160 308 330 488 728
2026-05-09 13:00 2.96 177 2220 (2002) 44 (1956) 265 53 62 84 100 160 308 330 488 728
2026-05-09 12:00 2.96 177 2220 (2002) 44 (1956) 265 53 62 84 100 160 308 330 488 728
2026-05-09 11:00 2.97 179 2220 (2002) 44 (1956) 265 53 62 84 100 160 308 330 488 728
2026-05-09 10:00 2.98 181 2220 (2002) 44 (1956) 265 53 62 84 100 160 308 330 488 728
2026-05-09 09:00 2.99 183 2220 (2002) 44 (1956) 265 53 62 84 100 160 308 330 488 728
2026-05-09 08:00 3.01 187 2220 (2002) 44 (1956) 265 53 62 84 100 160 308 330 488 728
2026-05-09 07:00 3.02 189 2220 (2002) 44 (1956) 265 53 62 84 100 160 308 330 488 728
2026-05-09 06:00 3.03 191 2220 (2002) 44 (1956) 265 53 62 84 100 160 308 330 488 728
2026-05-09 05:00 3.04 193 2220 (2002) 44 (1956) 265 53 62 84 100 160 308 330 488 728
2026-05-09 04:00 3.00 185 2220 (2002) 44 (1956) 265 53 62 84 100 160 308 330 488 728
2026-05-09 03:00 2.95 175 2220 (2002) 44 (1956) 265 53 62 84 100 160 308 330 488 728
2026-05-09 02:00 2.94 173 2220 (2002) 44 (1956) 265 53 62 84 100 160 308 330 488 728
2026-05-09 01:00 2.93 171 2220 (2002) 44 (1956) 265 53 62 84 100 160 308 330 488 728
2026-05-09 00:00 2.93 171 2220 (2002) 44 (1956) 265 53 62 84 100 160 308 330 488 728
2026-05-08 23:00 2.91 168 2220 (2002) 44 (1956) 265 53 62 84 100 160 308 330 488 728
2026-05-08 22:00 2.87 160 4570 (2002) 44 (1956) 375 56 62 90 97 150 331 357 601 1540
2026-05-08 21:00 2.86 158 4570 (2002) 44 (1956) 375 56 62 90 97 150 331 357 601 1540
2026-05-08 20:00 2.86 158 4570 (2002) 44 (1956) 375 56 62 90 97 150 331 357 601 1540
2026-05-08 19:00 2.86 158 4570 (2002) 44 (1956) 375 56 62 90 97 150 331 357 601 1540
2026-05-08 18:00 2.85 157 4570 (2002) 44 (1956) 375 56 62 90 97 150 331 357 601 1540
2026-05-08 17:00 2.86 158 4570 (2002) 44 (1956) 375 56 62 90 97 150 331 357 601 1540
2026-05-08 16:00 2.86 158 4570 (2002) 44 (1956) 375 56 62 90 97 150 331 357 601 1540
2026-05-08 15:00 2.86 158 4570 (2002) 44 (1956) 375 56 62 90 97 150 331 357 601 1540
2026-05-08 14:00 2.86 158 4570 (2002) 44 (1956) 375 56 62 90 97 150 331 357 601 1540
2026-05-08 13:00 2.87 160 4570 (2002) 44 (1956) 375 56 62 90 97 150 331 357 601 1540
2026-05-08 12:00 2.87 160 4570 (2002) 44 (1956) 375 56 62 90 97 150 331 357 601 1540
2026-05-08 11:00 2.86 158 4570 (2002) 44 (1956) 375 56 62 90 97 150 331 357 601 1540
2026-05-08 10:00 2.87 160 4570 (2002) 44 (1956) 375 56 62 90 97 150 331 357 601 1540
2026-05-08 09:00 2.87 160 4570 (2002) 44 (1956) 375 56 62 90 97 150 331 357 601 1540
2026-05-08 08:00 2.87 160 4570 (2002) 44 (1956) 375 56 62 90 97 150 331 357 601 1540
2026-05-08 07:00 2.87 160 4570 (2002) 44 (1956) 375 56 62 90 97 150 331 357 601 1540
2026-05-08 06:00 2.87 160 4570 (2002) 44 (1956) 375 56 62 90 97 150 331 357 601 1540
2026-05-08 05:00 2.87 160 4570 (2002) 44 (1956) 375 56 62 90 97 150 331 357 601 1540
2026-05-08 04:00 2.87 160 4570 (2002) 44 (1956) 375 56 62 90 97 150 331 357 601 1540
2026-05-08 03:00 2.88 162 4570 (2002) 44 (1956) 375 56 62 90 97 150 331 357 601 1540
2026-05-08 02:00 2.87 160 4570 (2002) 44 (1956) 375 56 62 90 97 150 331 357 601 1540
2026-05-08 01:00 2.87 160 4570 (2002) 44 (1956) 375 56 62 90 97 150 331 357 601 1540
2026-05-08 00:00 2.88 162 4570 (2002) 44 (1956) 375 56 62 90 97 150 331 357 601 1540
2026-05-07 23:00 2.88 162 4570 (2002) 44 (1956) 375 56 62 90 97 150 331 357 601 1540
2026-05-07 22:00 2.88 162 3960 (1961) 48 (1981) 317 55 62 96 101 160 338 391 663 1120
2026-05-07 21:00 2.88 162 3960 (1961) 48 (1981) 317 55 62 96 101 160 338 391 663 1120
2026-05-07 20:00 2.88 162 3960 (1961) 48 (1981) 317 55 62 96 101 160 338 391 663 1120
2026-05-07 19:00 2.89 164 3960 (1961) 48 (1981) 317 55 62 96 101 160 338 391 663 1120
2026-05-07 18:00 2.89 164 3960 (1961) 48 (1981) 317 55 62 96 101 160 338 391 663 1120
2026-05-07 17:00 2.90 166 3960 (1961) 48 (1981) 317 55 62 96 101 160 338 391 663 1120
2026-05-07 16:00 2.90 166 3960 (1961) 48 (1981) 317 55 62 96 101 160 338 391 663 1120
2026-05-07 15:00 2.91 168 3960 (1961) 48 (1981) 317 55 62 96 101 160 338 391 663 1120
2026-05-07 14:00 2.91 168 3960 (1961) 48 (1981) 317 55 62 96 101 160 338 391 663 1120
2026-05-07 13:00 2.92 169 3960 (1961) 48 (1981) 317 55 62 96 101 160 338 391 663 1120
2026-05-07 12:00 2.92 169 3960 (1961) 48 (1981) 317 55 62 96 101 160 338 391 663 1120
2026-05-07 11:00 2.92 169 3960 (1961) 48 (1981) 317 55 62 96 101 160 338 391 663 1120
2026-05-07 10:00 2.92 169 3960 (1961) 48 (1981) 317 55 62 96 101 160 338 391 663 1120
2026-05-07 09:00 2.92 169 3960 (1961) 48 (1981) 317 55 62 96 101 160 338 391 663 1120
2026-05-07 08:00 2.93 171 3960 (1961) 48 (1981) 317 55 62 96 101 160 338 391 663 1120
2026-05-07 07:00 2.93 171 3960 (1961) 48 (1981) 317 55 62 96 101 160 338 391 663 1120
2026-05-07 06:00 2.93 171 3960 (1961) 48 (1981) 317 55 62 96 101 160 338 391 663 1120
2026-05-07 05:00 2.93 171 3960 (1961) 48 (1981) 317 55 62 96 101 160 338 391 663 1120
2026-05-07 04:00 2.94 173 3960 (1961) 48 (1981) 317 55 62 96 101 160 338 391 663 1120
2026-05-07 03:00 2.94 173 3960 (1961) 48 (1981) 317 55 62 96 101 160 338 391 663 1120
2026-05-07 02:00 2.94 173 3960 (1961) 48 (1981) 317 55 62 96 101 160 338 391 663 1120
2026-05-07 01:00 2.94 173 3960 (1961) 48 (1981) 317 55 62 96 101 160 338 391 663 1120
2026-05-07 00:00 2.94 173 3960 (1961) 48 (1981) 317 55 62 96 101 160 338 391 663 1120
2026-05-06 23:00 2.95 175 3960 (1961) 48 (1981) 317 55 62 96 101 160 338 391 663 1120
2026-05-06 22:00 2.95 175 7420 (1929) 39 (1956) 369 55 63 86 103 162 272 350 489 1300
2026-05-06 21:00 2.95 175 7420 (1929) 39 (1956) 369 55 63 86 103 162 272 350 489 1300
2026-05-06 20:00 2.96 177 7420 (1929) 39 (1956) 369 55 63 86 103 162 272 350 489 1300
2026-05-06 19:00 2.96 177 7420 (1929) 39 (1956) 369 55 63 86 103 162 272 350 489 1300
2026-05-06 18:00 2.97 179 7420 (1929) 39 (1956) 369 55 63 86 103 162 272 350 489 1300
2026-05-06 17:00 2.97 179 7420 (1929) 39 (1956) 369 55 63 86 103 162 272 350 489 1300
2026-05-06 16:00 2.98 181 7420 (1929) 39 (1956) 369 55 63 86 103 162 272 350 489 1300
2026-05-06 15:00 2.99 183 7420 (1929) 39 (1956) 369 55 63 86 103 162 272 350 489 1300
2026-05-06 14:00 2.99 183 7420 (1929) 39 (1956) 369 55 63 86 103 162 272 350 489 1300
2026-05-06 13:00 3.00 185 7420 (1929) 39 (1956) 369 55 63 86 103 162 272 350 489 1300
2026-05-06 12:00 3.00 185 7420 (1929) 39 (1956) 369 55 63 86 103 162 272 350 489 1300
2026-05-06 11:00 3.01 187 7420 (1929) 39 (1956) 369 55 63 86 103 162 272 350 489 1300
2026-05-06 10:00 3.02 189 7420 (1929) 39 (1956) 369 55 63 86 103 162 272 350 489 1300
2026-05-06 09:00 3.02 189 7420 (1929) 39 (1956) 369 55 63 86 103 162 272 350 489 1300
2026-05-06 08:00 3.03 191 7420 (1929) 39 (1956) 369 55 63 86 103 162 272 350 489 1300
2026-05-06 07:00 3.04 193 7420 (1929) 39 (1956) 369 55 63 86 103 162 272 350 489 1300
2026-05-06 06:00 3.05 195 7420 (1929) 39 (1956) 369 55 63 86 103 162 272 350 489 1300
2026-05-06 05:00 3.06 197 7420 (1929) 39 (1956) 369 55 63 86 103 162 272 350 489 1300
2026-05-06 04:00 3.06 197 7420 (1929) 39 (1956) 369 55 63 86 103 162 272 350 489 1300
2026-05-06 03:00 3.05 195 7420 (1929) 39 (1956) 369 55 63 86 103 162 272 350 489 1300
2026-05-06 02:00 3.03 191 7420 (1929) 39 (1956) 369 55 63 86 103 162 272 350 489 1300
2026-05-06 01:00 3.02 189 7420 (1929) 39 (1956) 369 55 63 86 103 162 272 350 489 1300
2026-05-06 00:00 3.01 187 7420 (1929) 39 (1956) 369 55 63 86 103 162 272 350 489 1300
2026-05-05 23:00 3.00 185 7420 (1929) 39 (1956) 369 55 63 86 103 162 272 350 489 1300
2026-05-05 22:00 2.99 183 3800 (2022) 40 (1956) 295 55 65 88 103 164 262 291 486 748
2026-05-05 21:00 2.98 181 3800 (2022) 40 (1956) 295 55 65 88 103 164 262 291 486 748
2026-05-05 20:00 2.98 181 3800 (2022) 40 (1956) 295 55 65 88 103 164 262 291 486 748
2026-05-05 19:00 2.97 179 3800 (2022) 40 (1956) 295 55 65 88 103 164 262 291 486 748
2026-05-05 18:00 2.97 179 3800 (2022) 40 (1956) 295 55 65 88 103 164 262 291 486 748
2026-05-05 17:00 2.97 179 3800 (2022) 40 (1956) 295 55 65 88 103 164 262 291 486 748
2026-05-05 16:00 2.97 179 3800 (2022) 40 (1956) 295 55 65 88 103 164 262 291 486 748
2026-05-05 15:00 2.97 179 3800 (2022) 40 (1956) 295 55 65 88 103 164 262 291 486 748
2026-05-05 14:00 2.98 181 3800 (2022) 40 (1956) 295 55 65 88 103 164 262 291 486 748
2026-05-05 13:00 2.99 183 3800 (2022) 40 (1956) 295 55 65 88 103 164 262 291 486 748
2026-05-05 12:00 2.99 183 3800 (2022) 40 (1956) 295 55 65 88 103 164 262 291 486 748
2026-05-05 11:00 2.99 183 3800 (2022) 40 (1956) 295 55 65 88 103 164 262 291 486 748
2026-05-05 10:00 3.00 185 3800 (2022) 40 (1956) 295 55 65 88 103 164 262 291 486 748
2026-05-05 09:00 3.00 185 3800 (2022) 40 (1956) 295 55 65 88 103 164 262 291 486 748
2026-05-05 08:00 3.01 187 3800 (2022) 40 (1956) 295 55 65 88 103 164 262 291 486 748
2026-05-05 07:00 3.00 185 3800 (2022) 40 (1956) 295 55 65 88 103 164 262 291 486 748
2026-05-05 06:00 2.98 181 3800 (2022) 40 (1956) 295 55 65 88 103 164 262 291 486 748
2026-05-05 05:00 2.97 179 3800 (2022) 40 (1956) 295 55 65 88 103 164 262 291 486 748
2026-05-05 04:00 2.98 181 3800 (2022) 40 (1956) 295 55 65 88 103 164 262 291 486 748
2026-05-05 03:00 2.98 181 3800 (2022) 40 (1956) 295 55 65 88 103 164 262 291 486 748
2026-05-05 02:00 2.98 181 3800 (2022) 40 (1956) 295 55 65 88 103 164 262 291 486 748
2026-05-05 01:00 2.98 181 3800 (2022) 40 (1956) 295 55 65 88 103 164 262 291 486 748
2026-05-05 00:00 2.98 181 3800 (2022) 40 (1956) 295 55 65 88 103 164 262 291 486 748
2026-05-04 23:00 2.99 183 3800 (2022) 40 (1956) 295 55 65 88 103 164 262 291 486 748
2026-05-04 22:00 2.99 183 6590 (2017) 43 (1956) 296 56 67 91 106 168 284 309 486 754
2026-05-04 21:00 2.99 183 6590 (2017) 43 (1956) 296 56 67 91 106 168 284 309 486 754
2026-05-04 20:00 2.99 183 6590 (2017) 43 (1956) 296 56 67 91 106 168 284 309 486 754
2026-05-04 19:00 2.99 183 6590 (2017) 43 (1956) 296 56 67 91 106 168 284 309 486 754
2026-05-04 18:00 3.00 185 6590 (2017) 43 (1956) 296 56 67 91 106 168 284 309 486 754
2026-05-04 17:00 3.00 185 6590 (2017) 43 (1956) 296 56 67 91 106 168 284 309 486 754
2026-05-04 16:00 3.01 187 6590 (2017) 43 (1956) 296 56 67 91 106 168 284 309 486 754
2026-05-04 15:00 3.02 189 6590 (2017) 43 (1956) 296 56 67 91 106 168 284 309 486 754
2026-05-04 14:00 3.02 189 6590 (2017) 43 (1956) 296 56 67 91 106 168 284 309 486 754
2026-05-04 13:00 3.03 191 6590 (2017) 43 (1956) 296 56 67 91 106 168 284 309 486 754
2026-05-04 12:00 3.03 191 6590 (2017) 43 (1956) 296 56 67 91 106 168 284 309 486 754
2026-05-04 11:00 3.03 191 6590 (2017) 43 (1956) 296 56 67 91 106 168 284 309 486 754
2026-05-04 10:00 3.03 191 6590 (2017) 43 (1956) 296 56 67 91 106 168 284 309 486 754
2026-05-04 09:00 3.03 191 6590 (2017) 43 (1956) 296 56 67 91 106 168 284 309 486 754
2026-05-04 08:00 3.04 193 6590 (2017) 43 (1956) 296 56 67 91 106 168 284 309 486 754
2026-05-04 07:00 3.04 193 6590 (2017) 43 (1956) 296 56 67 91 106 168 284 309 486 754
2026-05-04 06:00 3.04 193 6590 (2017) 43 (1956) 296 56 67 91 106 168 284 309 486 754
2026-05-04 05:00 3.04 193 6590 (2017) 43 (1956) 296 56 67 91 106 168 284 309 486 754
2026-05-04 04:00 3.04 193 6590 (2017) 43 (1956) 296 56 67 91 106 168 284 309 486 754
2026-05-04 03:00 3.04 193 6590 (2017) 43 (1956) 296 56 67 91 106 168 284 309 486 754
2026-05-04 02:00 3.04 193 6590 (2017) 43 (1956) 296 56 67 91 106 168 284 309 486 754
2026-05-04 01:00 3.05 195 6590 (2017) 43 (1956) 296 56 67 91 106 168 284 309 486 754
2026-05-04 00:00 3.05 195 6590 (2017) 43 (1956) 296 56 67 91 106 168 284 309 486 754
2026-05-03 23:00 3.05 195 6590 (2017) 43 (1956) 296 56 67 91 106 168 284 309 486 754
2026-05-03 22:00 3.05 195 4650 (1990) 44 (1981) 294 56 75 99 112 181 316 383 560 755
2026-05-03 21:00 3.06 197 4650 (1990) 44 (1981) 294 56 75 99 112 181 316 383 560 755
2026-05-03 20:00 3.06 197 4650 (1990) 44 (1981) 294 56 75 99 112 181 316 383 560 755
2026-05-03 19:00 3.06 197 4650 (1990) 44 (1981) 294 56 75 99 112 181 316 383 560 755
2026-05-03 18:00 3.06 197 4650 (1990) 44 (1981) 294 56 75 99 112 181 316 383 560 755
2026-05-03 17:00 3.07 199 4650 (1990) 44 (1981) 294 56 75 99 112 181 316 383 560 755
2026-05-03 16:00 3.08 201 4650 (1990) 44 (1981) 294 56 75 99 112 181 316 383 560 755
2026-05-03 15:00 3.09 203 4650 (1990) 44 (1981) 294 56 75 99 112 181 316 383 560 755
2026-05-03 14:00 3.09 203 4650 (1990) 44 (1981) 294 56 75 99 112 181 316 383 560 755
2026-05-03 13:00 3.09 203 4650 (1990) 44 (1981) 294 56 75 99 112 181 316 383 560 755
2026-05-03 12:00 3.10 205 4650 (1990) 44 (1981) 294 56 75 99 112 181 316 383 560 755
2026-05-03 11:00 3.10 205 4650 (1990) 44 (1981) 294 56 75 99 112 181 316 383 560 755
2026-05-03 10:00 3.10 205 4650 (1990) 44 (1981) 294 56 75 99 112 181 316 383 560 755
2026-05-03 09:00 3.11 207 4650 (1990) 44 (1981) 294 56 75 99 112 181 316 383 560 755
2026-05-03 08:00 3.11 207 4650 (1990) 44 (1981) 294 56 75 99 112 181 316 383 560 755
2026-05-03 07:00 3.11 207 4650 (1990) 44 (1981) 294 56 75 99 112 181 316 383 560 755
2026-05-03 06:00 3.11 207 4650 (1990) 44 (1981) 294 56 75 99 112 181 316 383 560 755
2026-05-03 05:00 3.12 209 4650 (1990) 44 (1981) 294 56 75 99 112 181 316 383 560 755
2026-05-03 04:00 3.13 211 4650 (1990) 44 (1981) 294 56 75 99 112 181 316 383 560 755
2026-05-03 03:00 3.12 209 4650 (1990) 44 (1981) 294 56 75 99 112 181 316 383 560 755
2026-05-03 02:00 3.13 211 4650 (1990) 44 (1981) 294 56 75 99 112 181 316 383 560 755
2026-05-03 01:00 3.13 211 4650 (1990) 44 (1981) 294 56 75 99 112 181 316 383 560 755
2026-05-03 00:00 3.14 213 4650 (1990) 44 (1981) 294 56 75 99 112 181 316 383 560 755
2026-05-02 23:00 3.14 213 4650 (1990) 44 (1981) 294 56 75 99 112 181 316 383 560 755
2026-05-02 22:00 3.14 213 3200 (1937) 46 (1981) 303 57 80 103 127 169 303 350 690 1070
2026-05-02 21:00 3.15 216 3200 (1937) 46 (1981) 303 57 80 103 127 169 303 350 690 1070
2026-05-02 20:00 3.15 216 3200 (1937) 46 (1981) 303 57 80 103 127 169 303 350 690 1070
2026-05-02 19:00 3.16 218 3200 (1937) 46 (1981) 303 57 80 103 127 169 303 350 690 1070
2026-05-02 18:00 3.16 218 3200 (1937) 46 (1981) 303 57 80 103 127 169 303 350 690 1070
2026-05-02 17:00 3.18 222 3200 (1937) 46 (1981) 303 57 80 103 127 169 303 350 690 1070
2026-05-02 16:00 3.18 222 3200 (1937) 46 (1981) 303 57 80 103 127 169 303 350 690 1070
2026-05-02 15:00 3.19 224 3200 (1937) 46 (1981) 303 57 80 103 127 169 303 350 690 1070
2026-05-02 14:00 3.20 226 3200 (1937) 46 (1981) 303 57 80 103 127 169 303 350 690 1070
2026-05-02 13:00 3.20 226 3200 (1937) 46 (1981) 303 57 80 103 127 169 303 350 690 1070
2026-05-02 12:00 3.21 229 3200 (1937) 46 (1981) 303 57 80 103 127 169 303 350 690 1070
2026-05-02 11:00 3.21 229 3200 (1937) 46 (1981) 303 57 80 103 127 169 303 350 690 1070
2026-05-02 10:00 3.22 231 3200 (1937) 46 (1981) 303 57 80 103 127 169 303 350 690 1070
2026-05-02 09:00 3.22 231 3200 (1937) 46 (1981) 303 57 80 103 127 169 303 350 690 1070
2026-05-02 08:00 3.23 233 3200 (1937) 46 (1981) 303 57 80 103 127 169 303 350 690 1070
2026-05-02 07:00 3.23 233 3200 (1937) 46 (1981) 303 57 80 103 127 169 303 350 690 1070
2026-05-02 06:00 3.24 235 3200 (1937) 46 (1981) 303 57 80 103 127 169 303 350 690 1070
2026-05-02 05:00 3.24 235 3200 (1937) 46 (1981) 303 57 80 103 127 169 303 350 690 1070
2026-05-02 04:00 3.25 238 3200 (1937) 46 (1981) 303 57 80 103 127 169 303 350 690 1070
2026-05-02 03:00 3.25 238 3200 (1937) 46 (1981) 303 57 80 103 127 169 303 350 690 1070
2026-05-02 02:00 3.26 240 3200 (1937) 46 (1981) 303 57 80 103 127 169 303 350 690 1070
2026-05-02 01:00 3.26 240 3200 (1937) 46 (1981) 303 57 80 103 127 169 303 350 690 1070
2026-05-02 00:00 3.26 240 3200 (1937) 46 (1981) 303 57 80 103 127 169 303 350 690 1070
2026-05-01 23:00 3.27 242 3200 (1937) 46 (1981) 303 57 80 103 127 169 303 350 690 1070
2026-05-01 22:00 3.27 242 4300 (2019) 45 (1954) 362 53 75 99 115 172 342 369 612 1630
2026-05-01 21:00 3.28 244 4300 (2019) 45 (1954) 362 53 75 99 115 172 342 369 612 1630
2026-05-01 20:00 3.28 244 4300 (2019) 45 (1954) 362 53 75 99 115 172 342 369 612 1630
2026-05-01 19:00 3.29 247 4300 (2019) 45 (1954) 362 53 75 99 115 172 342 369 612 1630
2026-05-01 18:00 3.30 249 4300 (2019) 45 (1954) 362 53 75 99 115 172 342 369 612 1630
2026-05-01 17:00 3.31 252 4300 (2019) 45 (1954) 362 53 75 99 115 172 342 369 612 1630
2026-05-01 16:00 3.32 254 4300 (2019) 45 (1954) 362 53 75 99 115 172 342 369 612 1630
2026-05-01 15:00 3.33 256 4300 (2019) 45 (1954) 362 53 75 99 115 172 342 369 612 1630
2026-05-01 14:00 3.34 259 4300 (2019) 45 (1954) 362 53 75 99 115 172 342 369 612 1630
2026-05-01 13:00 3.34 259 4300 (2019) 45 (1954) 362 53 75 99 115 172 342 369 612 1630
2026-05-01 12:00 3.36 263 4300 (2019) 45 (1954) 362 53 75 99 115 172 342 369 612 1630
2026-05-01 11:00 3.36 263 4300 (2019) 45 (1954) 362 53 75 99 115 172 342 369 612 1630
2026-05-01 10:00 3.37 266 4300 (2019) 45 (1954) 362 53 75 99 115 172 342 369 612 1630
2026-05-01 09:00 3.38 268 4300 (2019) 45 (1954) 362 53 75 99 115 172 342 369 612 1630
2026-05-01 08:00 3.38 268 4300 (2019) 45 (1954) 362 53 75 99 115 172 342 369 612 1630
2026-05-01 07:00 3.39 271 4300 (2019) 45 (1954) 362 53 75 99 115 172 342 369 612 1630
2026-05-01 06:00 3.39 271 4300 (2019) 45 (1954) 362 53 75 99 115 172 342 369 612 1630
2026-05-01 05:00 3.40 273 4300 (2019) 45 (1954) 362 53 75 99 115 172 342 369 612 1630
2026-05-01 04:00 3.41 276 4300 (2019) 45 (1954) 362 53 75 99 115 172 342 369 612 1630
2026-05-01 03:00 3.42 278 4300 (2019) 45 (1954) 362 53 75 99 115 172 342 369 612 1630
2026-05-01 02:00 3.42 278 4300 (2019) 45 (1954) 362 53 75 99 115 172 342 369 612 1630
2026-05-01 01:00 3.43 281 4300 (2019) 45 (1954) 362 53 75 99 115 172 342 369 612 1630
2026-05-01 00:00 3.44 283 4300 (2019) 45 (1954) 362 53 75 99 115 172 342 369 612 1630
2026-04-30 23:00 3.44 283 4300 (2019) 45 (1954) 362 53 75 99 115 172 342 369 612 1630
2026-04-30 22:00 3.45 286 13700 (2017) 44 (1954) 441 59 76 103 115 170 301 411 606 1020
2026-04-30 21:00 3.46 288 13700 (2017) 44 (1954) 441 59 76 103 115 170 301 411 606 1020
2026-04-30 20:00 3.47 291 13700 (2017) 44 (1954) 441 59 76 103 115 170 301 411 606 1020
2026-04-30 19:00 3.47 291 13700 (2017) 44 (1954) 441 59 76 103 115 170 301 411 606 1020
2026-04-30 18:00 3.48 293 13700 (2017) 44 (1954) 441 59 76 103 115 170 301 411 606 1020
2026-04-30 17:00 3.50 299 13700 (2017) 44 (1954) 441 59 76 103 115 170 301 411 606 1020
2026-04-30 16:00 3.51 301 13700 (2017) 44 (1954) 441 59 76 103 115 170 301 411 606 1020
2026-04-30 15:00 3.53 306 13700 (2017) 44 (1954) 441 59 76 103 115 170 301 411 606 1020
2026-04-30 14:00 3.54 309 13700 (2017) 44 (1954) 441 59 76 103 115 170 301 411 606 1020
2026-04-30 13:00 3.54 309 13700 (2017) 44 (1954) 441 59 76 103 115 170 301 411 606 1020
2026-04-30 12:00 3.56 314 13700 (2017) 44 (1954) 441 59 76 103 115 170 301 411 606 1020
2026-04-30 11:00 3.57 317 13700 (2017) 44 (1954) 441 59 76 103 115 170 301 411 606 1020
2026-04-30 10:00 3.57 317 13700 (2017) 44 (1954) 441 59 76 103 115 170 301 411 606 1020
2026-04-30 09:00 3.58 320 13700 (2017) 44 (1954) 441 59 76 103 115 170 301 411 606 1020
2026-04-30 08:00 3.59 323 13700 (2017) 44 (1954) 441 59 76 103 115 170 301 411 606 1020
2026-04-30 07:00 3.60 325 13700 (2017) 44 (1954) 441 59 76 103 115 170 301 411 606 1020
2026-04-30 06:00 3.62 331 13700 (2017) 44 (1954) 441 59 76 103 115 170 301 411 606 1020
2026-04-30 05:00 3.62 331 13700 (2017) 44 (1954) 441 59 76 103 115 170 301 411 606 1020
2026-04-30 04:00 3.63 334 13700 (2017) 44 (1954) 441 59 76 103 115 170 301 411 606 1020
2026-04-30 03:00 3.64 336 13700 (2017) 44 (1954) 441 59 76 103 115 170 301 411 606 1020
2026-04-30 02:00 3.66 342 13700 (2017) 44 (1954) 441 59 76 103 115 170 301 411 606 1020
2026-04-30 01:00 3.66 342 13700 (2017) 44 (1954) 441 59 76 103 115 170 301 411 606 1020
2026-04-30 00:00 3.67 345 13700 (2017) 44 (1954) 441 59 76 103 115 170 301 411 606 1020
2026-04-29 23:00 3.69 350 13700 (2017) 44 (1954) 441 59 76 103 115 170 301 411 606 1020
2026-04-29 22:00 3.70 353 6210 (2017) 43 (1954) 383 57 80 107 110 173 289 326 551 1850
2026-04-29 21:00 3.72 359 6210 (2017) 43 (1954) 383 57 80 107 110 173 289 326 551 1850
2026-04-29 20:00 3.73 362 6210 (2017) 43 (1954) 383 57 80 107 110 173 289 326 551 1850
2026-04-29 19:00 3.75 368 6210 (2017) 43 (1954) 383 57 80 107 110 173 289 326 551 1850
2026-04-29 18:00 3.76 371 6210 (2017) 43 (1954) 383 57 80 107 110 173 289 326 551 1850
2026-04-29 17:00 3.79 380 6210 (2017) 43 (1954) 383 57 80 107 110 173 289 326 551 1850
2026-04-29 16:00 3.81 386 6210 (2017) 43 (1954) 383 57 80 107 110 173 289 326 551 1850
2026-04-29 15:00 3.83 392 6210 (2017) 43 (1954) 383 57 80 107 110 173 289 326 551 1850
2026-04-29 14:00 3.85 398 6210 (2017) 43 (1954) 383 57 80 107 110 173 289 326 551 1850
2026-04-29 13:00 3.87 404 6210 (2017) 43 (1954) 383 57 80 107 110 173 289 326 551 1850
2026-04-29 12:00 3.90 414 6210 (2017) 43 (1954) 383 57 80 107 110 173 289 326 551 1850
2026-04-29 11:00 3.92 420 6210 (2017) 43 (1954) 383 57 80 107 110 173 289 326 551 1850
2026-04-29 10:00 3.94 426 6210 (2017) 43 (1954) 383 57 80 107 110 173 289 326 551 1850
2026-04-29 09:00 3.96 433 6210 (2017) 43 (1954) 383 57 80 107 110 173 289 326 551 1850
2026-04-29 08:00 3.99 442 6210 (2017) 43 (1954) 383 57 80 107 110 173 289 326 551 1850
2026-04-29 07:00 4.01 449 6210 (2017) 43 (1954) 383 57 80 107 110 173 289 326 551 1850
2026-04-29 06:00 4.04 459 6210 (2017) 43 (1954) 383 57 80 107 110 173 289 326 551 1850
2026-04-29 05:00 4.07 469 6210 (2017) 43 (1954) 383 57 80 107 110 173 289 326 551 1850
2026-04-29 04:00 4.10 479 6210 (2017) 43 (1954) 383 57 80 107 110 173 289 326 551 1850
2026-04-29 03:00 4.14 493 6210 (2017) 43 (1954) 383 57 80 107 110 173 289 326 551 1850
2026-04-29 02:00 4.17 504 6210 (2017) 43 (1954) 383 57 80 107 110 173 289 326 551 1850
2026-04-29 01:00 4.22 521 6210 (2017) 43 (1954) 383 57 80 107 110 173 289 326 551 1850
2026-04-29 00:00 4.30 551 6210 (2017) 43 (1954) 383 57 80 107 110 173 289 326 551 1850
2026-04-28 23:00 4.39 585 6210 (2017) 43 (1954) 383 57 80 107 110 173 289 326 551 1850
2026-04-28 22:00 4.49 624 5090 (1994) 32 (1956) 299 54 78 106 113 172 287 324 466 781
2026-04-28 21:00 4.41 592 5090 (1994) 32 (1956) 299 54 78 106 113 172 287 324 466 781
2026-04-28 20:00 4.19 511 5090 (1994) 32 (1956) 299 54 78 106 113 172 287 324 466 781
2026-04-28 19:00 3.90 414 5090 (1994) 32 (1956) 299 54 78 106 113 172 287 324 466 781
2026-04-28 18:00 3.78 377 5090 (1994) 32 (1956) 299 54 78 106 113 172 287 324 466 781
2026-04-28 17:00 3.71 356 5090 (1994) 32 (1956) 299 54 78 106 113 172 287 324 466 781
2026-04-28 16:00 3.68 348 5090 (1994) 32 (1956) 299 54 78 106 113 172 287 324 466 781
2026-04-28 15:00 3.67 345 5090 (1994) 32 (1956) 299 54 78 106 113 172 287 324 466 781
2026-04-28 14:00 3.67 345 5090 (1994) 32 (1956) 299 54 78 106 113 172 287 324 466 781
2026-04-28 13:00 3.68 348 5090 (1994) 32 (1956) 299 54 78 106 113 172 287 324 466 781
2026-04-28 12:00 3.70 353 5090 (1994) 32 (1956) 299 54 78 106 113 172 287 324 466 781
2026-04-28 11:00 3.72 359 5090 (1994) 32 (1956) 299 54 78 106 113 172 287 324 466 781
2026-04-28 10:00 3.74 365 5090 (1994) 32 (1956) 299 54 78 106 113 172 287 324 466 781
2026-04-28 09:00 3.75 368 5090 (1994) 32 (1956) 299 54 78 106 113 172 287 324 466 781
2026-04-28 08:00 3.78 377 5090 (1994) 32 (1956) 299 54 78 106 113 172 287 324 466 781
2026-04-28 07:00 3.79 380 5090 (1994) 32 (1956) 299 54 78 106 113 172 287 324 466 781
2026-04-28 06:00 3.82 389 5090 (1994) 32 (1956) 299 54 78 106 113 172 287 324 466 781
2026-04-28 05:00 3.85 398 5090 (1994) 32 (1956) 299 54 78 106 113 172 287 324 466 781
2026-04-28 04:00 3.88 407 5090 (1994) 32 (1956) 299 54 78 106 113 172 287 324 466 781
2026-04-28 03:00 3.91 417 5090 (1994) 32 (1956) 299 54 78 106 113 172 287 324 466 781
2026-04-28 02:00 3.93 423 5090 (1994) 32 (1956) 299 54 78 106 113 172 287 324 466 781
2026-04-28 01:00 3.97 436 5090 (1994) 32 (1956) 299 54 78 106 113 172 287 324 466 781
2026-04-28 00:00 4.00 446 5090 (1994) 32 (1956) 299 54 78 106 113 172 287 324 466 781
2026-04-27 23:00 4.04 459 5090 (1994) 32 (1956) 299 54 78 106 113 172 287 324 466 781
2026-04-27 22:00 4.08 472 1370 (1957) 34 (1956) 243 58 69 109 116 168 277 328 485 642
2026-04-27 21:00 4.10 479 1370 (1957) 34 (1956) 243 58 69 109 116 168 277 328 485 642
2026-04-27 20:00 4.14 493 1370 (1957) 34 (1956) 243 58 69 109 116 168 277 328 485 642
2026-04-27 19:00 4.20 514 1370 (1957) 34 (1956) 243 58 69 109 116 168 277 328 485 642
2026-04-27 18:00 4.25 532 1370 (1957) 34 (1956) 243 58 69 109 116 168 277 328 485 642
2026-04-27 17:00 4.31 554 1370 (1957) 34 (1956) 243 58 69 109 116 168 277 328 485 642
2026-04-27 16:00 4.39 585 1370 (1957) 34 (1956) 243 58 69 109 116 168 277 328 485 642
2026-04-27 15:00 4.47 616 1370 (1957) 34 (1956) 243 58 69 109 116 168 277 328 485 642
2026-04-27 14:00 4.55 648 1370 (1957) 34 (1956) 243 58 69 109 116 168 277 328 485 642
2026-04-27 13:00 4.65 690 1370 (1957) 34 (1956) 243 58 69 109 116 168 277 328 485 642
2026-04-27 12:00 4.75 733 1370 (1957) 34 (1956) 243 58 69 109 116 168 277 328 485 642
2026-04-27 11:00 4.89 796 1370 (1957) 34 (1956) 243 58 69 109 116 168 277 328 485 642
2026-04-27 10:00 5.07 881 1370 (1957) 34 (1956) 243 58 69 109 116 168 277 328 485 642
2026-04-27 09:00 5.30 998 1370 (1957) 34 (1956) 243 58 69 109 116 168 277 328 485 642
2026-04-27 08:00 5.64 1190 1370 (1957) 34 (1956) 243 58 69 109 116 168 277 328 485 642
2026-04-27 07:00 6.22 1550 1370 (1957) 34 (1956) 243 58 69 109 116 168 277 328 485 642
2026-04-27 06:00 7.29 2380 1370 (1957) 34 (1956) 243 58 69 109 116 168 277 328 485 642
2026-04-27 05:00 8.24 3290 1370 (1957) 34 (1956) 243 58 69 109 116 168 277 328 485 642
2026-04-27 04:00 8.52 3590 1370 (1957) 34 (1956) 243 58 69 109 116 168 277 328 485 642
2026-04-27 03:00 6.22 1550 1370 (1957) 34 (1956) 243 58 69 109 116 168 277 328 485 642
2026-04-27 02:00 3.43 281 1370 (1957) 34 (1956) 243 58 69 109 116 168 277 328 485 642
2026-04-27 01:00 3.22 231 1370 (1957) 34 (1956) 243 58 69 109 116 168 277 328 485 642
2026-04-27 00:00 3.13 211 1370 (1957) 34 (1956) 243 58 69 109 116 168 277 328 485 642
2026-04-26 23:00 3.13 211 1370 (1957) 34 (1956) 243 58 69 109 116 168 277 328 485 642
2026-04-26 22:00 3.13 211 4170 (2011) 36 (1956) 279 55 65 106 118 174 299 367 481 708
2026-04-26 21:00 3.14 213 4170 (2011) 36 (1956) 279 55 65 106 118 174 299 367 481 708
2026-04-26 20:00 3.14 213 4170 (2011) 36 (1956) 279 55 65 106 118 174 299 367 481 708
2026-04-26 19:00 3.14 213 4170 (2011) 36 (1956) 279 55 65 106 118 174 299 367 481 708
2026-04-26 18:00 3.15 216 4170 (2011) 36 (1956) 279 55 65 106 118 174 299 367 481 708
2026-04-26 17:00 3.16 218 4170 (2011) 36 (1956) 279 55 65 106 118 174 299 367 481 708
2026-04-26 16:00 3.17 220 4170 (2011) 36 (1956) 279 55 65 106 118 174 299 367 481 708
2026-04-26 15:00 3.17 220 4170 (2011) 36 (1956) 279 55 65 106 118 174 299 367 481 708
2026-04-26 14:00 3.18 222 4170 (2011) 36 (1956) 279 55 65 106 118 174 299 367 481 708
2026-04-26 13:00 3.19 224 4170 (2011) 36 (1956) 279 55 65 106 118 174 299 367 481 708
2026-04-26 12:00 3.19 224 4170 (2011) 36 (1956) 279 55 65 106 118 174 299 367 481 708
2026-04-26 11:00 3.20 226 4170 (2011) 36 (1956) 279 55 65 106 118 174 299 367 481 708
2026-04-26 10:00 3.21 229 4170 (2011) 36 (1956) 279 55 65 106 118 174 299 367 481 708
2026-04-26 09:00 3.21 229 4170 (2011) 36 (1956) 279 55 65 106 118 174 299 367 481 708
2026-04-26 08:00 3.22 231 4170 (2011) 36 (1956) 279 55 65 106 118 174 299 367 481 708
2026-04-26 07:00 3.22 231 4170 (2011) 36 (1956) 279 55 65 106 118 174 299 367 481 708
2026-04-26 06:00 3.23 233 4170 (2011) 36 (1956) 279 55 65 106 118 174 299 367 481 708
2026-04-26 05:00 3.23 233 4170 (2011) 36 (1956) 279 55 65 106 118 174 299 367 481 708
2026-04-26 04:00 3.24 235 4170 (2011) 36 (1956) 279 55 65 106 118 174 299 367 481 708
2026-04-26 03:00 3.25 238 4170 (2011) 36 (1956) 279 55 65 106 118 174 299 367 481 708
2026-04-26 02:00 3.25 238 4170 (2011) 36 (1956) 279 55 65 106 118 174 299 367 481 708
2026-04-26 01:00 3.26 240 4170 (2011) 36 (1956) 279 55 65 106 118 174 299 367 481 708
2026-04-26 00:00 3.26 240 4170 (2011) 36 (1956) 279 55 65 106 118 174 299 367 481 708
2026-04-25 23:00 3.27 242 4170 (2011) 36 (1956) 279 55 65 106 118 174 299 367 481 708
2026-04-25 22:00 3.28 244 6010 (1947) 39 (1956) 315 55 69 107 114 182 281 335 485 778
2026-04-25 21:00 3.28 244 6010 (1947) 39 (1956) 315 55 69 107 114 182 281 335 485 778
2026-04-25 20:00 3.29 247 6010 (1947) 39 (1956) 315 55 69 107 114 182 281 335 485 778
2026-04-25 19:00 3.30 249 6010 (1947) 39 (1956) 315 55 69 107 114 182 281 335 485 778
2026-04-25 18:00 3.31 252 6010 (1947) 39 (1956) 315 55 69 107 114 182 281 335 485 778
2026-04-25 17:00 3.32 254 6010 (1947) 39 (1956) 315 55 69 107 114 182 281 335 485 778
2026-04-25 16:00 3.33 256 6010 (1947) 39 (1956) 315 55 69 107 114 182 281 335 485 778
2026-04-25 15:00 3.34 259 6010 (1947) 39 (1956) 315 55 69 107 114 182 281 335 485 778
2026-04-25 14:00 3.35 261 6010 (1947) 39 (1956) 315 55 69 107 114 182 281 335 485 778
2026-04-25 13:00 3.36 263 6010 (1947) 39 (1956) 315 55 69 107 114 182 281 335 485 778
2026-04-25 12:00 3.37 266 6010 (1947) 39 (1956) 315 55 69 107 114 182 281 335 485 778
2026-04-25 11:00 3.38 268 6010 (1947) 39 (1956) 315 55 69 107 114 182 281 335 485 778
2026-04-25 10:00 3.39 271 6010 (1947) 39 (1956) 315 55 69 107 114 182 281 335 485 778
2026-04-25 09:00 3.40 273 6010 (1947) 39 (1956) 315 55 69 107 114 182 281 335 485 778
2026-04-25 08:00 3.41 276 6010 (1947) 39 (1956) 315 55 69 107 114 182 281 335 485 778
2026-04-25 07:00 3.42 278 6010 (1947) 39 (1956) 315 55 69 107 114 182 281 335 485 778
2026-04-25 06:00 3.43 281 6010 (1947) 39 (1956) 315 55 69 107 114 182 281 335 485 778
2026-04-25 05:00 3.44 283 6010 (1947) 39 (1956) 315 55 69 107 114 182 281 335 485 778
2026-04-25 04:00 3.45 286 6010 (1947) 39 (1956) 315 55 69 107 114 182 281 335 485 778
2026-04-25 03:00 3.46 288 6010 (1947) 39 (1956) 315 55 69 107 114 182 281 335 485 778
2026-04-25 02:00 3.48 293 6010 (1947) 39 (1956) 315 55 69 107 114 182 281 335 485 778
2026-04-25 01:00 3.49 296 6010 (1947) 39 (1956) 315 55 69 107 114 182 281 335 485 778
2026-04-25 00:00 3.51 301 6010 (1947) 39 (1956) 315 55 69 107 114 182 281 335 485 778
2026-04-24 23:00 3.53 306 6010 (1947) 39 (1956) 315 55 69 107 114 182 281 335 485 778
2026-04-24 22:00 3.55 312 4040 (1947) 36 (1956) 293 60 70 105 110 176 292 335 551 1010
2026-04-24 21:00 3.57 317 4040 (1947) 36 (1956) 293 60 70 105 110 176 292 335 551 1010
2026-04-24 20:00 3.59 323 4040 (1947) 36 (1956) 293 60 70 105 110 176 292 335 551 1010
2026-04-24 19:00 3.62 331 4040 (1947) 36 (1956) 293 60 70 105 110 176 292 335 551 1010
2026-04-24 18:00 3.65 339 4040 (1947) 36 (1956) 293 60 70 105 110 176 292 335 551 1010
2026-04-24 17:00 3.69 350 4040 (1947) 36 (1956) 293 60 70 105 110 176 292 335 551 1010
2026-04-24 16:00 3.72 359 4040 (1947) 36 (1956) 293 60 70 105 110 176 292 335 551 1010
2026-04-24 15:00 3.78 377 4040 (1947) 36 (1956) 293 60 70 105 110 176 292 335 551 1010
2026-04-24 14:00 3.82 389 4040 (1947) 36 (1956) 293 60 70 105 110 176 292 335 551 1010
2026-04-24 13:00 3.86 401 4040 (1947) 36 (1956) 293 60 70 105 110 176 292 335 551 1010
2026-04-24 12:00 3.86 416 4040 (1947) 36 (1956) 293 60 70 105 110 176 292 335 551 1010
2026-04-24 11:00 3.74 379 4040 (1947) 36 (1956) 293 60 70 105 110 176 292 335 551 1010
2026-04-24 10:00 3.39 283 4040 (1947) 36 (1956) 293 60 70 105 110 176 292 335 551 1010
2026-04-24 09:00 3.26 251 4040 (1947) 36 (1956) 293 60 70 105 110 176 292 335 551 1010
2026-04-24 08:00 3.21 240 4040 (1947) 36 (1956) 293 60 70 105 110 176 292 335 551 1010
2026-04-24 07:00 3.17 231 4040 (1947) 36 (1956) 293 60 70 105 110 176 292 335 551 1010
2026-04-24 06:00 3.13 222 4040 (1947) 36 (1956) 293 60 70 105 110 176 292 335 551 1010
2026-04-24 05:00 3.09 213 4040 (1947) 36 (1956) 293 60 70 105 110 176 292 335 551 1010
2026-04-24 04:00 3.06 207 4040 (1947) 36 (1956) 293 60 70 105 110 176 292 335 551 1010
2026-04-24 03:00 3.04 203 4040 (1947) 36 (1956) 293 60 70 105 110 176 292 335 551 1010
2026-04-24 02:00 3.05 205 4040 (1947) 36 (1956) 293 60 70 105 110 176 292 335 551 1010
2026-04-24 01:00 3.05 205 4040 (1947) 36 (1956) 293 60 70 105 110 176 292 335 551 1010
2026-04-24 00:00 3.06 207 4040 (1947) 36 (1956) 293 60 70 105 110 176 292 335 551 1010
2026-04-23 23:00 3.06 207 4040 (1947) 36 (1956) 293 60 70 105 110 176 292 335 551 1010
2026-04-23 22:00 3.06 207 4000 (1973) 35 (1956) 300 58 72 103 112 178 317 365 454 765
2026-04-23 21:00 3.06 207 4000 (1973) 35 (1956) 300 58 72 103 112 178 317 365 454 765
2026-04-23 20:00 3.07 209 4000 (1973) 35 (1956) 300 58 72 103 112 178 317 365 454 765
2026-04-23 19:00 3.07 209 4000 (1973) 35 (1956) 300 58 72 103 112 178 317 365 454 765
2026-04-23 18:00 3.08 211 4000 (1973) 35 (1956) 300 58 72 103 112 178 317 365 454 765
2026-04-23 17:00 3.08 211 4000 (1973) 35 (1956) 300 58 72 103 112 178 317 365 454 765
2026-04-23 16:00 3.09 213 4000 (1973) 35 (1956) 300 58 72 103 112 178 317 365 454 765
2026-04-23 15:00 3.09 213 4000 (1973) 35 (1956) 300 58 72 103 112 178 317 365 454 765
2026-04-23 14:00 3.10 216 4000 (1973) 35 (1956) 300 58 72 103 112 178 317 365 454 765
2026-04-23 13:00 3.10 216 4000 (1973) 35 (1956) 300 58 72 103 112 178 317 365 454 765
2026-04-23 12:00 3.11 218 4000 (1973) 35 (1956) 300 58 72 103 112 178 317 365 454 765
2026-04-23 11:00 3.11 218 4000 (1973) 35 (1956) 300 58 72 103 112 178 317 365 454 765
2026-04-23 10:00 3.11 218 4000 (1973) 35 (1956) 300 58 72 103 112 178 317 365 454 765
2026-04-23 09:00 3.12 220 4000 (1973) 35 (1956) 300 58 72 103 112 178 317 365 454 765
2026-04-23 08:00 3.12 220 4000 (1973) 35 (1956) 300 58 72 103 112 178 317 365 454 765
2026-04-23 07:00 3.12 220 4000 (1973) 35 (1956) 300 58 72 103 112 178 317 365 454 765
2026-04-23 06:00 3.13 222 4000 (1973) 35 (1956) 300 58 72 103 112 178 317 365 454 765
2026-04-23 05:00 3.13 222 4000 (1973) 35 (1956) 300 58 72 103 112 178 317 365 454 765
2026-04-23 04:00 3.14 224 4000 (1973) 35 (1956) 300 58 72 103 112 178 317 365 454 765
2026-04-23 03:00 3.14 224 4000 (1973) 35 (1956) 300 58 72 103 112 178 317 365 454 765
2026-04-23 02:00 3.14 224 4000 (1973) 35 (1956) 300 58 72 103 112 178 317 365 454 765
2026-04-23 01:00 3.14 224 4000 (1973) 35 (1956) 300 58 72 103 112 178 317 365 454 765
2026-04-23 00:00 3.15 226 4000 (1973) 35 (1956) 300 58 72 103 112 178 317 365 454 765
2026-04-22 23:00 3.15 226 4000 (1973) 35 (1956) 300 58 72 103 112 178 317 365 454 765
2026-04-22 22:00 3.16 229 3250 (1973) 36 (1956) 263 58 76 99 110 169 309 385 537 603
2026-04-22 21:00 3.16 229 3250 (1973) 36 (1956) 263 58 76 99 110 169 309 385 537 603
2026-04-22 20:00 3.16 229 3250 (1973) 36 (1956) 263 58 76 99 110 169 309 385 537 603
2026-04-22 19:00 3.17 231 3250 (1973) 36 (1956) 263 58 76 99 110 169 309 385 537 603
2026-04-22 18:00 3.18 233 3250 (1973) 36 (1956) 263 58 76 99 110 169 309 385 537 603
2026-04-22 17:00 3.18 233 3250 (1973) 36 (1956) 263 58 76 99 110 169 309 385 537 603
2026-04-22 16:00 3.19 235 3250 (1973) 36 (1956) 263 58 76 99 110 169 309 385 537 603
2026-04-22 15:00 3.19 235 3250 (1973) 36 (1956) 263 58 76 99 110 169 309 385 537 603
2026-04-22 14:00 3.20 238 3250 (1973) 36 (1956) 263 58 76 99 110 169 309 385 537 603
2026-04-22 13:00 3.21 240 3250 (1973) 36 (1956) 263 58 76 99 110 169 309 385 537 603
2026-04-22 12:00 3.21 240 3250 (1973) 36 (1956) 263 58 76 99 110 169 309 385 537 603
2026-04-22 11:00 3.21 240 3250 (1973) 36 (1956) 263 58 76 99 110 169 309 385 537 603
2026-04-22 10:00 3.22 242 3250 (1973) 36 (1956) 263 58 76 99 110 169 309 385 537 603
2026-04-22 09:00 3.22 242 3250 (1973) 36 (1956) 263 58 76 99 110 169 309 385 537 603
2026-04-22 08:00 3.23 244 3250 (1973) 36 (1956) 263 58 76 99 110 169 309 385 537 603
2026-04-22 07:00 3.23 244 3250 (1973) 36 (1956) 263 58 76 99 110 169 309 385 537 603
2026-04-22 06:00 3.24 247 3250 (1973) 36 (1956) 263 58 76 99 110 169 309 385 537 603
2026-04-22 05:00 3.24 247 3250 (1973) 36 (1956) 263 58 76 99 110 169 309 385 537 603
2026-04-22 04:00 3.25 249 3250 (1973) 36 (1956) 263 58 76 99 110 169 309 385 537 603
2026-04-22 03:00 3.25 249 3250 (1973) 36 (1956) 263 58 76 99 110 169 309 385 537 603
2026-04-22 02:00 3.26 251 3250 (1973) 36 (1956) 263 58 76 99 110 169 309 385 537 603
2026-04-22 01:00 3.26 251 3250 (1973) 36 (1956) 263 58 76 99 110 169 309 385 537 603
2026-04-22 00:00 3.27 254 3250 (1973) 36 (1956) 263 58 76 99 110 169 309 385 537 603
2026-04-21 23:00 3.27 254 3250 (1973) 36 (1956) 263 58 76 99 110 169 309 385 537 603
2026-04-21 22:00 3.28 256 2190 (1984) 36 (1956) 255 62 76 105 112 181 290 333 503 805
2026-04-21 21:00 3.28 256 2190 (1984) 36 (1956) 255 62 76 105 112 181 290 333 503 805
2026-04-21 20:00 3.28 256 2190 (1984) 36 (1956) 255 62 76 105 112 181 290 333 503 805
2026-04-21 19:00 3.29 259 2190 (1984) 36 (1956) 255 62 76 105 112 181 290 333 503 805
2026-04-21 18:00 3.30 261 2190 (1984) 36 (1956) 255 62 76 105 112 181 290 333 503 805
2026-04-21 17:00 3.31 263 2190 (1984) 36 (1956) 255 62 76 105 112 181 290 333 503 805
2026-04-21 16:00 3.31 263 2190 (1984) 36 (1956) 255 62 76 105 112 181 290 333 503 805
2026-04-21 15:00 3.33 268 2190 (1984) 36 (1956) 255 62 76 105 112 181 290 333 503 805
2026-04-21 14:00 3.34 271 2190 (1984) 36 (1956) 255 62 76 105 112 181 290 333 503 805
2026-04-21 13:00 3.35 273 2190 (1984) 36 (1956) 255 62 76 105 112 181 290 333 503 805
2026-04-21 12:00 3.35 273 2190 (1984) 36 (1956) 255 62 76 105 112 181 290 333 503 805
2026-04-21 11:00 3.36 276 2190 (1984) 36 (1956) 255 62 76 105 112 181 290 333 503 805
2026-04-21 10:00 3.36 276 2190 (1984) 36 (1956) 255 62 76 105 112 181 290 333 503 805
2026-04-21 09:00 3.36 276 2190 (1984) 36 (1956) 255 62 76 105 112 181 290 333 503 805
2026-04-21 08:00 3.37 278 2190 (1984) 36 (1956) 255 62 76 105 112 181 290 333 503 805
2026-04-21 07:00 3.38 281 2190 (1984) 36 (1956) 255 62 76 105 112 181 290 333 503 805
2026-04-21 06:00 3.38 281 2190 (1984) 36 (1956) 255 62 76 105 112 181 290 333 503 805
2026-04-21 05:00 3.39 283 2190 (1984) 36 (1956) 255 62 76 105 112 181 290 333 503 805
2026-04-21 04:00 3.39 283 2190 (1984) 36 (1956) 255 62 76 105 112 181 290 333 503 805
2026-04-21 03:00 3.40 286 2190 (1984) 36 (1956) 255 62 76 105 112 181 290 333 503 805
2026-04-21 02:00 3.41 288 2190 (1984) 36 (1956) 255 62 76 105 112 181 290 333 503 805
2026-04-21 01:00 3.42 291 2190 (1984) 36 (1956) 255 62 76 105 112 181 290 333 503 805
2026-04-21 00:00 3.43 293 2190 (1984) 36 (1956) 255 62 76 105 112 181 290 333 503 805
2026-04-20 23:00 3.43 293 2190 (1984) 36 (1956) 255 62 76 105 112 181 290 333 503 805
2026-04-20 22:00 3.44 296 3110 (2002) 37 (1956) 283 67 77 106 112 184 273 311 507 1230
2026-04-20 21:00 3.45 298 3110 (2002) 37 (1956) 283 67 77 106 112 184 273 311 507 1230
2026-04-20 20:00 3.46 301 3110 (2002) 37 (1956) 283 67 77 106 112 184 273 311 507 1230
2026-04-20 19:00 3.46 301 3110 (2002) 37 (1956) 283 67 77 106 112 184 273 311 507 1230
2026-04-20 18:00 3.48 306 3110 (2002) 37 (1956) 283 67 77 106 112 184 273 311 507 1230
2026-04-20 17:00 3.49 309 3110 (2002) 37 (1956) 283 67 77 106 112 184 273 311 507 1230
2026-04-20 16:00 3.50 311 3110 (2002) 37 (1956) 283 67 77 106 112 184 273 311 507 1230
2026-04-20 15:00 3.51 314 3110 (2002) 37 (1956) 283 67 77 106 112 184 273 311 507 1230
2026-04-20 14:00 3.52 317 3110 (2002) 37 (1956) 283 67 77 106 112 184 273 311 507 1230
2026-04-20 13:00 3.53 320 3110 (2002) 37 (1956) 283 67 77 106 112 184 273 311 507 1230
2026-04-20 12:00 3.54 322 3110 (2002) 37 (1956) 283 67 77 106 112 184 273 311 507 1230
2026-04-20 11:00 3.55 325 3110 (2002) 37 (1956) 283 67 77 106 112 184 273 311 507 1230
2026-04-20 10:00 3.56 328 3110 (2002) 37 (1956) 283 67 77 106 112 184 273 311 507 1230
2026-04-20 09:00 3.57 330 3110 (2002) 37 (1956) 283 67 77 106 112 184 273 311 507 1230
2026-04-20 08:00 3.58 333 3110 (2002) 37 (1956) 283 67 77 106 112 184 273 311 507 1230
2026-04-20 07:00 3.59 336 3110 (2002) 37 (1956) 283 67 77 106 112 184 273 311 507 1230
2026-04-20 06:00 3.60 339 3110 (2002) 37 (1956) 283 67 77 106 112 184 273 311 507 1230
2026-04-20 05:00 3.61 341 3110 (2002) 37 (1956) 283 67 77 106 112 184 273 311 507 1230
2026-04-20 04:00 3.62 344 3110 (2002) 37 (1956) 283 67 77 106 112 184 273 311 507 1230
2026-04-20 03:00 3.64 350 3110 (2002) 37 (1956) 283 67 77 106 112 184 273 311 507 1230
2026-04-20 02:00 3.65 353 3110 (2002) 37 (1956) 283 67 77 106 112 184 273 311 507 1230
2026-04-20 01:00 3.66 356 3110 (2002) 37 (1956) 283 67 77 106 112 184 273 311 507 1230
2026-04-20 00:00 3.67 359 3110 (2002) 37 (1956) 283 67 77 106 112 184 273 311 507 1230
2026-04-19 23:00 3.68 361 3110 (2002) 37 (1956) 283 67 77 106 112 184 273 311 507 1230
2026-04-19 22:00 3.70 367 6940 (1941) 37 (1956) 320 62 79 98 114 185 287 337 524 895
2026-04-19 21:00 3.71 370 6940 (1941) 37 (1956) 320 62 79 98 114 185 287 337 524 895
2026-04-19 20:00 3.73 376 6940 (1941) 37 (1956) 320 62 79 98 114 185 287 337 524 895
2026-04-19 19:00 3.75 382 6940 (1941) 37 (1956) 320 62 79 98 114 185 287 337 524 895
2026-04-19 18:00 3.77 388 6940 (1941) 37 (1956) 320 62 79 98 114 185 287 337 524 895
2026-04-19 17:00 3.79 394 6940 (1941) 37 (1956) 320 62 79 98 114 185 287 337 524 895
2026-04-19 16:00 3.81 400 6940 (1941) 37 (1956) 320 62 79 98 114 185 287 337 524 895
2026-04-19 15:00 3.83 406 6940 (1941) 37 (1956) 320 62 79 98 114 185 287 337 524 895
2026-04-19 14:00 3.86 416 6940 (1941) 37 (1956) 320 62 79 98 114 185 287 337 524 895
2026-04-19 13:00 3.89 425 6940 (1941) 37 (1956) 320 62 79 98 114 185 287 337 524 895
2026-04-19 12:00 3.91 432 6940 (1941) 37 (1956) 320 62 79 98 114 185 287 337 524 895
2026-04-19 11:00 3.93 438 6940 (1941) 37 (1956) 320 62 79 98 114 185 287 337 524 895
2026-04-19 10:00 3.96 448 6940 (1941) 37 (1956) 320 62 79 98 114 185 287 337 524 895
2026-04-19 09:00 3.99 458 6940 (1941) 37 (1956) 320 62 79 98 114 185 287 337 524 895
2026-04-19 08:00 4.03 471 6940 (1941) 37 (1956) 320 62 79 98 114 185 287 337 524 895
2026-04-19 07:00 4.07 485 6940 (1941) 37 (1956) 320 62 79 98 114 185 287 337 524 895
2026-04-19 06:00 4.11 499 6940 (1941) 37 (1956) 320 62 79 98 114 185 287 337 524 895
2026-04-19 05:00 4.16 516 6940 (1941) 37 (1956) 320 62 79 98 114 185 287 337 524 895
2026-04-19 04:00 4.21 534 6940 (1941) 37 (1956) 320 62 79 98 114 185 287 337 524 895
2026-04-19 03:00 4.28 560 6940 (1941) 37 (1956) 320 62 79 98 114 185 287 337 524 895
2026-04-19 02:00 4.35 587 6940 (1941) 37 (1956) 320 62 79 98 114 185 287 337 524 895
2026-04-19 01:00 4.43 618 6940 (1941) 37 (1956) 320 62 79 98 114 185 287 337 524 895
2026-04-19 00:00 4.51 650 6940 (1941) 37 (1956) 320 62 79 98 114 185 287 337 524 895
2026-04-18 23:00 4.62 696 6940 (1941) 37 (1956) 320 62 79 98 114 185 287 337 524 895
2026-04-18 22:00 4.73 743 888 (1939) 38 (1956) 218 60 69 93 111 172 271 315 405 645
2026-04-18 21:00 4.88 811 888 (1939) 38 (1956) 218 60 69 93 111 172 271 315 405 645
2026-04-18 20:00 5.04 887 888 (1939) 38 (1956) 218 60 69 93 111 172 271 315 405 645
2026-04-18 19:00 5.22 978 888 (1939) 38 (1956) 218 60 69 93 111 172 271 315 405 645
2026-04-18 18:00 5.42 1080 888 (1939) 38 (1956) 218 60 69 93 111 172 271 315 405 645
2026-04-18 17:00 5.57 1170 888 (1939) 38 (1956) 218 60 69 93 111 172 271 315 405 645
2026-04-18 16:00 5.57 1170 888 (1939) 38 (1956) 218 60 69 93 111 172 271 315 405 645
2026-04-18 15:00 5.41 1080 888 (1939) 38 (1956) 218 60 69 93 111 172 271 315 405 645
2026-04-18 14:00 5.42 1080 888 (1939) 38 (1956) 218 60 69 93 111 172 271 315 405 645
2026-04-18 13:00 5.48 1120 888 (1939) 38 (1956) 218 60 69 93 111 172 271 315 405 645
2026-04-18 12:00 5.46 1110 888 (1939) 38 (1956) 218 60 69 93 111 172 271 315 405 645
2026-04-18 11:00 5.56 1160 888 (1939) 38 (1956) 218 60 69 93 111 172 271 315 405 645
2026-04-18 10:00 5.72 1260 888 (1939) 38 (1956) 218 60 69 93 111 172 271 315 405 645
2026-04-18 09:00 5.93 1390 888 (1939) 38 (1956) 218 60 69 93 111 172 271 315 405 645
2026-04-18 08:00 6.05 1460 888 (1939) 38 (1956) 218 60 69 93 111 172 271 315 405 645
2026-04-18 07:00 5.81 1310 888 (1939) 38 (1956) 218 60 69 93 111 172 271 315 405 645
2026-04-18 06:00 4.95 844 888 (1939) 38 (1956) 218 60 69 93 111 172 271 315 405 645
2026-04-18 05:00 3.85 413 888 (1939) 38 (1956) 218 60 69 93 111 172 271 315 405 645
2026-04-18 04:00 3.32 266 888 (1939) 38 (1956) 218 60 69 93 111 172 271 315 405 645
2026-04-18 03:00 3.12 220 888 (1939) 38 (1956) 218 60 69 93 111 172 271 315 405 645
2026-04-18 02:00 3.06 207 888 (1939) 38 (1956) 218 60 69 93 111 172 271 315 405 645
2026-04-18 01:00 3.03 201 888 (1939) 38 (1956) 218 60 69 93 111 172 271 315 405 645
2026-04-18 00:00 3.00 195 888 (1939) 38 (1956) 218 60 69 93 111 172 271 315 405 645
2026-04-17 23:00 2.99 193 888 (1939) 38 (1956) 218 60 69 93 111 172 271 315 405 645
2026-04-17 22:00 2.97 189 2700 (1939) 40 (1956) 250 64 72 97 113 168 277 313 434 670
2026-04-17 21:00 2.96 187 2700 (1939) 40 (1956) 250 64 72 97 113 168 277 313 434 670
2026-04-17 20:00 2.97 189 2700 (1939) 40 (1956) 250 64 72 97 113 168 277 313 434 670
2026-04-17 19:00 2.97 189 2700 (1939) 40 (1956) 250 64 72 97 113 168 277 313 434 670
2026-04-17 18:00 2.98 191 2700 (1939) 40 (1956) 250 64 72 97 113 168 277 313 434 670
2026-04-17 17:00 2.98 191 2700 (1939) 40 (1956) 250 64 72 97 113 168 277 313 434 670
2026-04-17 16:00 2.99 193 2700 (1939) 40 (1956) 250 64 72 97 113 168 277 313 434 670
2026-04-17 15:00 2.99 193 2700 (1939) 40 (1956) 250 64 72 97 113 168 277 313 434 670
2026-04-17 14:00 3.00 195 2700 (1939) 40 (1956) 250 64 72 97 113 168 277 313 434 670
2026-04-17 13:00 3.00 195 2700 (1939) 40 (1956) 250 64 72 97 113 168 277 313 434 670
2026-04-17 12:00 3.00 195 2700 (1939) 40 (1956) 250 64 72 97 113 168 277 313 434 670
2026-04-17 11:00 3.01 197 2700 (1939) 40 (1956) 250 64 72 97 113 168 277 313 434 670
2026-04-17 10:00 3.01 197 2700 (1939) 40 (1956) 250 64 72 97 113 168 277 313 434 670
2026-04-17 09:00 3.01 197 2700 (1939) 40 (1956) 250 64 72 97 113 168 277 313 434 670
2026-04-17 08:00 3.02 199 2700 (1939) 40 (1956) 250 64 72 97 113 168 277 313 434 670
2026-04-17 07:00 3.02 199 2700 (1939) 40 (1956) 250 64 72 97 113 168 277 313 434 670
2026-04-17 06:00 3.03 201 2700 (1939) 40 (1956) 250 64 72 97 113 168 277 313 434 670
2026-04-17 05:00 3.03 201 2700 (1939) 40 (1956) 250 64 72 97 113 168 277 313 434 670
2026-04-17 04:00 3.04 203 2700 (1939) 40 (1956) 250 64 72 97 113 168 277 313 434 670
2026-04-17 03:00 3.04 203 2700 (1939) 40 (1956) 250 64 72 97 113 168 277 313 434 670
2026-04-17 02:00 3.04 203 2700 (1939) 40 (1956) 250 64 72 97 113 168 277 313 434 670
2026-04-17 01:00 3.05 205 2700 (1939) 40 (1956) 250 64 72 97 113 168 277 313 434 670
2026-04-17 00:00 3.06 207 2700 (1939) 40 (1956) 250 64 72 97 113 168 277 313 434 670
2026-04-16 23:00 3.06 207 2700 (1939) 40 (1956) 250 64 72 97 113 168 277 313 434 670
2026-04-16 22:00 3.07 209 4010 (1939) 43 (1956) 303 68 74 100 116 177 318 353 555 962
2026-04-16 21:00 3.07 209 4010 (1939) 43 (1956) 303 68 74 100 116 177 318 353 555 962
2026-04-16 20:00 3.08 211 4010 (1939) 43 (1956) 303 68 74 100 116 177 318 353 555 962
2026-04-16 19:00 3.09 213 4010 (1939) 43 (1956) 303 68 74 100 116 177 318 353 555 962
2026-04-16 18:00 3.10 216 4010 (1939) 43 (1956) 303 68 74 100 116 177 318 353 555 962
2026-04-16 17:00 3.12 220 4010 (1939) 43 (1956) 303 68 74 100 116 177 318 353 555 962
2026-04-16 16:00 3.13 222 4010 (1939) 43 (1956) 303 68 74 100 116 177 318 353 555 962
2026-04-16 15:00 3.14 224 4010 (1939) 43 (1956) 303 68 74 100 116 177 318 353 555 962
2026-04-16 14:00 3.15 226 4010 (1939) 43 (1956) 303 68 74 100 116 177 318 353 555 962
2026-04-16 13:00 3.16 229 4010 (1939) 43 (1956) 303 68 74 100 116 177 318 353 555 962
2026-04-16 12:00 3.18 233 4010 (1939) 43 (1956) 303 68 74 100 116 177 318 353 555 962
2026-04-16 11:00 3.21 240 4010 (1939) 43 (1956) 303 68 74 100 116 177 318 353 555 962
2026-04-16 10:00 3.23 244 4010 (1939) 43 (1956) 303 68 74 100 116 177 318 353 555 962
2026-04-16 09:00 3.25 249 4010 (1939) 43 (1956) 303 68 74 100 116 177 318 353 555 962
2026-04-16 08:00 3.26 293 4010 (1939) 43 (1956) 303 68 74 100 116 177 318 353 555 962
2026-04-16 07:00 3.26 293 4010 (1939) 43 (1956) 303 68 74 100 116 177 318 353 555 962
2026-04-16 06:00 3.16 268 4010 (1939) 43 (1956) 303 68 74 100 116 177 318 353 555 962
2026-04-16 05:00 3.05 242 4010 (1939) 43 (1956) 303 68 74 100 116 177 318 353 555 962
2026-04-16 04:00 2.97 224 4010 (1939) 43 (1956) 303 68 74 100 116 177 318 353 555 962
2026-04-16 03:00 2.88 205 4010 (1939) 43 (1956) 303 68 74 100 116 177 318 353 555 962
2026-04-16 02:00 2.85 199 4010 (1939) 43 (1956) 303 68 74 100 116 177 318 353 555 962
2026-04-16 01:00 2.83 195 4010 (1939) 43 (1956) 303 68 74 100 116 177 318 353 555 962
2026-04-16 00:00 2.80 189 4010 (1939) 43 (1956) 303 68 74 100 116 177 318 353 555 962
2026-04-15 23:00 2.77 183 4010 (1939) 43 (1956) 303 68 74 100 116 177 318 353 555 962
2026-04-15 22:00 2.76 181 3320 (1991) 44 (1954) 298 66 73 96 109 173 299 354 540 1250
2026-04-15 21:00 2.75 179 3320 (1991) 44 (1954) 298 66 73 96 109 173 299 354 540 1250
2026-04-15 20:00 2.74 177 3320 (1991) 44 (1954) 298 66 73 96 109 173 299 354 540 1250
2026-04-15 19:00 2.75 179 3320 (1991) 44 (1954) 298 66 73 96 109 173 299 354 540 1250
2026-04-15 18:00 2.75 179 3320 (1991) 44 (1954) 298 66 73 96 109 173 299 354 540 1250
2026-04-15 17:00 2.76 181 3320 (1991) 44 (1954) 298 66 73 96 109 173 299 354 540 1250
2026-04-15 16:00 2.76 181 3320 (1991) 44 (1954) 298 66 73 96 109 173 299 354 540 1250
2026-04-15 15:00 2.76 181 3320 (1991) 44 (1954) 298 66 73 96 109 173 299 354 540 1250
2026-04-15 14:00 2.76 181 3320 (1991) 44 (1954) 298 66 73 96 109 173 299 354 540 1250
2026-04-15 13:00 2.77 183 3320 (1991) 44 (1954) 298 66 73 96 109 173 299 354 540 1250
2026-04-15 12:00 2.75 179 3320 (1991) 44 (1954) 298 66 73 96 109 173 299 354 540 1250
2026-04-15 11:00 2.74 177 3320 (1991) 44 (1954) 298 66 73 96 109 173 299 354 540 1250
2026-04-15 10:00 2.74 177 3320 (1991) 44 (1954) 298 66 73 96 109 173 299 354 540 1250
2026-04-15 09:00 2.73 175 3320 (1991) 44 (1954) 298 66 73 96 109 173 299 354 540 1250
2026-04-15 08:00 2.72 173 3320 (1991) 44 (1954) 298 66 73 96 109 173 299 354 540 1250
2026-04-15 07:00 2.72 173 3320 (1991) 44 (1954) 298 66 73 96 109 173 299 354 540 1250
2026-04-15 06:00 2.72 173 3320 (1991) 44 (1954) 298 66 73 96 109 173 299 354 540 1250
2026-04-15 05:00 2.73 175 3320 (1991) 44 (1954) 298 66 73 96 109 173 299 354 540 1250
2026-04-15 04:00 2.73 175 3320 (1991) 44 (1954) 298 66 73 96 109 173 299 354 540 1250
2026-04-15 03:00 2.73 175 3320 (1991) 44 (1954) 298 66 73 96 109 173 299 354 540 1250
2026-04-15 02:00 2.73 175 3320 (1991) 44 (1954) 298 66 73 96 109 173 299 354 540 1250
2026-04-15 01:00 2.73 175 3320 (1991) 44 (1954) 298 66 73 96 109 173 299 354 540 1250
2026-04-15 00:00 2.73 175 3320 (1991) 44 (1954) 298 66 73 96 109 173 299 354 540 1250
2026-04-14 23:00 2.73 175 3320 (1991) 44 (1954) 298 66 73 96 109 173 299 354 540 1250
2026-04-14 22:00 2.73 175 10200 (1945) 44 (1954) 356 58 69 99 107 173 278 335 587 1170
2026-04-14 21:00 2.73 175 10200 (1945) 44 (1954) 356 58 69 99 107 173 278 335 587 1170
2026-04-14 20:00 2.73 175 10200 (1945) 44 (1954) 356 58 69 99 107 173 278 335 587 1170
2026-04-14 19:00 2.73 175 10200 (1945) 44 (1954) 356 58 69 99 107 173 278 335 587 1170
2026-04-14 18:00 2.73 175 10200 (1945) 44 (1954) 356 58 69 99 107 173 278 335 587 1170
2026-04-14 17:00 2.74 177 10200 (1945) 44 (1954) 356 58 69 99 107 173 278 335 587 1170
2026-04-14 16:00 2.74 177 10200 (1945) 44 (1954) 356 58 69 99 107 173 278 335 587 1170
2026-04-14 15:00 2.75 179 10200 (1945) 44 (1954) 356 58 69 99 107 173 278 335 587 1170
2026-04-14 14:00 2.75 179 10200 (1945) 44 (1954) 356 58 69 99 107 173 278 335 587 1170
2026-04-14 13:00 2.75 179 10200 (1945) 44 (1954) 356 58 69 99 107 173 278 335 587 1170
2026-04-14 12:00 2.73 175 10200 (1945) 44 (1954) 356 58 69 99 107 173 278 335 587 1170
2026-04-14 10:00 2.75 179 10200 (1945) 44 (1954) 356 58 69 99 107 173 278 335 587 1170
2026-04-14 09:00 2.75 179 10200 (1945) 44 (1954) 356 58 69 99 107 173 278 335 587 1170
2026-04-14 08:00 2.75 179 10200 (1945) 44 (1954) 356 58 69 99 107 173 278 335 587 1170
2026-04-14 07:00 2.75 179 10200 (1945) 44 (1954) 356 58 69 99 107 173 278 335 587 1170
2026-04-14 06:00 2.75 179 10200 (1945) 44 (1954) 356 58 69 99 107 173 278 335 587 1170
2026-04-14 05:00 2.75 179 10200 (1945) 44 (1954) 356 58 69 99 107 173 278 335 587 1170
2026-04-14 04:00 2.76 181 10200 (1945) 44 (1954) 356 58 69 99 107 173 278 335 587 1170
2026-04-14 03:00 2.76 181 10200 (1945) 44 (1954) 356 58 69 99 107 173 278 335 587 1170
2026-04-14 02:00 2.76 181 10200 (1945) 44 (1954) 356 58 69 99 107 173 278 335 587 1170
2026-04-14 01:00 2.76 181 10200 (1945) 44 (1954) 356 58 69 99 107 173 278 335 587 1170
2026-04-14 00:00 2.76 181 10200 (1945) 44 (1954) 356 58 69 99 107 173 278 335 587 1170
2026-04-13 23:00 2.76 181 10200 (1945) 44 (1954) 356 58 69 99 107 173 278 335 587 1170
2026-04-13 22:00 2.76 181 6760 (1945) 46 (1941) 304 55 69 95 109 170 275 299 456 776
2026-04-13 21:00 2.76 181 6760 (1945) 46 (1941) 304 55 69 95 109 170 275 299 456 776
2026-04-13 20:00 2.76 181 6760 (1945) 46 (1941) 304 55 69 95 109 170 275 299 456 776
2026-04-13 19:00 2.76 181 6760 (1945) 46 (1941) 304 55 69 95 109 170 275 299 456 776
2026-04-13 18:00 2.76 181 6760 (1945) 46 (1941) 304 55 69 95 109 170 275 299 456 776
2026-04-13 17:00 2.77 183 6760 (1945) 46 (1941) 304 55 69 95 109 170 275 299 456 776
2026-04-13 16:00 2.77 183 6760 (1945) 46 (1941) 304 55 69 95 109 170 275 299 456 776
2026-04-13 15:00 2.77 183 6760 (1945) 46 (1941) 304 55 69 95 109 170 275 299 456 776
2026-04-13 14:00 2.77 183 6760 (1945) 46 (1941) 304 55 69 95 109 170 275 299 456 776
2026-04-13 13:00 2.77 183 6760 (1945) 46 (1941) 304 55 69 95 109 170 275 299 456 776
2026-04-13 12:00 2.78 185 6760 (1945) 46 (1941) 304 55 69 95 109 170 275 299 456 776
2026-04-13 11:00 2.78 185 6760 (1945) 46 (1941) 304 55 69 95 109 170 275 299 456 776
2026-04-13 10:00 2.78 185 6760 (1945) 46 (1941) 304 55 69 95 109 170 275 299 456 776
2026-04-13 09:00 2.78 185 6760 (1945) 46 (1941) 304 55 69 95 109 170 275 299 456 776
2026-04-13 08:00 2.78 185 6760 (1945) 46 (1941) 304 55 69 95 109 170 275 299 456 776
2026-04-13 07:00 2.78 185 6760 (1945) 46 (1941) 304 55 69 95 109 170 275 299 456 776
2026-04-13 06:00 2.78 185 6760 (1945) 46 (1941) 304 55 69 95 109 170 275 299 456 776
2026-04-13 05:00 2.79 187 6760 (1945) 46 (1941) 304 55 69 95 109 170 275 299 456 776
2026-04-13 04:00 2.79 187 6760 (1945) 46 (1941) 304 55 69 95 109 170 275 299 456 776
2026-04-13 03:00 2.79 187 6760 (1945) 46 (1941) 304 55 69 95 109 170 275 299 456 776
2026-04-13 02:00 2.79 187 6760 (1945) 46 (1941) 304 55 69 95 109 170 275 299 456 776
2026-04-13 01:00 2.79 187 6760 (1945) 46 (1941) 304 55 69 95 109 170 275 299 456 776
2026-04-13 00:00 2.79 187 6760 (1945) 46 (1941) 304 55 69 95 109 170 275 299 456 776
2026-04-12 23:00 2.79 187 6760 (1945) 46 (1941) 304 55 69 95 109 170 275 299 456 776
2026-04-12 22:00 2.79 187 3050 (1994) 47 (1941) 263 55 68 102 111 165 298 337 476 644
2026-04-12 21:00 2.80 189 3050 (1994) 47 (1941) 263 55 68 102 111 165 298 337 476 644
2026-04-12 20:00 2.80 189 3050 (1994) 47 (1941) 263 55 68 102 111 165 298 337 476 644
2026-04-12 19:00 2.80 189 3050 (1994) 47 (1941) 263 55 68 102 111 165 298 337 476 644
2026-04-12 18:00 2.80 189 3050 (1994) 47 (1941) 263 55 68 102 111 165 298 337 476 644
2026-04-12 17:00 2.80 189 3050 (1994) 47 (1941) 263 55 68 102 111 165 298 337 476 644
2026-04-12 16:00 2.80 189 3050 (1994) 47 (1941) 263 55 68 102 111 165 298 337 476 644
2026-04-12 15:00 2.80 189 3050 (1994) 47 (1941) 263 55 68 102 111 165 298 337 476 644
2026-04-12 14:00 2.81 191 3050 (1994) 47 (1941) 263 55 68 102 111 165 298 337 476 644
2026-04-12 13:00 2.81 191 3050 (1994) 47 (1941) 263 55 68 102 111 165 298 337 476 644
2026-04-12 12:00 2.81 191 3050 (1994) 47 (1941) 263 55 68 102 111 165 298 337 476 644
2026-04-12 11:00 2.81 191 3050 (1994) 47 (1941) 263 55 68 102 111 165 298 337 476 644
2026-04-12 10:00 2.81 191 3050 (1994) 47 (1941) 263 55 68 102 111 165 298 337 476 644
2026-04-12 09:00 2.81 191 3050 (1994) 47 (1941) 263 55 68 102 111 165 298 337 476 644
2026-04-12 08:00 2.81 191 3050 (1994) 47 (1941) 263 55 68 102 111 165 298 337 476 644
2026-04-12 07:00 2.82 193 3050 (1994) 47 (1941) 263 55 68 102 111 165 298 337 476 644
2026-04-12 06:00 2.82 193 3050 (1994) 47 (1941) 263 55 68 102 111 165 298 337 476 644
2026-04-12 05:00 2.82 193 3050 (1994) 47 (1941) 263 55 68 102 111 165 298 337 476 644
2026-04-12 04:00 2.82 193 3050 (1994) 47 (1941) 263 55 68 102 111 165 298 337 476 644
2026-04-12 03:00 2.82 193 3050 (1994) 47 (1941) 263 55 68 102 111 165 298 337 476 644
2026-04-12 02:00 2.82 193 3050 (1994) 47 (1941) 263 55 68 102 111 165 298 337 476 644
2026-04-12 01:00 2.82 193 3050 (1994) 47 (1941) 263 55 68 102 111 165 298 337 476 644
2026-04-12 00:00 2.82 193 3050 (1994) 47 (1941) 263 55 68 102 111 165 298 337 476 644
2026-04-11 23:00 2.83 195 3050 (1994) 47 (1941) 263 55 68 102 111 165 298 337 476 644
2026-04-11 22:00 2.83 195 6640 (1994) 48 (1941) 328 60 70 102 115 172 266 360 581 801
2026-04-11 21:00 2.83 195 6640 (1994) 48 (1941) 328 60 70 102 115 172 266 360 581 801
2026-04-11 20:00 2.83 195 6640 (1994) 48 (1941) 328 60 70 102 115 172 266 360 581 801
2026-04-11 19:00 2.83 195 6640 (1994) 48 (1941) 328 60 70 102 115 172 266 360 581 801
2026-04-11 18:00 2.84 197 6640 (1994) 48 (1941) 328 60 70 102 115 172 266 360 581 801
2026-04-11 17:00 2.84 197 6640 (1994) 48 (1941) 328 60 70 102 115 172 266 360 581 801
2026-04-11 16:00 2.84 197 6640 (1994) 48 (1941) 328 60 70 102 115 172 266 360 581 801
2026-04-11 15:00 2.85 199 6640 (1994) 48 (1941) 328 60 70 102 115 172 266 360 581 801
2026-04-11 14:00 2.85 199 6640 (1994) 48 (1941) 328 60 70 102 115 172 266 360 581 801
2026-04-11 13:00 2.85 199 6640 (1994) 48 (1941) 328 60 70 102 115 172 266 360 581 801
2026-04-11 12:00 2.85 199 6640 (1994) 48 (1941) 328 60 70 102 115 172 266 360 581 801
2026-04-11 11:00 2.85 199 6640 (1994) 48 (1941) 328 60 70 102 115 172 266 360 581 801
2026-04-11 10:00 2.85 199 6640 (1994) 48 (1941) 328 60 70 102 115 172 266 360 581 801
2026-04-11 09:00 2.86 201 6640 (1994) 48 (1941) 328 60 70 102 115 172 266 360 581 801
2026-04-11 08:00 2.85 199 6640 (1994) 48 (1941) 328 60 70 102 115 172 266 360 581 801
2026-04-11 07:00 2.86 201 6640 (1994) 48 (1941) 328 60 70 102 115 172 266 360 581 801
2026-04-11 06:00 2.86 201 6640 (1994) 48 (1941) 328 60 70 102 115 172 266 360 581 801
2026-04-11 05:00 2.86 201 6640 (1994) 48 (1941) 328 60 70 102 115 172 266 360 581 801
2026-04-11 04:00 2.86 201 6640 (1994) 48 (1941) 328 60 70 102 115 172 266 360 581 801
2026-04-11 03:00 2.86 201 6640 (1994) 48 (1941) 328 60 70 102 115 172 266 360 581 801
2026-04-11 02:00 2.86 201 6640 (1994) 48 (1941) 328 60 70 102 115 172 266 360 581 801
2026-04-11 01:00 2.87 203 6640 (1994) 48 (1941) 328 60 70 102 115 172 266 360 581 801
2026-04-11 00:00 2.87 203 6640 (1994) 48 (1941) 328 60 70 102 115 172 266 360 581 801
2026-04-10 23:00 2.88 205 6640 (1994) 48 (1941) 328 60 70 102 115 172 266 360 581 801
2026-04-10 22:00 2.88 205 4640 (2008) 43 (1954) 295 61 71 96 106 157 250 263 516 688
2026-04-10 21:00 2.88 205 4640 (2008) 43 (1954) 295 61 71 96 106 157 250 263 516 688
2026-04-10 20:00 2.88 205 4640 (2008) 43 (1954) 295 61 71 96 106 157 250 263 516 688
2026-04-10 19:00 2.89 207 4640 (2008) 43 (1954) 295 61 71 96 106 157 250 263 516 688
2026-04-10 18:00 2.89 207 4640 (2008) 43 (1954) 295 61 71 96 106 157 250 263 516 688
2026-04-10 17:00 2.89 207 4640 (2008) 43 (1954) 295 61 71 96 106 157 250 263 516 688
2026-04-10 16:00 2.89 207 4640 (2008) 43 (1954) 295 61 71 96 106 157 250 263 516 688
2026-04-10 15:00 2.90 209 4640 (2008) 43 (1954) 295 61 71 96 106 157 250 263 516 688
2026-04-10 14:00 2.90 209 4640 (2008) 43 (1954) 295 61 71 96 106 157 250 263 516 688
2026-04-10 13:00 2.90 209 4640 (2008) 43 (1954) 295 61 71 96 106 157 250 263 516 688
2026-04-10 12:00 2.90 209 4640 (2008) 43 (1954) 295 61 71 96 106 157 250 263 516 688
2026-04-10 11:00 2.90 209 4640 (2008) 43 (1954) 295 61 71 96 106 157 250 263 516 688
2026-04-10 10:00 2.90 209 4640 (2008) 43 (1954) 295 61 71 96 106 157 250 263 516 688
2026-04-10 09:00 2.90 209 4640 (2008) 43 (1954) 295 61 71 96 106 157 250 263 516 688
2026-04-10 08:00 2.91 211 4640 (2008) 43 (1954) 295 61 71 96 106 157 250 263 516 688
2026-04-10 07:00 2.91 211 4640 (2008) 43 (1954) 295 61 71 96 106 157 250 263 516 688
2026-04-10 06:00 2.91 211 4640 (2008) 43 (1954) 295 61 71 96 106 157 250 263 516 688
2026-04-10 05:00 2.92 213 4640 (2008) 43 (1954) 295 61 71 96 106 157 250 263 516 688
2026-04-10 04:00 2.92 213 4640 (2008) 43 (1954) 295 61 71 96 106 157 250 263 516 688
2026-04-10 03:00 2.92 213 4640 (2008) 43 (1954) 295 61 71 96 106 157 250 263 516 688
2026-04-10 02:00 2.92 213 4640 (2008) 43 (1954) 295 61 71 96 106 157 250 263 516 688
2026-04-10 01:00 2.92 213 4640 (2008) 43 (1954) 295 61 71 96 106 157 250 263 516 688
2026-04-10 00:00 2.93 216 4640 (2008) 43 (1954) 295 61 71 96 106 157 250 263 516 688
2026-04-09 23:00 2.93 216 4640 (2008) 43 (1954) 295 61 71 96 106 157 250 263 516 688
2026-04-09 22:00 2.93 216 1540 (1961) 35 (1956) 226 57 72 95 105 154 245 267 418 774
2026-04-09 21:00 2.94 218 1540 (1961) 35 (1956) 226 57 72 95 105 154 245 267 418 774
2026-04-09 20:00 2.93 216 1540 (1961) 35 (1956) 226 57 72 95 105 154 245 267 418 774
2026-04-09 19:00 2.94 218 1540 (1961) 35 (1956) 226 57 72 95 105 154 245 267 418 774
2026-04-09 18:00 2.95 220 1540 (1961) 35 (1956) 226 57 72 95 105 154 245 267 418 774
2026-04-09 17:00 2.94 218 1540 (1961) 35 (1956) 226 57 72 95 105 154 245 267 418 774
2026-04-09 16:00 2.95 220 1540 (1961) 35 (1956) 226 57 72 95 105 154 245 267 418 774
2026-04-09 15:00 2.96 222 1540 (1961) 35 (1956) 226 57 72 95 105 154 245 267 418 774
2026-04-09 14:00 2.97 224 1540 (1961) 35 (1956) 226 57 72 95 105 154 245 267 418 774
2026-04-09 13:00 2.97 224 1540 (1961) 35 (1956) 226 57 72 95 105 154 245 267 418 774
2026-04-09 12:00 2.97 224 1540 (1961) 35 (1956) 226 57 72 95 105 154 245 267 418 774
2026-04-09 11:00 2.97 224 1540 (1961) 35 (1956) 226 57 72 95 105 154 245 267 418 774
2026-04-09 10:00 2.98 226 1540 (1961) 35 (1956) 226 57 72 95 105 154 245 267 418 774
2026-04-09 09:00 2.98 226 1540 (1961) 35 (1956) 226 57 72 95 105 154 245 267 418 774
2026-04-09 08:00 2.98 226 1540 (1961) 35 (1956) 226 57 72 95 105 154 245 267 418 774
2026-04-09 07:00 2.98 226 1540 (1961) 35 (1956) 226 57 72 95 105 154 245 267 418 774
2026-04-09 06:00 2.99 229 1540 (1961) 35 (1956) 226 57 72 95 105 154 245 267 418 774
2026-04-09 05:00 2.99 229 1540 (1961) 35 (1956) 226 57 72 95 105 154 245 267 418 774
2026-04-09 04:00 2.99 229 1540 (1961) 35 (1956) 226 57 72 95 105 154 245 267 418 774
2026-04-09 03:00 3.00 231 1540 (1961) 35 (1956) 226 57 72 95 105 154 245 267 418 774
2026-04-09 02:00 3.00 231 1540 (1961) 35 (1956) 226 57 72 95 105 154 245 267 418 774
2026-04-09 01:00 3.00 231 1540 (1961) 35 (1956) 226 57 72 95 105 154 245 267 418 774
2026-04-09 00:00 3.00 231 1540 (1961) 35 (1956) 226 57 72 95 105 154 245 267 418 774
2026-04-08 23:00 3.01 233 1540 (1961) 35 (1956) 226 57 72 95 105 154 245 267 418 774
2026-04-08 22:00 3.01 233 860 (1929) 35 (1956) 214 58 74 101 112 164 261 287 425 582
2026-04-08 21:00 3.01 233 860 (1929) 35 (1956) 214 58 74 101 112 164 261 287 425 582
2026-04-08 20:00 3.01 233 860 (1929) 35 (1956) 214 58 74 101 112 164 261 287 425 582
2026-04-08 19:00 3.02 235 860 (1929) 35 (1956) 214 58 74 101 112 164 261 287 425 582
2026-04-08 18:00 3.02 235 860 (1929) 35 (1956) 214 58 74 101 112 164 261 287 425 582
2026-04-08 17:00 3.03 238 860 (1929) 35 (1956) 214 58 74 101 112 164 261 287 425 582
2026-04-08 16:00 3.03 238 860 (1929) 35 (1956) 214 58 74 101 112 164 261 287 425 582
2026-04-08 15:00 3.04 240 860 (1929) 35 (1956) 214 58 74 101 112 164 261 287 425 582
2026-04-08 14:00 3.04 240 860 (1929) 35 (1956) 214 58 74 101 112 164 261 287 425 582
2026-04-08 13:00 3.05 242 860 (1929) 35 (1956) 214 58 74 101 112 164 261 287 425 582
2026-04-08 12:00 3.06 244 860 (1929) 35 (1956) 214 58 74 101 112 164 261 287 425 582
2026-04-08 11:00 3.06 244 860 (1929) 35 (1956) 214 58 74 101 112 164 261 287 425 582
2026-04-08 10:00 3.06 244 860 (1929) 35 (1956) 214 58 74 101 112 164 261 287 425 582
2026-04-08 09:00 3.06 244 860 (1929) 35 (1956) 214 58 74 101 112 164 261 287 425 582
2026-04-08 08:00 3.07 247 860 (1929) 35 (1956) 214 58 74 101 112 164 261 287 425 582
2026-04-08 07:00 3.07 247 860 (1929) 35 (1956) 214 58 74 101 112 164 261 287 425 582
2026-04-08 06:00 3.08 249 860 (1929) 35 (1956) 214 58 74 101 112 164 261 287 425 582
2026-04-08 05:00 3.08 249 860 (1929) 35 (1956) 214 58 74 101 112 164 261 287 425 582
2026-04-08 04:00 3.09 251 860 (1929) 35 (1956) 214 58 74 101 112 164 261 287 425 582
2026-04-08 03:00 3.09 251 860 (1929) 35 (1956) 214 58 74 101 112 164 261 287 425 582
2026-04-08 02:00 3.10 254 860 (1929) 35 (1956) 214 58 74 101 112 164 261 287 425 582
2026-04-08 01:00 3.11 256 860 (1929) 35 (1956) 214 58 74 101 112 164 261 287 425 582
2026-04-08 00:00 3.11 256 860 (1929) 35 (1956) 214 58 74 101 112 164 261 287 425 582
2026-04-07 23:00 3.11 256 860 (1929) 35 (1956) 214 58 74 101 112 164 261 287 425 582
2026-04-07 22:00 3.11 256 742 (1935) 35 (1956) 204 60 77 103 115 165 264 280 385 534
2026-04-07 21:00 3.12 259 742 (1935) 35 (1956) 204 60 77 103 115 165 264 280 385 534
2026-04-07 20:00 3.12 259 742 (1935) 35 (1956) 204 60 77 103 115 165 264 280 385 534
2026-04-07 19:00 3.13 261 742 (1935) 35 (1956) 204 60 77 103 115 165 264 280 385 534
2026-04-07 18:00 3.14 263 742 (1935) 35 (1956) 204 60 77 103 115 165 264 280 385 534
2026-04-07 17:00 3.14 263 742 (1935) 35 (1956) 204 60 77 103 115 165 264 280 385 534
2026-04-07 16:00 3.15 266 742 (1935) 35 (1956) 204 60 77 103 115 165 264 280 385 534
2026-04-07 15:00 3.16 268 742 (1935) 35 (1956) 204 60 77 103 115 165 264 280 385 534
2026-04-07 14:00 3.16 268 742 (1935) 35 (1956) 204 60 77 103 115 165 264 280 385 534
2026-04-07 13:00 3.17 271 742 (1935) 35 (1956) 204 60 77 103 115 165 264 280 385 534
2026-04-07 12:00 3.18 273 742 (1935) 35 (1956) 204 60 77 103 115 165 264 280 385 534
2026-04-07 11:00 3.18 273 742 (1935) 35 (1956) 204 60 77 103 115 165 264 280 385 534
2026-04-07 10:00 3.19 276 742 (1935) 35 (1956) 204 60 77 103 115 165 264 280 385 534
2026-04-07 09:00 3.20 278 742 (1935) 35 (1956) 204 60 77 103 115 165 264 280 385 534
2026-04-07 08:00 3.20 278 742 (1935) 35 (1956) 204 60 77 103 115 165 264 280 385 534
2026-04-07 07:00 3.21 281 742 (1935) 35 (1956) 204 60 77 103 115 165 264 280 385 534
2026-04-07 06:00 3.21 281 742 (1935) 35 (1956) 204 60 77 103 115 165 264 280 385 534
2026-04-07 05:00 3.22 283 742 (1935) 35 (1956) 204 60 77 103 115 165 264 280 385 534
2026-04-07 04:00 3.22 283 742 (1935) 35 (1956) 204 60 77 103 115 165 264 280 385 534
2026-04-07 03:00 3.24 288 742 (1935) 35 (1956) 204 60 77 103 115 165 264 280 385 534
2026-04-07 02:00 3.24 288 742 (1935) 35 (1956) 204 60 77 103 115 165 264 280 385 534
2026-04-07 01:00 3.25 291 742 (1935) 35 (1956) 204 60 77 103 115 165 264 280 385 534
2026-04-07 00:00 3.26 293 742 (1935) 35 (1956) 204 60 77 103 115 165 264 280 385 534
2026-04-06 23:00 3.26 293 742 (1935) 35 (1956) 204 60 77 103 115 165 264 280 385 534
2026-04-06 22:00 3.27 296 1570 (2025) 36 (1956) 237 62 76 93 115 165 281 302 461 707
2026-04-06 21:00 3.27 296 1570 (2025) 36 (1956) 237 62 76 93 115 165 281 302 461 707
2026-04-06 20:00 3.28 298 1570 (2025) 36 (1956) 237 62 76 93 115 165 281 302 461 707
2026-04-06 19:00 3.29 301 1570 (2025) 36 (1956) 237 62 76 93 115 165 281 302 461 707
2026-04-06 18:00 3.30 303 1570 (2025) 36 (1956) 237 62 76 93 115 165 281 302 461 707
2026-04-06 17:00 3.31 306 1570 (2025) 36 (1956) 237 62 76 93 115 165 281 302 461 707
2026-04-06 16:00 3.32 309 1570 (2025) 36 (1956) 237 62 76 93 115 165 281 302 461 707
2026-04-06 15:00 3.33 311 1570 (2025) 36 (1956) 237 62 76 93 115 165 281 302 461 707
2026-04-06 14:00 3.34 314 1570 (2025) 36 (1956) 237 62 76 93 115 165 281 302 461 707
2026-04-06 13:00 3.35 316 1570 (2025) 36 (1956) 237 62 76 93 115 165 281 302 461 707
2026-04-06 12:00 3.36 319 1570 (2025) 36 (1956) 237 62 76 93 115 165 281 302 461 707
2026-04-06 11:00 3.37 322 1570 (2025) 36 (1956) 237 62 76 93 115 165 281 302 461 707
2026-04-06 10:00 3.37 322 1570 (2025) 36 (1956) 237 62 76 93 115 165 281 302 461 707
2026-04-06 09:00 3.38 324 1570 (2025) 36 (1956) 237 62 76 93 115 165 281 302 461 707
2026-04-06 08:00 3.39 327 1570 (2025) 36 (1956) 237 62 76 93 115 165 281 302 461 707
2026-04-06 07:00 3.40 330 1570 (2025) 36 (1956) 237 62 76 93 115 165 281 302 461 707
2026-04-06 06:00 3.41 333 1570 (2025) 36 (1956) 237 62 76 93 115 165 281 302 461 707
2026-04-06 05:00 3.42 335 1570 (2025) 36 (1956) 237 62 76 93 115 165 281 302 461 707
2026-04-06 04:00 3.43 338 1570 (2025) 36 (1956) 237 62 76 93 115 165 281 302 461 707
2026-04-06 03:00 3.44 341 1570 (2025) 36 (1956) 237 62 76 93 115 165 281 302 461 707
2026-04-06 02:00 3.45 344 1570 (2025) 36 (1956) 237 62 76 93 115 165 281 302 461 707
2026-04-06 01:00 3.46 346 1570 (2025) 36 (1956) 237 62 76 93 115 165 281 302 461 707
2026-04-06 00:00 3.47 349 1570 (2025) 36 (1956) 237 62 76 93 115 165 281 302 461 707
2026-04-05 23:00 3.49 355 1570 (2025) 36 (1956) 237 62 76 93 115 165 281 302 461 707
2026-04-05 22:00 3.50 358 3590 (2025) 37 (1956) 301 64 74 91 113 179 284 328 554 1050
2026-04-05 21:00 3.51 360 3590 (2025) 37 (1956) 301 64 74 91 113 179 284 328 554 1050
2026-04-05 20:00 3.52 363 3590 (2025) 37 (1956) 301 64 74 91 113 179 284 328 554 1050
2026-04-05 19:00 3.54 369 3590 (2025) 37 (1956) 301 64 74 91 113 179 284 328 554 1050
2026-04-05 18:00 3.56 375 3590 (2025) 37 (1956) 301 64 74 91 113 179 284 328 554 1050
2026-04-05 17:00 3.57 378 3590 (2025) 37 (1956) 301 64 74 91 113 179 284 328 554 1050
2026-04-05 16:00 3.59 384 3590 (2025) 37 (1956) 301 64 74 91 113 179 284 328 554 1050
2026-04-05 15:00 3.61 390 3590 (2025) 37 (1956) 301 64 74 91 113 179 284 328 554 1050
2026-04-05 14:00 3.63 396 3590 (2025) 37 (1956) 301 64 74 91 113 179 284 328 554 1050
2026-04-05 13:00 3.65 402 3590 (2025) 37 (1956) 301 64 74 91 113 179 284 328 554 1050
2026-04-05 12:00 3.67 408 3590 (2025) 37 (1956) 301 64 74 91 113 179 284 328 554 1050
2026-04-05 11:00 3.68 411 3590 (2025) 37 (1956) 301 64 74 91 113 179 284 328 554 1050
2026-04-05 10:00 3.71 420 3590 (2025) 37 (1956) 301 64 74 91 113 179 284 328 554 1050
2026-04-05 09:00 3.72 423 3590 (2025) 37 (1956) 301 64 74 91 113 179 284 328 554 1050
2026-04-05 08:00 3.75 433 3590 (2025) 37 (1956) 301 64 74 91 113 179 284 328 554 1050
2026-04-05 07:00 3.77 439 3590 (2025) 37 (1956) 301 64 74 91 113 179 284 328 554 1050
2026-04-05 06:00 3.79 445 3590 (2025) 37 (1956) 301 64 74 91 113 179 284 328 554 1050
2026-04-05 05:00 3.82 455 3590 (2025) 37 (1956) 301 64 74 91 113 179 284 328 554 1050
2026-04-05 04:00 3.85 465 3590 (2025) 37 (1956) 301 64 74 91 113 179 284 328 554 1050
2026-04-05 03:00 3.88 475 3590 (2025) 37 (1956) 301 64 74 91 113 179 284 328 554 1050
2026-04-05 02:00 3.92 488 3590 (2025) 37 (1956) 301 64 74 91 113 179 284 328 554 1050
2026-04-05 01:00 3.95 499 3590 (2025) 37 (1956) 301 64 74 91 113 179 284 328 554 1050
2026-04-05 00:00 3.98 509 3590 (2025) 37 (1956) 301 64 74 91 113 179 284 328 554 1050
2026-04-04 23:00 4.02 523 3590 (2025) 37 (1956) 301 64 74 91 113 179 284 328 554 1050
2026-04-04 22:00 4.06 537 3520 (2001) 38 (1956) 275 66 74 93 110 164 276 334 614 902
2026-04-04 21:00 4.11 556 3520 (2001) 38 (1956) 275 66 74 93 110 164 276 334 614 902
2026-04-04 20:00 4.16 574 3520 (2001) 38 (1956) 275 66 74 93 110 164 276 334 614 902
2026-04-04 19:00 4.22 597 3520 (2001) 38 (1956) 275 66 74 93 110 164 276 334 614 902
2026-04-04 18:00 4.28 620 3520 (2001) 38 (1956) 275 66 74 93 110 164 276 334 614 902
2026-04-04 17:00 4.36 652 3520 (2001) 38 (1956) 275 66 74 93 110 164 276 334 614 902
2026-04-04 16:00 4.43 680 3520 (2001) 38 (1956) 275 66 74 93 110 164 276 334 614 902
2026-04-04 15:00 4.49 705 3520 (2001) 38 (1956) 275 66 74 93 110 164 276 334 614 902
2026-04-04 14:00 4.56 735 3520 (2001) 38 (1956) 275 66 74 93 110 164 276 334 614 902
2026-04-04 13:00 4.64 770 3520 (2001) 38 (1956) 275 66 74 93 110 164 276 334 614 902
2026-04-04 12:00 4.71 801 3520 (2001) 38 (1956) 275 66 74 93 110 164 276 334 614 902
2026-04-04 11:00 4.78 834 3520 (2001) 38 (1956) 275 66 74 93 110 164 276 334 614 902
2026-04-04 10:00 4.76 824 3520 (2001) 38 (1956) 275 66 74 93 110 164 276 334 614 902
2026-04-04 09:00 4.65 774 3520 (2001) 38 (1956) 275 66 74 93 110 164 276 334 614 902
2026-04-04 08:00 4.29 624 3520 (2001) 38 (1956) 275 66 74 93 110 164 276 334 614 902
2026-04-04 07:00 4.11 556 3520 (2001) 38 (1956) 275 66 74 93 110 164 276 334 614 902
2026-04-04 06:00 3.54 369 3520 (2001) 38 (1956) 275 66 74 93 110 164 276 334 614 902
2026-04-04 05:00 3.40 330 3520 (2001) 38 (1956) 275 66 74 93 110 164 276 334 614 902
2026-04-04 04:00 3.17 271 3520 (2001) 38 (1956) 275 66 74 93 110 164 276 334 614 902
2026-04-04 03:00 3.07 247 3520 (2001) 38 (1956) 275 66 74 93 110 164 276 334 614 902
2026-04-04 02:00 3.05 242 3520 (2001) 38 (1956) 275 66 74 93 110 164 276 334 614 902
2026-04-04 01:00 3.05 242 3520 (2001) 38 (1956) 275 66 74 93 110 164 276 334 614 902
2026-04-04 00:00 3.06 244 3520 (2001) 38 (1956) 275 66 74 93 110 164 276 334 614 902
2026-04-03 23:00 3.06 244 3520 (2001) 38 (1956) 275 66 74 93 110 164 276 334 614 902
2026-04-03 22:00 3.07 247 1550 (2010) 39 (1956) 238 70 78 96 110 173 267 317 432 676
2026-04-03 21:00 3.07 247 1550 (2010) 39 (1956) 238 70 78 96 110 173 267 317 432 676
2026-04-03 20:00 3.08 249 1550 (2010) 39 (1956) 238 70 78 96 110 173 267 317 432 676
2026-04-03 19:00 3.09 251 1550 (2010) 39 (1956) 238 70 78 96 110 173 267 317 432 676
2026-04-03 18:00 3.09 251 1550 (2010) 39 (1956) 238 70 78 96 110 173 267 317 432 676
2026-04-03 17:00 3.10 254 1550 (2010) 39 (1956) 238 70 78 96 110 173 267 317 432 676
2026-04-03 16:00 3.11 256 1550 (2010) 39 (1956) 238 70 78 96 110 173 267 317 432 676
2026-04-03 15:00 3.11 256 1550 (2010) 39 (1956) 238 70 78 96 110 173 267 317 432 676
2026-04-03 14:00 3.12 259 1550 (2010) 39 (1956) 238 70 78 96 110 173 267 317 432 676
2026-04-03 13:00 3.14 263 1550 (2010) 39 (1956) 238 70 78 96 110 173 267 317 432 676
2026-04-03 12:00 3.14 263 1550 (2010) 39 (1956) 238 70 78 96 110 173 267 317 432 676
2026-04-03 11:00 3.15 266 1550 (2010) 39 (1956) 238 70 78 96 110 173 267 317 432 676
2026-04-03 10:00 3.16 268 1550 (2010) 39 (1956) 238 70 78 96 110 173 267 317 432 676
2026-04-03 09:00 3.17 271 1550 (2010) 39 (1956) 238 70 78 96 110 173 267 317 432 676
2026-04-03 08:00 3.17 271 1550 (2010) 39 (1956) 238 70 78 96 110 173 267 317 432 676
2026-04-03 07:00 3.18 273 1550 (2010) 39 (1956) 238 70 78 96 110 173 267 317 432 676
2026-04-03 06:00 3.19 276 1550 (2010) 39 (1956) 238 70 78 96 110 173 267 317 432 676
2026-04-03 05:00 3.20 278 1550 (2010) 39 (1956) 238 70 78 96 110 173 267 317 432 676
2026-04-03 04:00 3.21 281 1550 (2010) 39 (1956) 238 70 78 96 110 173 267 317 432 676
2026-04-03 03:00 3.22 283 1550 (2010) 39 (1956) 238 70 78 96 110 173 267 317 432 676
2026-04-03 02:00 3.23 286 1550 (2010) 39 (1956) 238 70 78 96 110 173 267 317 432 676
2026-04-03 01:00 3.24 288 1550 (2010) 39 (1956) 238 70 78 96 110 173 267 317 432 676
2026-04-03 00:00 3.25 291 1550 (2010) 39 (1956) 238 70 78 96 110 173 267 317 432 676
2026-04-02 23:00 3.26 293 1550 (2010) 39 (1956) 238 70 78 96 110 173 267 317 432 676
2026-04-02 22:00 3.28 298 7170 (1945) 40 (1956) 280 65 76 93 102 159 275 313 412 604
2026-04-02 21:00 3.29 301 7170 (1945) 40 (1956) 280 65 76 93 102 159 275 313 412 604
2026-04-02 20:00 3.30 303 7170 (1945) 40 (1956) 280 65 76 93 102 159 275 313 412 604
2026-04-02 19:00 3.30 303 7170 (1945) 40 (1956) 280 65 76 93 102 159 275 313 412 604
2026-04-02 18:00 3.30 303 7170 (1945) 40 (1956) 280 65 76 93 102 159 275 313 412 604
2026-04-02 17:00 3.31 306 7170 (1945) 40 (1956) 280 65 76 93 102 159 275 313 412 604
2026-04-02 16:00 3.32 309 7170 (1945) 40 (1956) 280 65 76 93 102 159 275 313 412 604
2026-04-02 15:00 3.34 314 7170 (1945) 40 (1956) 280 65 76 93 102 159 275 313 412 604
2026-04-02 14:00 3.36 319 7170 (1945) 40 (1956) 280 65 76 93 102 159 275 313 412 604
2026-04-02 13:00 3.37 322 7170 (1945) 40 (1956) 280 65 76 93 102 159 275 313 412 604
2026-04-02 12:00 3.39 327 7170 (1945) 40 (1956) 280 65 76 93 102 159 275 313 412 604
2026-04-02 11:00 3.41 333 7170 (1945) 40 (1956) 280 65 76 93 102 159 275 313 412 604
2026-04-02 09:00 3.45 344 7170 (1945) 40 (1956) 280 65 76 93 102 159 275 313 412 604
2026-04-02 08:00 3.47 349 7170 (1945) 40 (1956) 280 65 76 93 102 159 275 313 412 604
2026-04-02 07:00 3.49 355 7170 (1945) 40 (1956) 280 65 76 93 102 159 275 313 412 604
2026-04-02 06:00 3.52 363 7170 (1945) 40 (1956) 280 65 76 93 102 159 275 313 412 604
2026-04-02 05:00 3.54 369 7170 (1945) 40 (1956) 280 65 76 93 102 159 275 313 412 604
2026-04-02 04:00 3.57 378 7170 (1945) 40 (1956) 280 65 76 93 102 159 275 313 412 604
2026-04-02 03:00 3.59 384 7170 (1945) 40 (1956) 280 65 76 93 102 159 275 313 412 604
2026-04-02 02:00 3.62 393 7170 (1945) 40 (1956) 280 65 76 93 102 159 275 313 412 604
2026-04-02 01:00 3.67 408 7170 (1945) 40 (1956) 280 65 76 93 102 159 275 313 412 604
2026-04-02 00:00 3.72 423 7170 (1945) 40 (1956) 280 65 76 93 102 159 275 313 412 604
2026-04-01 23:00 3.78 442 7170 (1945) 40 (1956) 280 65 76 93 102 159 275 313 412 604
2026-04-01 22:00 3.86 468 2540 (2008) 41 (1941) 247 69 82 98 106 167 296 341 480 614
2026-04-01 21:00 3.96 502 2540 (2008) 41 (1941) 247 69 82 98 106 167 296 341 480 614
2026-04-01 20:00 4.11 556 2540 (2008) 41 (1941) 247 69 82 98 106 167 296 341 480 614
2026-04-01 19:00 4.23 601 2540 (2008) 41 (1941) 247 69 82 98 106 167 296 341 480 614
2026-04-01 18:00 4.04 530 2540 (2008) 41 (1941) 247 69 82 98 106 167 296 341 480 614
2026-04-01 17:00 3.20 278 2540 (2008) 41 (1941) 247 69 82 98 106 167 296 341 480 614
2026-04-01 16:00 2.88 205 2540 (2008) 41 (1941) 247 69 82 98 106 167 296 341 480 614
2026-04-01 15:00 2.79 187 2540 (2008) 41 (1941) 247 69 82 98 106 167 296 341 480 614
2026-04-01 14:00 2.76 181 2540 (2008) 41 (1941) 247 69 82 98 106 167 296 341 480 614
2026-04-01 13:00 2.75 179 2540 (2008) 41 (1941) 247 69 82 98 106 167 296 341 480 614
2026-04-01 12:00 2.73 175 2540 (2008) 41 (1941) 247 69 82 98 106 167 296 341 480 614
2026-04-01 11:00 2.70 169 2540 (2008) 41 (1941) 247 69 82 98 106 167 296 341 480 614
2026-04-01 10:00 2.66 162 2540 (2008) 41 (1941) 247 69 82 98 106 167 296 341 480 614
2026-04-01 09:00 2.64 158 2540 (2008) 41 (1941) 247 69 82 98 106 167 296 341 480 614
2026-04-01 08:00 2.59 150 2540 (2008) 41 (1941) 247 69 82 98 106 167 296 341 480 614
2026-04-01 07:00 2.62 155 2540 (2008) 41 (1941) 247 69 82 98 106 167 296 341 480 614
2026-04-01 06:00 2.62 155 2540 (2008) 41 (1941) 247 69 82 98 106 167 296 341 480 614
2026-04-01 05:00 2.62 155 2540 (2008) 41 (1941) 247 69 82 98 106 167 296 341 480 614
2026-04-01 04:00 2.62 155 2540 (2008) 41 (1941) 247 69 82 98 106 167 296 341 480 614
2026-04-01 03:00 2.62 155 2540 (2008) 41 (1941) 247 69 82 98 106 167 296 341 480 614
2026-04-01 02:00 2.62 155 2540 (2008) 41 (1941) 247 69 82 98 106 167 296 341 480 614
2026-04-01 01:00 2.62 155 2540 (2008) 41 (1941) 247 69 82 98 106 167 296 341 480 614
2026-04-01 00:00 2.62 155 2540 (2008) 41 (1941) 247 69 82 98 106 167 296 341 480 614
2026-03-31 23:00 2.62 155 2540 (2008) 41 (1941) 247 69 82 98 106 167 296 341 480 614
2026-03-31 22:00 2.62 155 2220 (2008) 38 (1956) 278 64 82 102 108 175 339 372 610 838
2026-03-31 21:00 2.63 157 2220 (2008) 38 (1956) 278 64 82 102 108 175 339 372 610 838
2026-03-31 20:00 2.62 155 2220 (2008) 38 (1956) 278 64 82 102 108 175 339 372 610 838
2026-03-31 19:00 2.62 155 2220 (2008) 38 (1956) 278 64 82 102 108 175 339 372 610 838
2026-03-31 18:00 2.63 157 2220 (2008) 38 (1956) 278 64 82 102 108 175 339 372 610 838
2026-03-31 17:00 2.63 157 2220 (2008) 38 (1956) 278 64 82 102 108 175 339 372 610 838
2026-03-31 16:00 2.63 157 2220 (2008) 38 (1956) 278 64 82 102 108 175 339 372 610 838
2026-03-31 15:00 2.63 157 2220 (2008) 38 (1956) 278 64 82 102 108 175 339 372 610 838
2026-03-31 14:00 2.62 155 2220 (2008) 38 (1956) 278 64 82 102 108 175 339 372 610 838
2026-03-31 13:00 2.63 157 2220 (2008) 38 (1956) 278 64 82 102 108 175 339 372 610 838
2026-03-31 12:00 2.63 157 2220 (2008) 38 (1956) 278 64 82 102 108 175 339 372 610 838
2026-03-31 11:00 2.63 157 2220 (2008) 38 (1956) 278 64 82 102 108 175 339 372 610 838
2026-03-31 10:00 2.63 157 2220 (2008) 38 (1956) 278 64 82 102 108 175 339 372 610 838
2026-03-31 09:00 2.63 157 2220 (2008) 38 (1956) 278 64 82 102 108 175 339 372 610 838
2026-03-31 08:00 2.63 157 2220 (2008) 38 (1956) 278 64 82 102 108 175 339 372 610 838
2026-03-31 07:00 2.63 157 2220 (2008) 38 (1956) 278 64 82 102 108 175 339 372 610 838
2026-03-31 06:00 2.63 157 2220 (2008) 38 (1956) 278 64 82 102 108 175 339 372 610 838
2026-03-31 05:00 2.63 157 2220 (2008) 38 (1956) 278 64 82 102 108 175 339 372 610 838
2026-03-31 04:00 2.63 157 2220 (2008) 38 (1956) 278 64 82 102 108 175 339 372 610 838
2026-03-31 03:00 2.63 157 2220 (2008) 38 (1956) 278 64 82 102 108 175 339 372 610 838
2026-03-31 02:00 2.63 157 2220 (2008) 38 (1956) 278 64 82 102 108 175 339 372 610 838
2026-03-31 01:00 2.63 157 2220 (2008) 38 (1956) 278 64 82 102 108 175 339 372 610 838
2026-03-31 00:00 2.63 157 2220 (2008) 38 (1956) 278 64 82 102 108 175 339 372 610 838
2026-03-30 23:00 2.63 157 2220 (2008) 38 (1956) 278 64 82 102 108 175 339 372 610 838
2026-03-30 22:00 2.63 157 2610 (1945) 38 (1956) 290 63 85 105 110 183 305 373 614 931
2026-03-30 21:00 2.63 157 2610 (1945) 38 (1956) 290 63 85 105 110 183 305 373 614 931
2026-03-30 20:00 2.63 157 2610 (1945) 38 (1956) 290 63 85 105 110 183 305 373 614 931
2026-03-30 19:00 2.63 157 2610 (1945) 38 (1956) 290 63 85 105 110 183 305 373 614 931
2026-03-30 18:00 2.63 157 2610 (1945) 38 (1956) 290 63 85 105 110 183 305 373 614 931
2026-03-30 17:00 2.64 158 2610 (1945) 38 (1956) 290 63 85 105 110 183 305 373 614 931
2026-03-30 16:00 2.64 158 2610 (1945) 38 (1956) 290 63 85 105 110 183 305 373 614 931
2026-03-30 15:00 2.64 158 2610 (1945) 38 (1956) 290 63 85 105 110 183 305 373 614 931
2026-03-30 14:00 2.64 158 2610 (1945) 38 (1956) 290 63 85 105 110 183 305 373 614 931
2026-03-30 13:00 2.64 158 2610 (1945) 38 (1956) 290 63 85 105 110 183 305 373 614 931
2026-03-30 12:00 2.64 158 2610 (1945) 38 (1956) 290 63 85 105 110 183 305 373 614 931
2026-03-30 11:00 2.64 158 2610 (1945) 38 (1956) 290 63 85 105 110 183 305 373 614 931
2026-03-30 10:00 2.65 160 2610 (1945) 38 (1956) 290 63 85 105 110 183 305 373 614 931
2026-03-30 09:00 2.65 160 2610 (1945) 38 (1956) 290 63 85 105 110 183 305 373 614 931
2026-03-30 08:00 2.64 158 2610 (1945) 38 (1956) 290 63 85 105 110 183 305 373 614 931
2026-03-30 07:00 2.64 158 2610 (1945) 38 (1956) 290 63 85 105 110 183 305 373 614 931
2026-03-30 06:00 2.64 158 2610 (1945) 38 (1956) 290 63 85 105 110 183 305 373 614 931
2026-03-30 05:00 2.65 160 2610 (1945) 38 (1956) 290 63 85 105 110 183 305 373 614 931
2026-03-30 04:00 2.64 158 2610 (1945) 38 (1956) 290 63 85 105 110 183 305 373 614 931
2026-03-30 03:00 2.64 158 2610 (1945) 38 (1956) 290 63 85 105 110 183 305 373 614 931
2026-03-30 02:00 2.64 158 2610 (1945) 38 (1956) 290 63 85 105 110 183 305 373 614 931
2026-03-30 01:00 2.64 158 2610 (1945) 38 (1956) 290 63 85 105 110 183 305 373 614 931
2026-03-30 00:00 2.64 158 2610 (1945) 38 (1956) 290 63 85 105 110 183 305 373 614 931
2026-03-29 23:00 2.64 158 2610 (1945) 38 (1956) 290 63 85 105 110 183 305 373 614 931
2026-03-29 22:00 2.64 158 1790 (1985) 38 (1941) 264 58 78 107 110 158 286 310 560 985
2026-03-29 21:00 2.64 158 1790 (1985) 38 (1941) 264 58 78 107 110 158 286 310 560 985
2026-03-29 20:00 2.64 158 1790 (1985) 38 (1941) 264 58 78 107 110 158 286 310 560 985
2026-03-29 19:00 2.64 158 1790 (1985) 38 (1941) 264 58 78 107 110 158 286 310 560 985
2026-03-29 18:00 2.65 160 1790 (1985) 38 (1941) 264 58 78 107 110 158 286 310 560 985
2026-03-29 17:00 2.65 160 1790 (1985) 38 (1941) 264 58 78 107 110 158 286 310 560 985
2026-03-29 16:00 2.65 160 1790 (1985) 38 (1941) 264 58 78 107 110 158 286 310 560 985
2026-03-29 15:00 2.65 160 1790 (1985) 38 (1941) 264 58 78 107 110 158 286 310 560 985
2026-03-29 14:00 2.65 160 1790 (1985) 38 (1941) 264 58 78 107 110 158 286 310 560 985
2026-03-29 13:00 2.65 160 1790 (1985) 38 (1941) 264 58 78 107 110 158 286 310 560 985
2026-03-29 12:00 2.65 160 1790 (1985) 38 (1941) 264 58 78 107 110 158 286 310 560 985
2026-03-29 11:00 2.65 160 1790 (1985) 38 (1941) 264 58 78 107 110 158 286 310 560 985
2026-03-29 10:00 2.65 160 1790 (1985) 38 (1941) 264 58 78 107 110 158 286 310 560 985
2026-03-29 09:00 2.65 160 1790 (1985) 38 (1941) 264 58 78 107 110 158 286 310 560 985
2026-03-29 08:00 2.65 160 1790 (1985) 38 (1941) 264 58 78 107 110 158 286 310 560 985
2026-03-29 07:00 2.65 160 1790 (1985) 38 (1941) 264 58 78 107 110 158 286 310 560 985
2026-03-29 06:00 2.65 160 1790 (1985) 38 (1941) 264 58 78 107 110 158 286 310 560 985
2026-03-29 05:00 2.65 160 1790 (1985) 38 (1941) 264 58 78 107 110 158 286 310 560 985
2026-03-29 04:00 2.65 160 1790 (1985) 38 (1941) 264 58 78 107 110 158 286 310 560 985
2026-03-29 03:00 2.65 160 1790 (1985) 38 (1941) 264 58 78 107 110 158 286 310 560 985
2026-03-29 02:00 2.65 160 1790 (1985) 38 (1941) 264 58 78 107 110 158 286 310 560 985
2026-03-29 01:00 2.65 160 1790 (1985) 38 (1941) 264 58 78 107 110 158 286 310 560 985
2026-03-29 00:00 2.65 160 1790 (1985) 38 (1941) 264 58 78 107 110 158 286 310 560 985
2026-03-28 23:00 2.65 160 1790 (1985) 38 (1941) 264 58 78 107 110 158 286 310 560 985
2026-03-28 22:00 2.65 160 3740 (1977) 39 (1956) 265 52 82 106 111 162 293 324 412 678
2026-03-28 21:00 2.65 160 3740 (1977) 39 (1956) 265 52 82 106 111 162 293 324 412 678
2026-03-28 20:00 2.65 160 3740 (1977) 39 (1956) 265 52 82 106 111 162 293 324 412 678
2026-03-28 19:00 2.65 160 3740 (1977) 39 (1956) 265 52 82 106 111 162 293 324 412 678
2026-03-28 18:00 2.65 160 3740 (1977) 39 (1956) 265 52 82 106 111 162 293 324 412 678
2026-03-28 17:00 2.65 160 3740 (1977) 39 (1956) 265 52 82 106 111 162 293 324 412 678
2026-03-28 16:00 2.66 162 3740 (1977) 39 (1956) 265 52 82 106 111 162 293 324 412 678
2026-03-28 15:00 2.66 162 3740 (1977) 39 (1956) 265 52 82 106 111 162 293 324 412 678
2026-03-28 14:00 2.66 162 3740 (1977) 39 (1956) 265 52 82 106 111 162 293 324 412 678
2026-03-28 13:00 2.67 164 3740 (1977) 39 (1956) 265 52 82 106 111 162 293 324 412 678
2026-03-28 12:00 2.66 162 3740 (1977) 39 (1956) 265 52 82 106 111 162 293 324 412 678
2026-03-28 11:00 2.67 164 3740 (1977) 39 (1956) 265 52 82 106 111 162 293 324 412 678
2026-03-28 09:00 2.66 162 3740 (1977) 39 (1956) 265 52 82 106 111 162 293 324 412 678
2026-03-28 08:00 2.67 164 3740 (1977) 39 (1956) 265 52 82 106 111 162 293 324 412 678
2026-03-28 07:00 2.67 164 3740 (1977) 39 (1956) 265 52 82 106 111 162 293 324 412 678
2026-03-28 06:00 2.67 164 3740 (1977) 39 (1956) 265 52 82 106 111 162 293 324 412 678
2026-03-28 05:00 2.67 164 3740 (1977) 39 (1956) 265 52 82 106 111 162 293 324 412 678
2026-03-28 04:00 2.67 164 3740 (1977) 39 (1956) 265 52 82 106 111 162 293 324 412 678
2026-03-28 03:00 2.67 164 3740 (1977) 39 (1956) 265 52 82 106 111 162 293 324 412 678
2026-03-28 02:00 2.67 164 3740 (1977) 39 (1956) 265 52 82 106 111 162 293 324 412 678
2026-03-28 01:00 2.67 164 3740 (1977) 39 (1956) 265 52 82 106 111 162 293 324 412 678
2026-03-28 00:00 2.67 164 3740 (1977) 39 (1956) 265 52 82 106 111 162 293 324 412 678
2026-03-27 23:00 2.68 166 3740 (1977) 39 (1956) 265 52 82 106 111 162 293 324 412 678
2026-03-27 22:00 2.68 166 3090 (2018) 40 (1956) 250 53 87 108 113 164 308 361 454 561
2026-03-27 21:00 2.68 166 3090 (2018) 40 (1956) 250 53 87 108 113 164 308 361 454 561
2026-03-27 20:00 2.68 166 3090 (2018) 40 (1956) 250 53 87 108 113 164 308 361 454 561
2026-03-27 19:00 2.68 166 3090 (2018) 40 (1956) 250 53 87 108 113 164 308 361 454 561
2026-03-27 18:00 2.69 168 3090 (2018) 40 (1956) 250 53 87 108 113 164 308 361 454 561
2026-03-27 17:00 2.69 168 3090 (2018) 40 (1956) 250 53 87 108 113 164 308 361 454 561
2026-03-27 16:00 2.69 168 3090 (2018) 40 (1956) 250 53 87 108 113 164 308 361 454 561
2026-03-27 15:00 2.69 168 3090 (2018) 40 (1956) 250 53 87 108 113 164 308 361 454 561
2026-03-27 14:00 2.70 169 3090 (2018) 40 (1956) 250 53 87 108 113 164 308 361 454 561
2026-03-27 13:00 2.70 169 3090 (2018) 40 (1956) 250 53 87 108 113 164 308 361 454 561
2026-03-27 12:00 2.70 169 3090 (2018) 40 (1956) 250 53 87 108 113 164 308 361 454 561
2026-03-27 11:00 2.70 169 3090 (2018) 40 (1956) 250 53 87 108 113 164 308 361 454 561
2026-03-27 10:00 2.70 169 3090 (2018) 40 (1956) 250 53 87 108 113 164 308 361 454 561
2026-03-27 09:00 2.70 169 3090 (2018) 40 (1956) 250 53 87 108 113 164 308 361 454 561
2026-03-27 08:00 2.70 169 3090 (2018) 40 (1956) 250 53 87 108 113 164 308 361 454 561
2026-03-27 07:00 2.70 169 3090 (2018) 40 (1956) 250 53 87 108 113 164 308 361 454 561
2026-03-27 06:00 2.70 169 3090 (2018) 40 (1956) 250 53 87 108 113 164 308 361 454 561
2026-03-27 05:00 2.70 169 3090 (2018) 40 (1956) 250 53 87 108 113 164 308 361 454 561
2026-03-27 04:00 2.70 169 3090 (2018) 40 (1956) 250 53 87 108 113 164 308 361 454 561
2026-03-27 03:00 2.70 169 3090 (2018) 40 (1956) 250 53 87 108 113 164 308 361 454 561
2026-03-27 02:00 2.70 169 3090 (2018) 40 (1956) 250 53 87 108 113 164 308 361 454 561
2026-03-27 01:00 2.70 169 3090 (2018) 40 (1956) 250 53 87 108 113 164 308 361 454 561
2026-03-27 00:00 2.70 169 3090 (2018) 40 (1956) 250 53 87 108 113 164 308 361 454 561
2026-03-26 23:00 2.70 169 3090 (2018) 40 (1956) 250 53 87 108 113 164 308 361 454 561
2026-03-26 22:00 2.70 169 843 (1978) 39 (1956) 239 51 82 98 111 171 296 388 562 676
2026-03-26 21:00 2.70 169 843 (1978) 39 (1956) 239 51 82 98 111 171 296 388 562 676
2026-03-26 20:00 2.70 169 843 (1978) 39 (1956) 239 51 82 98 111 171 296 388 562 676
2026-03-26 19:00 2.70 169 843 (1978) 39 (1956) 239 51 82 98 111 171 296 388 562 676
2026-03-26 18:00 2.70 169 843 (1978) 39 (1956) 239 51 82 98 111 171 296 388 562 676
2026-03-26 17:00 2.70 169 843 (1978) 39 (1956) 239 51 82 98 111 171 296 388 562 676
2026-03-26 16:00 2.71 171 843 (1978) 39 (1956) 239 51 82 98 111 171 296 388 562 676
2026-03-26 15:00 2.71 171 843 (1978) 39 (1956) 239 51 82 98 111 171 296 388 562 676
2026-03-26 14:00 2.71 171 843 (1978) 39 (1956) 239 51 82 98 111 171 296 388 562 676
2026-03-26 13:00 2.72 173 843 (1978) 39 (1956) 239 51 82 98 111 171 296 388 562 676
2026-03-26 12:00 2.71 171 843 (1978) 39 (1956) 239 51 82 98 111 171 296 388 562 676
2026-03-26 11:00 2.71 171 843 (1978) 39 (1956) 239 51 82 98 111 171 296 388 562 676
2026-03-26 10:00 2.72 173 843 (1978) 39 (1956) 239 51 82 98 111 171 296 388 562 676
2026-03-26 09:00 2.72 173 843 (1978) 39 (1956) 239 51 82 98 111 171 296 388 562 676
2026-03-26 08:00 2.72 173 843 (1978) 39 (1956) 239 51 82 98 111 171 296 388 562 676
2026-03-26 07:00 2.72 173 843 (1978) 39 (1956) 239 51 82 98 111 171 296 388 562 676
2026-03-26 06:00 2.72 173 843 (1978) 39 (1956) 239 51 82 98 111 171 296 388 562 676
2026-03-26 05:00 2.72 173 843 (1978) 39 (1956) 239 51 82 98 111 171 296 388 562 676
2026-03-26 04:00 2.72 173 843 (1978) 39 (1956) 239 51 82 98 111 171 296 388 562 676
2026-03-26 03:00 2.72 173 843 (1978) 39 (1956) 239 51 82 98 111 171 296 388 562 676
2026-03-26 02:00 2.72 173 843 (1978) 39 (1956) 239 51 82 98 111 171 296 388 562 676
2026-03-26 01:00 2.72 173 843 (1978) 39 (1956) 239 51 82 98 111 171 296 388 562 676
2026-03-26 00:00 2.72 173 843 (1978) 39 (1956) 239 51 82 98 111 171 296 388 562 676
2026-03-25 23:00 2.72 173 843 (1978) 39 (1956) 239 51 82 98 111 171 296 388 562 676
2026-03-25 22:00 2.72 173 2860 (2023) 40 (1956) 284 47 82 100 107 163 300 366 488 1140
2026-03-25 21:00 2.73 175 2860 (2023) 40 (1956) 284 47 82 100 107 163 300 366 488 1140
2026-03-25 20:00 2.73 175 2860 (2023) 40 (1956) 284 47 82 100 107 163 300 366 488 1140
2026-03-25 19:00 2.72 173 2860 (2023) 40 (1956) 284 47 82 100 107 163 300 366 488 1140
2026-03-25 18:00 2.72 173 2860 (2023) 40 (1956) 284 47 82 100 107 163 300 366 488 1140
2026-03-25 17:00 2.72 173 2860 (2023) 40 (1956) 284 47 82 100 107 163 300 366 488 1140
2026-03-25 16:00 2.73 175 2860 (2023) 40 (1956) 284 47 82 100 107 163 300 366 488 1140
2026-03-25 15:00 2.73 175 2860 (2023) 40 (1956) 284 47 82 100 107 163 300 366 488 1140
2026-03-25 14:00 2.73 175 2860 (2023) 40 (1956) 284 47 82 100 107 163 300 366 488 1140
2026-03-25 13:00 2.73 175 2860 (2023) 40 (1956) 284 47 82 100 107 163 300 366 488 1140
2026-03-25 12:00 2.73 175 2860 (2023) 40 (1956) 284 47 82 100 107 163 300 366 488 1140
2026-03-25 11:00 2.73 175 2860 (2023) 40 (1956) 284 47 82 100 107 163 300 366 488 1140
2026-03-25 10:00 2.73 175 2860 (2023) 40 (1956) 284 47 82 100 107 163 300 366 488 1140
2026-03-25 09:00 2.73 175 2860 (2023) 40 (1956) 284 47 82 100 107 163 300 366 488 1140
2026-03-25 08:00 2.73 175 2860 (2023) 40 (1956) 284 47 82 100 107 163 300 366 488 1140
2026-03-25 07:00 2.73 175 2860 (2023) 40 (1956) 284 47 82 100 107 163 300 366 488 1140
2026-03-25 06:00 2.73 175 2860 (2023) 40 (1956) 284 47 82 100 107 163 300 366 488 1140
2026-03-25 05:00 2.74 177 2860 (2023) 40 (1956) 284 47 82 100 107 163 300 366 488 1140
2026-03-25 04:00 2.74 177 2860 (2023) 40 (1956) 284 47 82 100 107 163 300 366 488 1140
2026-03-25 03:00 2.74 177 2860 (2023) 40 (1956) 284 47 82 100 107 163 300 366 488 1140
2026-03-25 02:00 2.74 177 2860 (2023) 40 (1956) 284 47 82 100 107 163 300 366 488 1140
2026-03-25 01:00 2.74 177 2860 (2023) 40 (1956) 284 47 82 100 107 163 300 366 488 1140
2026-03-25 00:00 2.74 177 2860 (2023) 40 (1956) 284 47 82 100 107 163 300 366 488 1140
2026-03-24 23:00 2.74 177 2860 (2023) 40 (1956) 284 47 82 100 107 163 300 366 488 1140
2026-03-24 22:00 2.74 177 4460 (2023) 40 (1956) 311 49 71 103 108 150 258 307 424 933
2026-03-24 21:00 2.74 177 4460 (2023) 40 (1956) 311 49 71 103 108 150 258 307 424 933
2026-03-24 20:00 2.74 177 4460 (2023) 40 (1956) 311 49 71 103 108 150 258 307 424 933
2026-03-24 19:00 2.74 177 4460 (2023) 40 (1956) 311 49 71 103 108 150 258 307 424 933
2026-03-24 18:00 2.74 177 4460 (2023) 40 (1956) 311 49 71 103 108 150 258 307 424 933
2026-03-24 17:00 2.75 179 4460 (2023) 40 (1956) 311 49 71 103 108 150 258 307 424 933
2026-03-24 16:00 2.75 179 4460 (2023) 40 (1956) 311 49 71 103 108 150 258 307 424 933
2026-03-24 15:00 2.75 179 4460 (2023) 40 (1956) 311 49 71 103 108 150 258 307 424 933
2026-03-24 14:00 2.75 179 4460 (2023) 40 (1956) 311 49 71 103 108 150 258 307 424 933
2026-03-24 13:00 2.76 181 4460 (2023) 40 (1956) 311 49 71 103 108 150 258 307 424 933
2026-03-24 12:00 2.76 181 4460 (2023) 40 (1956) 311 49 71 103 108 150 258 307 424 933
2026-03-24 11:00 2.76 181 4460 (2023) 40 (1956) 311 49 71 103 108 150 258 307 424 933
2026-03-24 10:00 2.76 181 4460 (2023) 40 (1956) 311 49 71 103 108 150 258 307 424 933
2026-03-24 09:00 2.76 181 4460 (2023) 40 (1956) 311 49 71 103 108 150 258 307 424 933
2026-03-24 08:00 2.76 181 4460 (2023) 40 (1956) 311 49 71 103 108 150 258 307 424 933
2026-03-24 07:00 2.76 181 4460 (2023) 40 (1956) 311 49 71 103 108 150 258 307 424 933
2026-03-24 06:00 2.76 181 4460 (2023) 40 (1956) 311 49 71 103 108 150 258 307 424 933
2026-03-24 05:00 2.77 183 4460 (2023) 40 (1956) 311 49 71 103 108 150 258 307 424 933
2026-03-24 04:00 2.77 183 4460 (2023) 40 (1956) 311 49 71 103 108 150 258 307 424 933
2026-03-24 03:00 2.77 183 4460 (2023) 40 (1956) 311 49 71 103 108 150 258 307 424 933
2026-03-24 02:00 2.77 183 4460 (2023) 40 (1956) 311 49 71 103 108 150 258 307 424 933
2026-03-24 01:00 2.77 183 4460 (2023) 40 (1956) 311 49 71 103 108 150 258 307 424 933
2026-03-24 00:00 2.77 183 4460 (2023) 40 (1956) 311 49 71 103 108 150 258 307 424 933
2026-03-23 23:00 2.77 183 4460 (2023) 40 (1956) 311 49 71 103 108 150 258 307 424 933
2026-03-23 22:00 2.78 185 2060 (1958) 42 (1941) 230 54 71 106 112 156 275 329 447 534
2026-03-23 21:00 2.78 185 2060 (1958) 42 (1941) 230 54 71 106 112 156 275 329 447 534
2026-03-23 20:00 2.78 185 2060 (1958) 42 (1941) 230 54 71 106 112 156 275 329 447 534
2026-03-23 19:00 2.78 185 2060 (1958) 42 (1941) 230 54 71 106 112 156 275 329 447 534
2026-03-23 18:00 2.78 185 2060 (1958) 42 (1941) 230 54 71 106 112 156 275 329 447 534
2026-03-23 17:00 2.78 185 2060 (1958) 42 (1941) 230 54 71 106 112 156 275 329 447 534
2026-03-23 16:00 2.79 187 2060 (1958) 42 (1941) 230 54 71 106 112 156 275 329 447 534
2026-03-23 15:00 2.79 187 2060 (1958) 42 (1941) 230 54 71 106 112 156 275 329 447 534
2026-03-23 14:00 2.79 187 2060 (1958) 42 (1941) 230 54 71 106 112 156 275 329 447 534
2026-03-23 13:00 2.79 187 2060 (1958) 42 (1941) 230 54 71 106 112 156 275 329 447 534
2026-03-23 12:00 2.80 189 2060 (1958) 42 (1941) 230 54 71 106 112 156 275 329 447 534
2026-03-23 11:00 2.80 189 2060 (1958) 42 (1941) 230 54 71 106 112 156 275 329 447 534
2026-03-23 10:00 2.80 189 2060 (1958) 42 (1941) 230 54 71 106 112 156 275 329 447 534
2026-03-23 09:00 2.80 189 2060 (1958) 42 (1941) 230 54 71 106 112 156 275 329 447 534
2026-03-23 08:00 2.80 189 2060 (1958) 42 (1941) 230 54 71 106 112 156 275 329 447 534
2026-03-23 07:00 2.81 191 2060 (1958) 42 (1941) 230 54 71 106 112 156 275 329 447 534
2026-03-23 06:00 2.81 191 2060 (1958) 42 (1941) 230 54 71 106 112 156 275 329 447 534
2026-03-23 05:00 2.81 191 2060 (1958) 42 (1941) 230 54 71 106 112 156 275 329 447 534
2026-03-23 04:00 2.81 191 2060 (1958) 42 (1941) 230 54 71 106 112 156 275 329 447 534
2026-03-23 03:00 2.82 193 2060 (1958) 42 (1941) 230 54 71 106 112 156 275 329 447 534
2026-03-23 02:00 2.82 193 2060 (1958) 42 (1941) 230 54 71 106 112 156 275 329 447 534
2026-03-23 01:00 2.82 193 2060 (1958) 42 (1941) 230 54 71 106 112 156 275 329 447 534
2026-03-23 00:00 2.82 193 2060 (1958) 42 (1941) 230 54 71 106 112 156 275 329 447 534
2026-03-22 23:00 2.82 193 2060 (1958) 42 (1941) 230 54 71 106 112 156 275 329 447 534
2026-03-22 22:00 2.82 193 988 (1998) 39 (1941) 220 56 68 111 118 160 276 330 461 594
2026-03-22 21:00 2.83 195 988 (1998) 39 (1941) 220 56 68 111 118 160 276 330 461 594
2026-03-22 20:00 2.83 195 988 (1998) 39 (1941) 220 56 68 111 118 160 276 330 461 594
2026-03-22 19:00 2.83 195 988 (1998) 39 (1941) 220 56 68 111 118 160 276 330 461 594
2026-03-22 18:00 2.83 195 988 (1998) 39 (1941) 220 56 68 111 118 160 276 330 461 594
2026-03-22 17:00 2.83 195 988 (1998) 39 (1941) 220 56 68 111 118 160 276 330 461 594
2026-03-22 16:00 2.84 197 988 (1998) 39 (1941) 220 56 68 111 118 160 276 330 461 594
2026-03-22 15:00 2.84 197 988 (1998) 39 (1941) 220 56 68 111 118 160 276 330 461 594
2026-03-22 14:00 2.84 197 988 (1998) 39 (1941) 220 56 68 111 118 160 276 330 461 594
2026-03-22 13:00 2.85 199 988 (1998) 39 (1941) 220 56 68 111 118 160 276 330 461 594
2026-03-22 12:00 2.85 199 988 (1998) 39 (1941) 220 56 68 111 118 160 276 330 461 594
2026-03-22 11:00 2.85 199 988 (1998) 39 (1941) 220 56 68 111 118 160 276 330 461 594
2026-03-22 10:00 2.85 199 988 (1998) 39 (1941) 220 56 68 111 118 160 276 330 461 594
2026-03-22 09:00 2.85 199 988 (1998) 39 (1941) 220 56 68 111 118 160 276 330 461 594
2026-03-22 08:00 2.85 199 988 (1998) 39 (1941) 220 56 68 111 118 160 276 330 461 594
2026-03-22 07:00 2.85 199 988 (1998) 39 (1941) 220 56 68 111 118 160 276 330 461 594
2026-03-22 06:00 2.85 199 988 (1998) 39 (1941) 220 56 68 111 118 160 276 330 461 594
2026-03-22 05:00 2.85 199 988 (1998) 39 (1941) 220 56 68 111 118 160 276 330 461 594
2026-03-22 04:00 2.86 201 988 (1998) 39 (1941) 220 56 68 111 118 160 276 330 461 594
2026-03-22 03:00 2.86 201 988 (1998) 39 (1941) 220 56 68 111 118 160 276 330 461 594
2026-03-22 02:00 2.86 201 988 (1998) 39 (1941) 220 56 68 111 118 160 276 330 461 594
2026-03-22 01:00 2.86 201 988 (1998) 39 (1941) 220 56 68 111 118 160 276 330 461 594
2026-03-22 00:00 2.86 201 988 (1998) 39 (1941) 220 56 68 111 118 160 276 330 461 594
2026-03-21 23:00 2.86 201 988 (1998) 39 (1941) 220 56 68 111 118 160 276 330 461 594
2026-03-21 22:00 2.86 201 1370 (1962) 42 (1956) 246 53 70 114 120 162 287 318 515 817
2026-03-21 21:00 2.86 201 1370 (1962) 42 (1956) 246 53 70 114 120 162 287 318 515 817
2026-03-21 20:00 2.87 203 1370 (1962) 42 (1956) 246 53 70 114 120 162 287 318 515 817
2026-03-21 19:00 2.86 201 1370 (1962) 42 (1956) 246 53 70 114 120 162 287 318 515 817
2026-03-21 18:00 2.87 203 1370 (1962) 42 (1956) 246 53 70 114 120 162 287 318 515 817
2026-03-21 17:00 2.87 203 1370 (1962) 42 (1956) 246 53 70 114 120 162 287 318 515 817
2026-03-21 16:00 2.87 203 1370 (1962) 42 (1956) 246 53 70 114 120 162 287 318 515 817
2026-03-21 15:00 2.87 203 1370 (1962) 42 (1956) 246 53 70 114 120 162 287 318 515 817
2026-03-21 14:00 2.88 205 1370 (1962) 42 (1956) 246 53 70 114 120 162 287 318 515 817
2026-03-21 13:00 2.88 205 1370 (1962) 42 (1956) 246 53 70 114 120 162 287 318 515 817
2026-03-21 12:00 2.88 205 1370 (1962) 42 (1956) 246 53 70 114 120 162 287 318 515 817
2026-03-21 11:00 2.88 205 1370 (1962) 42 (1956) 246 53 70 114 120 162 287 318 515 817
2026-03-21 10:00 2.88 205 1370 (1962) 42 (1956) 246 53 70 114 120 162 287 318 515 817
2026-03-21 09:00 2.88 205 1370 (1962) 42 (1956) 246 53 70 114 120 162 287 318 515 817
2026-03-21 08:00 2.88 205 1370 (1962) 42 (1956) 246 53 70 114 120 162 287 318 515 817
2026-03-21 07:00 2.89 207 1370 (1962) 42 (1956) 246 53 70 114 120 162 287 318 515 817
2026-03-21 06:00 2.89 207 1370 (1962) 42 (1956) 246 53 70 114 120 162 287 318 515 817
2026-03-21 05:00 2.89 207 1370 (1962) 42 (1956) 246 53 70 114 120 162 287 318 515 817
2026-03-21 04:00 2.89 207 1370 (1962) 42 (1956) 246 53 70 114 120 162 287 318 515 817
2026-03-21 03:00 2.89 207 1370 (1962) 42 (1956) 246 53 70 114 120 162 287 318 515 817
2026-03-21 02:00 2.89 207 1370 (1962) 42 (1956) 246 53 70 114 120 162 287 318 515 817
2026-03-21 01:00 2.89 207 1370 (1962) 42 (1956) 246 53 70 114 120 162 287 318 515 817
2026-03-21 00:00 2.90 209 1370 (1962) 42 (1956) 246 53 70 114 120 162 287 318 515 817
2026-03-20 23:00 2.90 209 1370 (1962) 42 (1956) 246 53 70 114 120 162 287 318 515 817
2026-03-20 22:00 2.90 209 4180 (1998) 42 (1956) 308 51 67 115 130 172 257 312 566 1230
2026-03-20 21:00 2.90 209 4180 (1998) 42 (1956) 308 51 67 115 130 172 257 312 566 1230
2026-03-20 20:00 2.90 209 4180 (1998) 42 (1956) 308 51 67 115 130 172 257 312 566 1230
2026-03-20 19:00 2.90 209 4180 (1998) 42 (1956) 308 51 67 115 130 172 257 312 566 1230
2026-03-20 18:00 2.91 211 4180 (1998) 42 (1956) 308 51 67 115 130 172 257 312 566 1230
2026-03-20 17:00 2.91 211 4180 (1998) 42 (1956) 308 51 67 115 130 172 257 312 566 1230
2026-03-20 16:00 2.91 211 4180 (1998) 42 (1956) 308 51 67 115 130 172 257 312 566 1230
2026-03-20 15:00 2.92 213 4180 (1998) 42 (1956) 308 51 67 115 130 172 257 312 566 1230
2026-03-20 14:00 2.92 213 4180 (1998) 42 (1956) 308 51 67 115 130 172 257 312 566 1230
2026-03-20 13:00 2.92 213 4180 (1998) 42 (1956) 308 51 67 115 130 172 257 312 566 1230
2026-03-20 12:00 2.93 216 4180 (1998) 42 (1956) 308 51 67 115 130 172 257 312 566 1230
2026-03-20 11:00 2.93 216 4180 (1998) 42 (1956) 308 51 67 115 130 172 257 312 566 1230
2026-03-20 10:00 2.93 216 4180 (1998) 42 (1956) 308 51 67 115 130 172 257 312 566 1230
2026-03-20 09:00 2.94 218 4180 (1998) 42 (1956) 308 51 67 115 130 172 257 312 566 1230
2026-03-20 08:00 2.93 216 4180 (1998) 42 (1956) 308 51 67 115 130 172 257 312 566 1230
2026-03-20 07:00 2.93 216 4180 (1998) 42 (1956) 308 51 67 115 130 172 257 312 566 1230
2026-03-20 06:00 2.94 218 4180 (1998) 42 (1956) 308 51 67 115 130 172 257 312 566 1230
2026-03-20 05:00 2.94 218 4180 (1998) 42 (1956) 308 51 67 115 130 172 257 312 566 1230
2026-03-20 04:00 2.94 218 4180 (1998) 42 (1956) 308 51 67 115 130 172 257 312 566 1230
2026-03-20 03:00 2.94 218 4180 (1998) 42 (1956) 308 51 67 115 130 172 257 312 566 1230
2026-03-20 02:00 2.94 218 4180 (1998) 42 (1956) 308 51 67 115 130 172 257 312 566 1230
2026-03-20 01:00 2.95 220 4180 (1998) 42 (1956) 308 51 67 115 130 172 257 312 566 1230
2026-03-20 00:00 2.95 220 4180 (1998) 42 (1956) 308 51 67 115 130 172 257 312 566 1230
2026-03-19 23:00 2.95 220 4180 (1998) 42 (1956) 308 51 67 115 130 172 257 312 566 1230
2026-03-19 22:00 2.95 220 10300 (2008) 40 (1934) 401 53 70 112 128 163 269 337 494 2120
2026-03-19 21:00 2.96 222 10300 (2008) 40 (1934) 401 53 70 112 128 163 269 337 494 2120
2026-03-19 20:00 2.96 222 10300 (2008) 40 (1934) 401 53 70 112 128 163 269 337 494 2120
2026-03-19 19:00 2.96 222 10300 (2008) 40 (1934) 401 53 70 112 128 163 269 337 494 2120
2026-03-19 18:00 2.96 222 10300 (2008) 40 (1934) 401 53 70 112 128 163 269 337 494 2120
2026-03-19 17:00 2.96 222 10300 (2008) 40 (1934) 401 53 70 112 128 163 269 337 494 2120
2026-03-19 16:00 2.97 224 10300 (2008) 40 (1934) 401 53 70 112 128 163 269 337 494 2120
2026-03-19 15:00 2.97 224 10300 (2008) 40 (1934) 401 53 70 112 128 163 269 337 494 2120
2026-03-19 14:00 2.98 226 10300 (2008) 40 (1934) 401 53 70 112 128 163 269 337 494 2120
2026-03-19 13:00 2.98 226 10300 (2008) 40 (1934) 401 53 70 112 128 163 269 337 494 2120
2026-03-19 12:00 2.98 226 10300 (2008) 40 (1934) 401 53 70 112 128 163 269 337 494 2120
2026-03-19 11:00 2.98 226 10300 (2008) 40 (1934) 401 53 70 112 128 163 269 337 494 2120
2026-03-19 10:00 2.99 229 10300 (2008) 40 (1934) 401 53 70 112 128 163 269 337 494 2120
2026-03-19 09:00 2.99 229 10300 (2008) 40 (1934) 401 53 70 112 128 163 269 337 494 2120
2026-03-19 08:00 2.99 229 10300 (2008) 40 (1934) 401 53 70 112 128 163 269 337 494 2120
2026-03-19 07:00 3.00 231 10300 (2008) 40 (1934) 401 53 70 112 128 163 269 337 494 2120
2026-03-19 06:00 3.00 231 10300 (2008) 40 (1934) 401 53 70 112 128 163 269 337 494 2120
2026-03-19 05:00 3.00 231 10300 (2008) 40 (1934) 401 53 70 112 128 163 269 337 494 2120
2026-03-19 04:00 3.01 233 10300 (2008) 40 (1934) 401 53 70 112 128 163 269 337 494 2120
2026-03-19 03:00 3.01 233 10300 (2008) 40 (1934) 401 53 70 112 128 163 269 337 494 2120
2026-03-19 02:00 3.01 233 10300 (2008) 40 (1934) 401 53 70 112 128 163 269 337 494 2120
2026-03-19 01:00 3.01 233 10300 (2008) 40 (1934) 401 53 70 112 128 163 269 337 494 2120
2026-03-19 00:00 3.02 235 10300 (2008) 40 (1934) 401 53 70 112 128 163 269 337 494 2120
2026-03-18 23:00 3.03 238 10300 (2008) 40 (1934) 401 53 70 112 128 163 269 337 494 2120
2026-03-18 22:00 3.03 238 7810 (2008) 43 (1941) 310 52 79 95 112 155 271 332 421 782
2026-03-18 21:00 3.03 238 7810 (2008) 43 (1941) 310 52 79 95 112 155 271 332 421 782
2026-03-18 20:00 3.03 238 7810 (2008) 43 (1941) 310 52 79 95 112 155 271 332 421 782
2026-03-18 19:00 3.03 238 7810 (2008) 43 (1941) 310 52 79 95 112 155 271 332 421 782
2026-03-18 18:00 3.04 240 7810 (2008) 43 (1941) 310 52 79 95 112 155 271 332 421 782
2026-03-18 17:00 3.05 242 7810 (2008) 43 (1941) 310 52 79 95 112 155 271 332 421 782
2026-03-18 16:00 3.05 242 7810 (2008) 43 (1941) 310 52 79 95 112 155 271 332 421 782
2026-03-18 15:00 3.06 244 7810 (2008) 43 (1941) 310 52 79 95 112 155 271 332 421 782
2026-03-18 14:00 3.06 244 7810 (2008) 43 (1941) 310 52 79 95 112 155 271 332 421 782
2026-03-18 13:00 3.06 244 7810 (2008) 43 (1941) 310 52 79 95 112 155 271 332 421 782
2026-03-18 12:00 3.07 247 7810 (2008) 43 (1941) 310 52 79 95 112 155 271 332 421 782
2026-03-18 11:00 3.07 247 7810 (2008) 43 (1941) 310 52 79 95 112 155 271 332 421 782
2026-03-18 10:00 3.07 247 7810 (2008) 43 (1941) 310 52 79 95 112 155 271 332 421 782
2026-03-18 09:00 3.07 247 7810 (2008) 43 (1941) 310 52 79 95 112 155 271 332 421 782
2026-03-18 08:00 3.08 249 7810 (2008) 43 (1941) 310 52 79 95 112 155 271 332 421 782
2026-03-18 07:00 3.08 249 7810 (2008) 43 (1941) 310 52 79 95 112 155 271 332 421 782
2026-03-18 06:00 3.09 251 7810 (2008) 43 (1941) 310 52 79 95 112 155 271 332 421 782
2026-03-18 05:00 3.09 251 7810 (2008) 43 (1941) 310 52 79 95 112 155 271 332 421 782
2026-03-18 04:00 3.09 251 7810 (2008) 43 (1941) 310 52 79 95 112 155 271 332 421 782
2026-03-18 03:00 3.10 254 7810 (2008) 43 (1941) 310 52 79 95 112 155 271 332 421 782
2026-03-18 02:00 3.10 254 7810 (2008) 43 (1941) 310 52 79 95 112 155 271 332 421 782
2026-03-18 01:00 3.10 254 7810 (2008) 43 (1941) 310 52 79 95 112 155 271 332 421 782
2026-03-18 00:00 3.11 256 7810 (2008) 43 (1941) 310 52 79 95 112 155 271 332 421 782
2026-03-17 23:00 3.11 256 7810 (2008) 43 (1941) 310 52 79 95 112 155 271 332 421 782
2026-03-17 22:00 3.11 256 2070 (2013) 38 (1934) 230 52 81 95 110 164 242 295 451 506
2026-03-17 21:00 3.12 259 2070 (2013) 38 (1934) 230 52 81 95 110 164 242 295 451 506
2026-03-17 20:00 3.12 259 2070 (2013) 38 (1934) 230 52 81 95 110 164 242 295 451 506
2026-03-17 19:00 3.13 261 2070 (2013) 38 (1934) 230 52 81 95 110 164 242 295 451 506
2026-03-17 18:00 3.13 261 2070 (2013) 38 (1934) 230 52 81 95 110 164 242 295 451 506
2026-03-17 17:00 3.13 261 2070 (2013) 38 (1934) 230 52 81 95 110 164 242 295 451 506
2026-03-17 16:00 3.14 263 2070 (2013) 38 (1934) 230 52 81 95 110 164 242 295 451 506
2026-03-17 15:00 3.15 266 2070 (2013) 38 (1934) 230 52 81 95 110 164 242 295 451 506
2026-03-17 14:00 3.16 268 2070 (2013) 38 (1934) 230 52 81 95 110 164 242 295 451 506
2026-03-17 13:00 3.16 268 2070 (2013) 38 (1934) 230 52 81 95 110 164 242 295 451 506
2026-03-17 12:00 3.16 268 2070 (2013) 38 (1934) 230 52 81 95 110 164 242 295 451 506
2026-03-17 11:00 3.16 268 2070 (2013) 38 (1934) 230 52 81 95 110 164 242 295 451 506
2026-03-17 10:00 3.17 271 2070 (2013) 38 (1934) 230 52 81 95 110 164 242 295 451 506
2026-03-17 09:00 3.18 273 2070 (2013) 38 (1934) 230 52 81 95 110 164 242 295 451 506
2026-03-17 08:00 3.18 273 2070 (2013) 38 (1934) 230 52 81 95 110 164 242 295 451 506
2026-03-17 07:00 3.19 276 2070 (2013) 38 (1934) 230 52 81 95 110 164 242 295 451 506
2026-03-17 06:00 3.20 278 2070 (2013) 38 (1934) 230 52 81 95 110 164 242 295 451 506
2026-03-17 05:00 3.20 278 2070 (2013) 38 (1934) 230 52 81 95 110 164 242 295 451 506
2026-03-17 04:00 3.21 281 2070 (2013) 38 (1934) 230 52 81 95 110 164 242 295 451 506
2026-03-17 03:00 3.22 283 2070 (2013) 38 (1934) 230 52 81 95 110 164 242 295 451 506
2026-03-17 02:00 3.22 283 2070 (2013) 38 (1934) 230 52 81 95 110 164 242 295 451 506
2026-03-17 01:00 3.23 286 2070 (2013) 38 (1934) 230 52 81 95 110 164 242 295 451 506
2026-03-17 00:00 3.24 288 2070 (2013) 38 (1934) 230 52 81 95 110 164 242 295 451 506
2026-03-16 23:00 3.25 291 2070 (2013) 38 (1934) 230 52 81 95 110 164 242 295 451 506
2026-03-16 22:00 3.25 291 1330 (2012) 39 (1934) 227 56 73 98 108 170 268 325 455 559
2026-03-16 21:00 3.26 293 1330 (2012) 39 (1934) 227 56 73 98 108 170 268 325 455 559
2026-03-16 20:00 3.27 296 1330 (2012) 39 (1934) 227 56 73 98 108 170 268 325 455 559
2026-03-16 19:00 3.27 296 1330 (2012) 39 (1934) 227 56 73 98 108 170 268 325 455 559
2026-03-16 18:00 3.29 301 1330 (2012) 39 (1934) 227 56 73 98 108 170 268 325 455 559
2026-03-16 17:00 3.29 301 1330 (2012) 39 (1934) 227 56 73 98 108 170 268 325 455 559
2026-03-16 16:00 3.30 303 1330 (2012) 39 (1934) 227 56 73 98 108 170 268 325 455 559
2026-03-16 15:00 3.31 306 1330 (2012) 39 (1934) 227 56 73 98 108 170 268 325 455 559
2026-03-16 14:00 3.32 309 1330 (2012) 39 (1934) 227 56 73 98 108 170 268 325 455 559
2026-03-16 13:00 3.33 311 1330 (2012) 39 (1934) 227 56 73 98 108 170 268 325 455 559
2026-03-16 12:00 3.34 314 1330 (2012) 39 (1934) 227 56 73 98 108 170 268 325 455 559
2026-03-16 11:00 3.33 311 1330 (2012) 39 (1934) 227 56 73 98 108 170 268 325 455 559
2026-03-16 10:00 3.36 319 1330 (2012) 39 (1934) 227 56 73 98 108 170 268 325 455 559
2026-03-16 09:00 3.37 322 1330 (2012) 39 (1934) 227 56 73 98 108 170 268 325 455 559
2026-03-16 08:00 3.39 327 1330 (2012) 39 (1934) 227 56 73 98 108 170 268 325 455 559
2026-03-16 07:00 3.40 330 1330 (2012) 39 (1934) 227 56 73 98 108 170 268 325 455 559
2026-03-16 06:00 3.42 335 1330 (2012) 39 (1934) 227 56 73 98 108 170 268 325 455 559
2026-03-16 05:00 3.44 341 1330 (2012) 39 (1934) 227 56 73 98 108 170 268 325 455 559
2026-03-16 04:00 3.44 341 1330 (2012) 39 (1934) 227 56 73 98 108 170 268 325 455 559
2026-03-16 03:00 3.46 346 1330 (2012) 39 (1934) 227 56 73 98 108 170 268 325 455 559
2026-03-16 02:00 3.46 346 1330 (2012) 39 (1934) 227 56 73 98 108 170 268 325 455 559
2026-03-16 01:00 3.49 355 1330 (2012) 39 (1934) 227 56 73 98 108 170 268 325 455 559
2026-03-16 00:00 3.52 363 1330 (2012) 39 (1934) 227 56 73 98 108 170 268 325 455 559
2026-03-15 23:00 3.53 366 1330 (2012) 39 (1934) 227 56 73 98 108 170 268 325 455 559
2026-03-15 22:00 3.48 352 2060 (2012) 38 (1934) 260 56 69 98 110 163 326 387 548 774
2026-03-15 21:00 3.29 301 2060 (2012) 38 (1934) 260 56 69 98 110 163 326 387 548 774
2026-03-15 20:00 3.19 276 2060 (2012) 38 (1934) 260 56 69 98 110 163 326 387 548 774
2026-03-15 19:00 3.14 263 2060 (2012) 38 (1934) 260 56 69 98 110 163 326 387 548 774
2026-03-15 18:00 3.14 263 2060 (2012) 38 (1934) 260 56 69 98 110 163 326 387 548 774
2026-03-15 17:00 3.13 261 2060 (2012) 38 (1934) 260 56 69 98 110 163 326 387 548 774
2026-03-15 16:00 3.09 251 2060 (2012) 38 (1934) 260 56 69 98 110 163 326 387 548 774
2026-03-15 15:00 3.03 238 2060 (2012) 38 (1934) 260 56 69 98 110 163 326 387 548 774
2026-03-15 14:00 3.07 247 2060 (2012) 38 (1934) 260 56 69 98 110 163 326 387 548 774
2026-03-15 13:00 3.07 247 2060 (2012) 38 (1934) 260 56 69 98 110 163 326 387 548 774
2026-03-15 12:00 3.07 247 2060 (2012) 38 (1934) 260 56 69 98 110 163 326 387 548 774
2026-03-15 11:00 3.07 247 2060 (2012) 38 (1934) 260 56 69 98 110 163 326 387 548 774
2026-03-15 10:00 3.08 249 2060 (2012) 38 (1934) 260 56 69 98 110 163 326 387 548 774
2026-03-15 09:00 3.08 249 2060 (2012) 38 (1934) 260 56 69 98 110 163 326 387 548 774
2026-03-15 08:00 3.08 249 2060 (2012) 38 (1934) 260 56 69 98 110 163 326 387 548 774
2026-03-15 07:00 3.08 249 2060 (2012) 38 (1934) 260 56 69 98 110 163 326 387 548 774
2026-03-15 06:00 3.09 251 2060 (2012) 38 (1934) 260 56 69 98 110 163 326 387 548 774
2026-03-15 05:00 3.09 251 2060 (2012) 38 (1934) 260 56 69 98 110 163 326 387 548 774
2026-03-15 04:00 3.09 251 2060 (2012) 38 (1934) 260 56 69 98 110 163 326 387 548 774
2026-03-15 03:00 3.09 251 2060 (2012) 38 (1934) 260 56 69 98 110 163 326 387 548 774
2026-03-15 02:00 3.10 254 2060 (2012) 38 (1934) 260 56 69 98 110 163 326 387 548 774
2026-03-15 01:00 3.10 254 2060 (2012) 38 (1934) 260 56 69 98 110 163 326 387 548 774
2026-03-15 00:00 3.10 254 2060 (2012) 38 (1934) 260 56 69 98 110 163 326 387 548 774
2026-03-14 23:00 3.10 254 2060 (2012) 38 (1934) 260 56 69 98 110 163 326 387 548 774
2026-03-14 22:00 3.11 256 1920 (2011) 41 (1934) 239 54 72 99 110 162 293 322 521 631
2026-03-14 21:00 3.11 256 1920 (2011) 41 (1934) 239 54 72 99 110 162 293 322 521 631
2026-03-14 20:00 3.11 256 1920 (2011) 41 (1934) 239 54 72 99 110 162 293 322 521 631
2026-03-14 19:00 3.11 256 1920 (2011) 41 (1934) 239 54 72 99 110 162 293 322 521 631
2026-03-14 18:00 3.12 259 1920 (2011) 41 (1934) 239 54 72 99 110 162 293 322 521 631
2026-03-14 17:00 3.12 259 1920 (2011) 41 (1934) 239 54 72 99 110 162 293 322 521 631
2026-03-14 16:00 3.13 261 1920 (2011) 41 (1934) 239 54 72 99 110 162 293 322 521 631
2026-03-14 15:00 3.13 261 1920 (2011) 41 (1934) 239 54 72 99 110 162 293 322 521 631
2026-03-14 14:00 3.14 263 1920 (2011) 41 (1934) 239 54 72 99 110 162 293 322 521 631
2026-03-14 13:00 3.14 263 1920 (2011) 41 (1934) 239 54 72 99 110 162 293 322 521 631
2026-03-14 12:00 3.15 266 1920 (2011) 41 (1934) 239 54 72 99 110 162 293 322 521 631
2026-03-14 11:00 3.15 266 1920 (2011) 41 (1934) 239 54 72 99 110 162 293 322 521 631
2026-03-14 10:00 3.15 266 1920 (2011) 41 (1934) 239 54 72 99 110 162 293 322 521 631
2026-03-14 09:00 3.16 268 1920 (2011) 41 (1934) 239 54 72 99 110 162 293 322 521 631
2026-03-14 08:00 3.16 268 1920 (2011) 41 (1934) 239 54 72 99 110 162 293 322 521 631
2026-03-14 07:00 3.17 271 1920 (2011) 41 (1934) 239 54 72 99 110 162 293 322 521 631
2026-03-14 06:00 3.17 271 1920 (2011) 41 (1934) 239 54 72 99 110 162 293 322 521 631
2026-03-14 05:00 3.18 273 1920 (2011) 41 (1934) 239 54 72 99 110 162 293 322 521 631
2026-03-14 04:00 3.18 273 1920 (2011) 41 (1934) 239 54 72 99 110 162 293 322 521 631
2026-03-14 03:00 3.18 273 1920 (2011) 41 (1934) 239 54 72 99 110 162 293 322 521 631
2026-03-14 02:00 3.19 276 1920 (2011) 41 (1934) 239 54 72 99 110 162 293 322 521 631
2026-03-14 01:00 3.19 276 1920 (2011) 41 (1934) 239 54 72 99 110 162 293 322 521 631
2026-03-14 00:00 3.20 278 1920 (2011) 41 (1934) 239 54 72 99 110 162 293 322 521 631
2026-03-13 23:00 3.20 278 1920 (2011) 41 (1934) 239 54 72 99 110 162 293 322 521 631
2026-03-13 22:00 3.21 281 2080 (2021) 41 (1934) 245 56 76 97 107 154 271 313 560 674
2026-03-13 21:00 3.21 281 2080 (2021) 41 (1934) 245 56 76 97 107 154 271 313 560 674
2026-03-13 20:00 3.21 281 2080 (2021) 41 (1934) 245 56 76 97 107 154 271 313 560 674
2026-03-13 19:00 3.22 283 2080 (2021) 41 (1934) 245 56 76 97 107 154 271 313 560 674
2026-03-13 18:00 3.22 283 2080 (2021) 41 (1934) 245 56 76 97 107 154 271 313 560 674
2026-03-13 17:00 3.23 286 2080 (2021) 41 (1934) 245 56 76 97 107 154 271 313 560 674
2026-03-13 16:00 3.24 288 2080 (2021) 41 (1934) 245 56 76 97 107 154 271 313 560 674
2026-03-13 15:00 3.25 291 2080 (2021) 41 (1934) 245 56 76 97 107 154 271 313 560 674
2026-03-13 14:00 3.25 291 2080 (2021) 41 (1934) 245 56 76 97 107 154 271 313 560 674
2026-03-13 13:00 3.25 291 2080 (2021) 41 (1934) 245 56 76 97 107 154 271 313 560 674
2026-03-13 12:00 3.26 293 2080 (2021) 41 (1934) 245 56 76 97 107 154 271 313 560 674
2026-03-13 11:00 3.26 293 2080 (2021) 41 (1934) 245 56 76 97 107 154 271 313 560 674
2026-03-13 10:00 3.27 296 2080 (2021) 41 (1934) 245 56 76 97 107 154 271 313 560 674
2026-03-13 09:00 3.27 296 2080 (2021) 41 (1934) 245 56 76 97 107 154 271 313 560 674
2026-03-13 08:00 3.27 296 2080 (2021) 41 (1934) 245 56 76 97 107 154 271 313 560 674
2026-03-13 07:00 3.28 298 2080 (2021) 41 (1934) 245 56 76 97 107 154 271 313 560 674
2026-03-13 06:00 3.28 298 2080 (2021) 41 (1934) 245 56 76 97 107 154 271 313 560 674
2026-03-13 05:00 3.28 298 2080 (2021) 41 (1934) 245 56 76 97 107 154 271 313 560 674
2026-03-13 04:00 3.28 298 2080 (2021) 41 (1934) 245 56 76 97 107 154 271 313 560 674
2026-03-13 03:00 3.29 301 2080 (2021) 41 (1934) 245 56 76 97 107 154 271 313 560 674
2026-03-13 02:00 3.29 301 2080 (2021) 41 (1934) 245 56 76 97 107 154 271 313 560 674
2026-03-13 01:00 3.30 303 2080 (2021) 41 (1934) 245 56 76 97 107 154 271 313 560 674
2026-03-13 00:00 3.30 303 2080 (2021) 41 (1934) 245 56 76 97 107 154 271 313 560 674
2026-03-12 23:00 3.30 303 2080 (2021) 41 (1934) 245 56 76 97 107 154 271 313 560 674
2026-03-12 22:00 3.31 306 1510 (2021) 42 (1934) 260 56 71 90 102 155 308 340 633 807
2026-03-12 21:00 3.31 306 1510 (2021) 42 (1934) 260 56 71 90 102 155 308 340 633 807
2026-03-12 20:00 3.32 309 1510 (2021) 42 (1934) 260 56 71 90 102 155 308 340 633 807
2026-03-12 19:00 3.32 309 1510 (2021) 42 (1934) 260 56 71 90 102 155 308 340 633 807
2026-03-12 18:00 3.32 309 1510 (2021) 42 (1934) 260 56 71 90 102 155 308 340 633 807
2026-03-12 17:00 3.33 311 1510 (2021) 42 (1934) 260 56 71 90 102 155 308 340 633 807
2026-03-12 16:00 3.34 314 1510 (2021) 42 (1934) 260 56 71 90 102 155 308 340 633 807
2026-03-12 15:00 3.34 314 1510 (2021) 42 (1934) 260 56 71 90 102 155 308 340 633 807
2026-03-12 14:00 3.35 316 1510 (2021) 42 (1934) 260 56 71 90 102 155 308 340 633 807
2026-03-12 13:00 3.36 319 1510 (2021) 42 (1934) 260 56 71 90 102 155 308 340 633 807
2026-03-12 12:00 3.37 322 1510 (2021) 42 (1934) 260 56 71 90 102 155 308 340 633 807
2026-03-12 11:00 3.37 322 1510 (2021) 42 (1934) 260 56 71 90 102 155 308 340 633 807
2026-03-12 10:00 3.37 322 1510 (2021) 42 (1934) 260 56 71 90 102 155 308 340 633 807
2026-03-12 09:00 3.38 324 1510 (2021) 42 (1934) 260 56 71 90 102 155 308 340 633 807
2026-03-12 08:00 3.38 324 1510 (2021) 42 (1934) 260 56 71 90 102 155 308 340 633 807
2026-03-12 07:00 3.39 327 1510 (2021) 42 (1934) 260 56 71 90 102 155 308 340 633 807
2026-03-12 06:00 3.40 330 1510 (2021) 42 (1934) 260 56 71 90 102 155 308 340 633 807
2026-03-12 05:00 3.40 330 1510 (2021) 42 (1934) 260 56 71 90 102 155 308 340 633 807
2026-03-12 04:00 3.41 333 1510 (2021) 42 (1934) 260 56 71 90 102 155 308 340 633 807
2026-03-12 03:00 3.43 338 1510 (2021) 42 (1934) 260 56 71 90 102 155 308 340 633 807
2026-03-12 02:00 3.43 338 1510 (2021) 42 (1934) 260 56 71 90 102 155 308 340 633 807
2026-03-12 01:00 3.44 341 1510 (2021) 42 (1934) 260 56 71 90 102 155 308 340 633 807
2026-03-12 00:00 3.45 344 1510 (2021) 42 (1934) 260 56 71 90 102 155 308 340 633 807
2026-03-11 23:00 3.46 346 1510 (2021) 42 (1934) 260 56 71 90 102 155 308 340 633 807
2026-03-11 22:00 3.47 349 8220 (1935) 42 (1956) 361 58 73 88 97 154 298 337 638 1250
2026-03-11 21:00 3.48 352 8220 (1935) 42 (1956) 361 58 73 88 97 154 298 337 638 1250
2026-03-11 20:00 3.48 352 8220 (1935) 42 (1956) 361 58 73 88 97 154 298 337 638 1250
2026-03-11 19:00 3.49 355 8220 (1935) 42 (1956) 361 58 73 88 97 154 298 337 638 1250
2026-03-11 18:00 3.51 360 8220 (1935) 42 (1956) 361 58 73 88 97 154 298 337 638 1250
2026-03-11 17:00 3.52 363 8220 (1935) 42 (1956) 361 58 73 88 97 154 298 337 638 1250
2026-03-11 16:00 3.53 366 8220 (1935) 42 (1956) 361 58 73 88 97 154 298 337 638 1250
2026-03-11 15:00 3.52 363 8220 (1935) 42 (1956) 361 58 73 88 97 154 298 337 638 1250
2026-03-11 14:00 3.53 366 8220 (1935) 42 (1956) 361 58 73 88 97 154 298 337 638 1250
2026-03-11 13:00 3.54 369 8220 (1935) 42 (1956) 361 58 73 88 97 154 298 337 638 1250
2026-03-11 12:00 3.54 369 8220 (1935) 42 (1956) 361 58 73 88 97 154 298 337 638 1250
2026-03-11 11:00 3.52 363 8220 (1935) 42 (1956) 361 58 73 88 97 154 298 337 638 1250
2026-03-11 10:00 3.46 346 8220 (1935) 42 (1956) 361 58 73 88 97 154 298 337 638 1250
2026-03-11 09:00 3.44 341 8220 (1935) 42 (1956) 361 58 73 88 97 154 298 337 638 1250
2026-03-11 08:00 3.42 335 8220 (1935) 42 (1956) 361 58 73 88 97 154 298 337 638 1250
2026-03-11 07:00 3.41 333 8220 (1935) 42 (1956) 361 58 73 88 97 154 298 337 638 1250
2026-03-11 06:00 3.40 330 8220 (1935) 42 (1956) 361 58 73 88 97 154 298 337 638 1250
2026-03-11 05:00 3.39 327 8220 (1935) 42 (1956) 361 58 73 88 97 154 298 337 638 1250
2026-03-11 04:00 3.37 322 8220 (1935) 42 (1956) 361 58 73 88 97 154 298 337 638 1250
2026-03-11 03:00 3.37 322 8220 (1935) 42 (1956) 361 58 73 88 97 154 298 337 638 1250
2026-03-11 02:00 3.37 322 8220 (1935) 42 (1956) 361 58 73 88 97 154 298 337 638 1250
2026-03-11 01:00 3.38 324 8220 (1935) 42 (1956) 361 58 73 88 97 154 298 337 638 1250
2026-03-11 00:00 3.38 324 8220 (1935) 42 (1956) 361 58 73 88 97 154 298 337 638 1250
2026-03-10 23:00 3.39 327 8220 (1935) 42 (1956) 361 58 73 88 97 154 298 337 638 1250
2026-03-10 22:00 3.40 330 2500 (1973) 42 (1956) 267 48 71 87 100 157 285 350 463 754
2026-03-10 21:00 3.40 330 2500 (1973) 42 (1956) 267 48 71 87 100 157 285 350 463 754
2026-03-10 20:00 3.41 333 2500 (1973) 42 (1956) 267 48 71 87 100 157 285 350 463 754
2026-03-10 19:00 3.41 333 2500 (1973) 42 (1956) 267 48 71 87 100 157 285 350 463 754
2026-03-10 18:00 3.42 335 2500 (1973) 42 (1956) 267 48 71 87 100 157 285 350 463 754
2026-03-10 17:00 3.42 335 2500 (1973) 42 (1956) 267 48 71 87 100 157 285 350 463 754
2026-03-10 16:00 3.43 338 2500 (1973) 42 (1956) 267 48 71 87 100 157 285 350 463 754
2026-03-10 15:00 3.45 344 2500 (1973) 42 (1956) 267 48 71 87 100 157 285 350 463 754
2026-03-10 14:00 3.45 344 2500 (1973) 42 (1956) 267 48 71 87 100 157 285 350 463 754
2026-03-10 13:00 3.46 346 2500 (1973) 42 (1956) 267 48 71 87 100 157 285 350 463 754
2026-03-10 12:00 3.46 346 2500 (1973) 42 (1956) 267 48 71 87 100 157 285 350 463 754
2026-03-10 11:00 3.47 349 2500 (1973) 42 (1956) 267 48 71 87 100 157 285 350 463 754
2026-03-10 10:00 3.48 352 2500 (1973) 42 (1956) 267 48 71 87 100 157 285 350 463 754
2026-03-10 09:00 3.49 355 2500 (1973) 42 (1956) 267 48 71 87 100 157 285 350 463 754
2026-03-10 08:00 3.50 358 2500 (1973) 42 (1956) 267 48 71 87 100 157 285 350 463 754
2026-03-10 07:00 3.50 358 2500 (1973) 42 (1956) 267 48 71 87 100 157 285 350 463 754
2026-03-10 06:00 3.51 360 2500 (1973) 42 (1956) 267 48 71 87 100 157 285 350 463 754
2026-03-10 05:00 3.52 363 2500 (1973) 42 (1956) 267 48 71 87 100 157 285 350 463 754
2026-03-10 04:00 3.53 366 2500 (1973) 42 (1956) 267 48 71 87 100 157 285 350 463 754
2026-03-10 03:00 3.54 369 2500 (1973) 42 (1956) 267 48 71 87 100 157 285 350 463 754
2026-03-10 02:00 3.55 372 2500 (1973) 42 (1956) 267 48 71 87 100 157 285 350 463 754
2026-03-10 01:00 3.56 375 2500 (1973) 42 (1956) 267 48 71 87 100 157 285 350 463 754
2026-03-10 00:00 3.57 378 2500 (1973) 42 (1956) 267 48 71 87 100 157 285 350 463 754
2026-03-09 23:00 3.58 381 2500 (1973) 42 (1956) 267 48 71 87 100 157 285 350 463 754
2026-03-09 22:00 3.59 384 1000 (1958) 43 (1956) 207 47 72 88 100 144 214 266 464 646
2026-03-09 21:00 3.60 387 1000 (1958) 43 (1956) 207 47 72 88 100 144 214 266 464 646
2026-03-09 20:00 3.61 390 1000 (1958) 43 (1956) 207 47 72 88 100 144 214 266 464 646
2026-03-09 19:00 3.62 393 1000 (1958) 43 (1956) 207 47 72 88 100 144 214 266 464 646
2026-03-09 18:00 3.63 396 1000 (1958) 43 (1956) 207 47 72 88 100 144 214 266 464 646
2026-03-09 17:00 3.65 402 1000 (1958) 43 (1956) 207 47 72 88 100 144 214 266 464 646
2026-03-09 16:00 3.66 405 1000 (1958) 43 (1956) 207 47 72 88 100 144 214 266 464 646
2026-03-09 15:00 3.67 408 1000 (1958) 43 (1956) 207 47 72 88 100 144 214 266 464 646
2026-03-09 14:00 3.69 414 1000 (1958) 43 (1956) 207 47 72 88 100 144 214 266 464 646
2026-03-09 13:00 3.69 414 1000 (1958) 43 (1956) 207 47 72 88 100 144 214 266 464 646
2026-03-09 12:00 3.70 417 1000 (1958) 43 (1956) 207 47 72 88 100 144 214 266 464 646
2026-03-09 11:00 3.72 423 1000 (1958) 43 (1956) 207 47 72 88 100 144 214 266 464 646
2026-03-09 10:00 3.73 426 1000 (1958) 43 (1956) 207 47 72 88 100 144 214 266 464 646
2026-03-09 09:00 3.74 429 1000 (1958) 43 (1956) 207 47 72 88 100 144 214 266 464 646
2026-03-09 08:00 3.75 433 1000 (1958) 43 (1956) 207 47 72 88 100 144 214 266 464 646
2026-03-09 07:00 3.77 439 1000 (1958) 43 (1956) 207 47 72 88 100 144 214 266 464 646
2026-03-09 06:00 3.79 445 1000 (1958) 43 (1956) 207 47 72 88 100 144 214 266 464 646
2026-03-09 05:00 3.81 452 1000 (1958) 43 (1956) 207 47 72 88 100 144 214 266 464 646
2026-03-09 04:00 3.82 455 1000 (1958) 43 (1956) 207 47 72 88 100 144 214 266 464 646
2026-03-09 03:00 3.83 458 1000 (1958) 43 (1956) 207 47 72 88 100 144 214 266 464 646
2026-03-09 02:00 3.86 468 1000 (1958) 43 (1956) 207 47 72 88 100 144 214 266 464 646
2026-03-09 01:00 3.87 472 1000 (1958) 43 (1956) 207 47 72 88 100 144 214 266 464 646
2026-03-09 00:00 3.89 478 1000 (1958) 43 (1956) 207 47 72 88 100 144 214 266 464 646
2026-03-08 23:00 3.91 485 1000 (1958) 43 (1956) 207 47 72 88 100 144 214 266 464 646
2026-03-08 22:00 3.94 495 965 (1961) 41 (1954) 203 51 69 83 102 138 224 267 468 671
2026-03-08 21:00 3.95 499 965 (1961) 41 (1954) 203 51 69 83 102 138 224 267 468 671
2026-03-08 20:00 3.98 509 965 (1961) 41 (1954) 203 51 69 83 102 138 224 267 468 671
2026-03-08 19:00 4.00 516 965 (1961) 41 (1954) 203 51 69 83 102 138 224 267 468 671
2026-03-08 18:00 4.03 527 965 (1961) 41 (1954) 203 51 69 83 102 138 224 267 468 671
2026-03-08 17:00 4.06 537 965 (1961) 41 (1954) 203 51 69 83 102 138 224 267 468 671
2026-03-08 16:00 4.09 548 965 (1961) 41 (1954) 203 51 69 83 102 138 224 267 468 671
2026-03-08 15:00 4.12 559 965 (1961) 41 (1954) 203 51 69 83 102 138 224 267 468 671
2026-03-08 14:00 4.16 574 965 (1961) 41 (1954) 203 51 69 83 102 138 224 267 468 671
2026-03-08 13:00 4.20 589 965 (1961) 41 (1954) 203 51 69 83 102 138 224 267 468 671
2026-03-08 12:00 4.23 601 965 (1961) 41 (1954) 203 51 69 83 102 138 224 267 468 671
2026-03-08 11:00 4.27 616 965 (1961) 41 (1954) 203 51 69 83 102 138 224 267 468 671
2026-03-08 10:00 4.32 636 965 (1961) 41 (1954) 203 51 69 83 102 138 224 267 468 671
2026-03-08 09:00 4.37 656 965 (1961) 41 (1954) 203 51 69 83 102 138 224 267 468 671
2026-03-08 08:00 4.42 676 965 (1961) 41 (1954) 203 51 69 83 102 138 224 267 468 671
2026-03-08 07:00 4.48 701 965 (1961) 41 (1954) 203 51 69 83 102 138 224 267 468 671
2026-03-08 06:00 4.54 726 965 (1961) 41 (1954) 203 51 69 83 102 138 224 267 468 671
2026-03-08 05:00 4.61 757 965 (1961) 41 (1954) 203 51 69 83 102 138 224 267 468 671
2026-03-08 04:00 4.68 788 965 (1961) 41 (1954) 203 51 69 83 102 138 224 267 468 671
2026-03-08 03:00 4.77 829 965 (1961) 41 (1954) 203 51 69 83 102 138 224 267 468 671
2026-03-08 01:00 4.87 876 965 (1961) 41 (1954) 203 51 69 83 102 138 224 267 468 671
2026-03-08 00:00 4.98 929 965 (1961) 41 (1954) 203 51 69 83 102 138 224 267 468 671
2026-03-07 23:00 5.12 1000 965 (1961) 41 (1954) 203 51 69 83 102 138 224 267 468 671
2026-03-07 22:00 5.28 1080 1500 (1995) 43 (1954) 217 48 69 84 98 141 242 284 457 690
2026-03-07 21:00 5.46 1180 1500 (1995) 43 (1954) 217 48 69 84 98 141 242 284 457 690
2026-03-07 20:00 5.68 1310 1500 (1995) 43 (1954) 217 48 69 84 98 141 242 284 457 690
2026-03-07 19:00 5.95 1480 1500 (1995) 43 (1954) 217 48 69 84 98 141 242 284 457 690
2026-03-07 18:00 6.32 1730 1500 (1995) 43 (1954) 217 48 69 84 98 141 242 284 457 690
2026-03-07 17:00 6.79 2090 1500 (1995) 43 (1954) 217 48 69 84 98 141 242 284 457 690
2026-03-07 16:00 7.18 2410 1500 (1995) 43 (1954) 217 48 69 84 98 141 242 284 457 690
2026-03-07 15:00 7.32 2530 1500 (1995) 43 (1954) 217 48 69 84 98 141 242 284 457 690
2026-03-07 14:00 7.22 2440 1500 (1995) 43 (1954) 217 48 69 84 98 141 242 284 457 690
2026-03-07 13:00 6.86 2140 1500 (1995) 43 (1954) 217 48 69 84 98 141 242 284 457 690
2026-03-07 12:00 6.35 1760 1500 (1995) 43 (1954) 217 48 69 84 98 141 242 284 457 690
2026-03-07 11:00 6.21 1660 1500 (1995) 43 (1954) 217 48 69 84 98 141 242 284 457 690
2026-03-07 10:00 6.19 1640 1500 (1995) 43 (1954) 217 48 69 84 98 141 242 284 457 690
2026-03-07 09:00 6.31 1730 1500 (1995) 43 (1954) 217 48 69 84 98 141 242 284 457 690
2026-03-07 08:00 6.07 1560 1500 (1995) 43 (1954) 217 48 69 84 98 141 242 284 457 690
2026-03-07 07:00 5.28 1080 1500 (1995) 43 (1954) 217 48 69 84 98 141 242 284 457 690
2026-03-07 06:00 4.62 761 1500 (1995) 43 (1954) 217 48 69 84 98 141 242 284 457 690
2026-03-07 05:00 3.97 506 1500 (1995) 43 (1954) 217 48 69 84 98 141 242 284 457 690
2026-03-07 04:00 3.75 433 1500 (1995) 43 (1954) 217 48 69 84 98 141 242 284 457 690
2026-03-07 03:00 3.68 411 1500 (1995) 43 (1954) 217 48 69 84 98 141 242 284 457 690
2026-03-07 02:00 3.66 405 1500 (1995) 43 (1954) 217 48 69 84 98 141 242 284 457 690
2026-03-07 01:00 3.63 396 1500 (1995) 43 (1954) 217 48 69 84 98 141 242 284 457 690
2026-03-07 00:00 3.61 390 1500 (1995) 43 (1954) 217 48 69 84 98 141 242 284 457 690
2026-03-06 23:00 3.63 396 1500 (1995) 43 (1954) 217 48 69 84 98 141 242 284 457 690
2026-03-06 22:00 3.64 399 3330 (1945) 44 (1956) 209 50 62 80 100 139 209 245 377 506
2026-03-06 21:00 3.67 408 3330 (1945) 44 (1956) 209 50 62 80 100 139 209 245 377 506
2026-03-06 20:00 3.70 417 3330 (1945) 44 (1956) 209 50 62 80 100 139 209 245 377 506
2026-03-06 19:00 3.71 420 3330 (1945) 44 (1956) 209 50 62 80 100 139 209 245 377 506
2026-03-06 18:00 3.74 429 3330 (1945) 44 (1956) 209 50 62 80 100 139 209 245 377 506
2026-03-06 17:00 3.76 436 3330 (1945) 44 (1956) 209 50 62 80 100 139 209 245 377 506
2026-03-06 16:00 3.79 445 3330 (1945) 44 (1956) 209 50 62 80 100 139 209 245 377 506
2026-03-06 15:00 3.82 455 3330 (1945) 44 (1956) 209 50 62 80 100 139 209 245 377 506
2026-03-06 14:00 3.87 472 3330 (1945) 44 (1956) 209 50 62 80 100 139 209 245 377 506
2026-03-06 13:00 3.88 475 3330 (1945) 44 (1956) 209 50 62 80 100 139 209 245 377 506
2026-03-06 12:00 3.92 488 3330 (1945) 44 (1956) 209 50 62 80 100 139 209 245 377 506
2026-03-06 11:00 3.95 499 3330 (1945) 44 (1956) 209 50 62 80 100 139 209 245 377 506
2026-03-06 10:00 3.98 509 3330 (1945) 44 (1956) 209 50 62 80 100 139 209 245 377 506
2026-03-06 09:00 4.02 523 3330 (1945) 44 (1956) 209 50 62 80 100 139 209 245 377 506
2026-03-06 08:00 4.06 537 3330 (1945) 44 (1956) 209 50 62 80 100 139 209 245 377 506
2026-03-06 07:00 4.11 556 3330 (1945) 44 (1956) 209 50 62 80 100 139 209 245 377 506
2026-03-06 06:00 4.16 574 3330 (1945) 44 (1956) 209 50 62 80 100 139 209 245 377 506
2026-03-06 05:00 4.21 593 3330 (1945) 44 (1956) 209 50 62 80 100 139 209 245 377 506
2026-03-06 04:00 4.28 620 3330 (1945) 44 (1956) 209 50 62 80 100 139 209 245 377 506
2026-03-06 03:00 4.35 648 3330 (1945) 44 (1956) 209 50 62 80 100 139 209 245 377 506
2026-03-06 02:00 4.43 680 3330 (1945) 44 (1956) 209 50 62 80 100 139 209 245 377 506
2026-03-06 01:00 4.50 709 3330 (1945) 44 (1956) 209 50 62 80 100 139 209 245 377 506
2026-03-06 00:00 4.60 752 3330 (1945) 44 (1956) 209 50 62 80 100 139 209 245 377 506
2026-03-05 23:00 4.69 792 3330 (1945) 44 (1956) 209 50 62 80 100 139 209 245 377 506
2026-03-05 22:00 4.81 848 1690 (2004) 45 (1956) 188 50 69 77 86 131 195 214 377 506
2026-03-05 21:00 4.95 915 1690 (2004) 45 (1956) 188 50 69 77 86 131 195 214 377 506
2026-03-05 20:00 5.10 990 1690 (2004) 45 (1956) 188 50 69 77 86 131 195 214 377 506
2026-03-05 19:00 5.29 1090 1690 (2004) 45 (1956) 188 50 69 77 86 131 195 214 377 506
2026-03-05 18:00 5.53 1220 1690 (2004) 45 (1956) 188 50 69 77 86 131 195 214 377 506
2026-03-05 17:00 5.82 1400 1690 (2004) 45 (1956) 188 50 69 77 86 131 195 214 377 506
2026-03-05 16:00 6.21 1660 1690 (2004) 45 (1956) 188 50 69 77 86 131 195 214 377 506
2026-03-05 15:00 6.89 2170 1690 (2004) 45 (1956) 188 50 69 77 86 131 195 214 377 506
2026-03-05 14:00 8.04 3220 1690 (2004) 45 (1956) 188 50 69 77 86 131 195 214 377 506
2026-03-05 13:00 8.94 4210 1690 (2004) 45 (1956) 188 50 69 77 86 131 195 214 377 506
2026-03-05 12:00 9.11 4410 1690 (2004) 45 (1956) 188 50 69 77 86 131 195 214 377 506
2026-03-05 11:00 8.85 4100 1690 (2004) 45 (1956) 188 50 69 77 86 131 195 214 377 506
2026-03-05 10:00 8.38 3570 1690 (2004) 45 (1956) 188 50 69 77 86 131 195 214 377 506
2026-03-05 09:00 7.95 3120 1690 (2004) 45 (1956) 188 50 69 77 86 131 195 214 377 506
2026-03-05 08:00 7.69 2870 1690 (2004) 45 (1956) 188 50 69 77 86 131 195 214 377 506
2026-03-05 07:00 7.84 3020 1690 (2004) 45 (1956) 188 50 69 77 86 131 195 214 377 506
2026-03-05 06:00 8.12 3300 1690 (2004) 45 (1956) 188 50 69 77 86 131 195 214 377 506
2026-03-05 05:00 8.22 3400 1690 (2004) 45 (1956) 188 50 69 77 86 131 195 214 377 506
2026-03-05 04:00 7.92 3090 1690 (2004) 45 (1956) 188 50 69 77 86 131 195 214 377 506
2026-03-05 03:00 7.51 2700 1690 (2004) 45 (1956) 188 50 69 77 86 131 195 214 377 506
2026-03-05 02:00 6.08 1570 1690 (2004) 45 (1956) 188 50 69 77 86 131 195 214 377 506
2026-03-05 01:00 5.35 1120 1690 (2004) 45 (1956) 188 50 69 77 86 131 195 214 377 506
2026-03-05 00:00 5.23 1060 1690 (2004) 45 (1956) 188 50 69 77 86 131 195 214 377 506
2026-03-04 23:00 4.51 714 1690 (2004) 45 (1956) 188 50 69 77 86 131 195 214 377 506
2026-03-04 22:00 3.90 482 2990 (1984) 38 (1963) 219 46 58 79 82 127 190 225 401 621
2026-03-04 21:00 3.69 414 2990 (1984) 38 (1963) 219 46 58 79 82 127 190 225 401 621
2026-03-04 20:00 3.51 360 2990 (1984) 38 (1963) 219 46 58 79 82 127 190 225 401 621
2026-03-04 19:00 3.48 352 2990 (1984) 38 (1963) 219 46 58 79 82 127 190 225 401 621
2026-03-04 18:00 3.31 306 2990 (1984) 38 (1963) 219 46 58 79 82 127 190 225 401 621
2026-03-04 17:00 2.53 139 2990 (1984) 38 (1963) 219 46 58 79 82 127 190 225 401 621
2026-03-04 16:00 2.48 131 2990 (1984) 38 (1963) 219 46 58 79 82 127 190 225 401 621
2026-03-04 15:00 2.47 130 2990 (1984) 38 (1963) 219 46 58 79 82 127 190 225 401 621
2026-03-04 14:00 2.47 130 2990 (1984) 38 (1963) 219 46 58 79 82 127 190 225 401 621
2026-03-04 13:00 2.47 130 2990 (1984) 38 (1963) 219 46 58 79 82 127 190 225 401 621
2026-03-04 12:00 2.42 122 2990 (1984) 38 (1963) 219 46 58 79 82 127 190 225 401 621
2026-03-04 11:00 2.38 116 2990 (1984) 38 (1963) 219 46 58 79 82 127 190 225 401 621
2026-03-04 10:00 2.38 116 2990 (1984) 38 (1963) 219 46 58 79 82 127 190 225 401 621
2026-03-04 09:00 2.38 116 2990 (1984) 38 (1963) 219 46 58 79 82 127 190 225 401 621
2026-03-04 08:00 2.39 117 2990 (1984) 38 (1963) 219 46 58 79 82 127 190 225 401 621
2026-03-04 07:00 2.38 116 2990 (1984) 38 (1963) 219 46 58 79 82 127 190 225 401 621
2026-03-04 06:00 2.39 117 2990 (1984) 38 (1963) 219 46 58 79 82 127 190 225 401 621
2026-03-04 05:00 2.39 117 2990 (1984) 38 (1963) 219 46 58 79 82 127 190 225 401 621
2026-03-04 04:00 2.40 119 2990 (1984) 38 (1963) 219 46 58 79 82 127 190 225 401 621
2026-03-04 03:00 2.41 120 2990 (1984) 38 (1963) 219 46 58 79 82 127 190 225 401 621
2026-03-04 02:00 2.42 122 2990 (1984) 38 (1963) 219 46 58 79 82 127 190 225 401 621
2026-03-04 01:00 2.42 122 2990 (1984) 38 (1963) 219 46 58 79 82 127 190 225 401 621
2026-03-04 00:00 2.42 122 2990 (1984) 38 (1963) 219 46 58 79 82 127 190 225 401 621
2026-03-03 23:00 2.43 123 2990 (1984) 38 (1963) 219 46 58 79 82 127 190 225 401 621
2026-03-03 22:00 2.43 123 3560 (2023) 39 (1963) 217 47 59 74 83 127 208 226 436 568
2026-03-03 21:00 2.44 125 3560 (2023) 39 (1963) 217 47 59 74 83 127 208 226 436 568
2026-03-03 20:00 2.45 126 3560 (2023) 39 (1963) 217 47 59 74 83 127 208 226 436 568
2026-03-03 19:00 2.45 126 3560 (2023) 39 (1963) 217 47 59 74 83 127 208 226 436 568
2026-03-03 18:00 2.45 126 3560 (2023) 39 (1963) 217 47 59 74 83 127 208 226 436 568
2026-03-03 17:00 2.46 128 3560 (2023) 39 (1963) 217 47 59 74 83 127 208 226 436 568
2026-03-03 16:00 2.47 130 3560 (2023) 39 (1963) 217 47 59 74 83 127 208 226 436 568
2026-03-03 15:00 2.48 131 3560 (2023) 39 (1963) 217 47 59 74 83 127 208 226 436 568
2026-03-03 14:00 2.49 133 3560 (2023) 39 (1963) 217 47 59 74 83 127 208 226 436 568
2026-03-03 13:00 2.50 134 3560 (2023) 39 (1963) 217 47 59 74 83 127 208 226 436 568
2026-03-03 12:00 2.50 134 3560 (2023) 39 (1963) 217 47 59 74 83 127 208 226 436 568
2026-03-03 11:00 2.51 136 3560 (2023) 39 (1963) 217 47 59 74 83 127 208 226 436 568
2026-03-03 10:00 2.51 136 3560 (2023) 39 (1963) 217 47 59 74 83 127 208 226 436 568
2026-03-03 09:00 2.53 139 3560 (2023) 39 (1963) 217 47 59 74 83 127 208 226 436 568
2026-03-03 08:00 2.54 141 3560 (2023) 39 (1963) 217 47 59 74 83 127 208 226 436 568
2026-03-03 07:00 2.56 144 3560 (2023) 39 (1963) 217 47 59 74 83 127 208 226 436 568
2026-03-03 06:00 2.56 144 3560 (2023) 39 (1963) 217 47 59 74 83 127 208 226 436 568
2026-03-03 05:00 2.57 146 3560 (2023) 39 (1963) 217 47 59 74 83 127 208 226 436 568
2026-03-03 04:00 2.59 150 3560 (2023) 39 (1963) 217 47 59 74 83 127 208 226 436 568
2026-03-03 03:00 2.60 151 3560 (2023) 39 (1963) 217 47 59 74 83 127 208 226 436 568
2026-03-03 02:00 2.61 153 3560 (2023) 39 (1963) 217 47 59 74 83 127 208 226 436 568
2026-03-03 01:00 2.63 157 3560 (2023) 39 (1963) 217 47 59 74 83 127 208 226 436 568
2026-03-03 00:00 2.64 158 3560 (2023) 39 (1963) 217 47 59 74 83 127 208 226 436 568
2026-03-02 23:00 2.66 162 3560 (2023) 39 (1963) 217 47 59 74 83 127 208 226 436 568
2026-03-02 22:00 2.67 164 2490 (1945) 43 (1963) 189 47 60 72 81 128 210 224 289 477
2026-03-02 21:00 2.69 168 2490 (1945) 43 (1963) 189 47 60 72 81 128 210 224 289 477
2026-03-02 20:00 2.71 171 2490 (1945) 43 (1963) 189 47 60 72 81 128 210 224 289 477
2026-03-02 19:00 2.73 175 2490 (1945) 43 (1963) 189 47 60 72 81 128 210 224 289 477
2026-03-02 18:00 2.75 179 2490 (1945) 43 (1963) 189 47 60 72 81 128 210 224 289 477
2026-03-02 17:00 2.79 187 2490 (1945) 43 (1963) 189 47 60 72 81 128 210 224 289 477
2026-03-02 16:00 2.82 193 2490 (1945) 43 (1963) 189 47 60 72 81 128 210 224 289 477
2026-03-02 15:00 2.85 199 2490 (1945) 43 (1963) 189 47 60 72 81 128 210 224 289 477
2026-03-02 14:00 2.89 207 2490 (1945) 43 (1963) 189 47 60 72 81 128 210 224 289 477
2026-03-02 13:00 2.95 220 2490 (1945) 43 (1963) 189 47 60 72 81 128 210 224 289 477
2026-03-02 12:00 3.01 233 2490 (1945) 43 (1963) 189 47 60 72 81 128 210 224 289 477
2026-03-02 11:00 3.08 249 2490 (1945) 43 (1963) 189 47 60 72 81 128 210 224 289 477
2026-03-02 10:00 3.09 251 2490 (1945) 43 (1963) 189 47 60 72 81 128 210 224 289 477
2026-03-02 09:00 3.03 238 2490 (1945) 43 (1963) 189 47 60 72 81 128 210 224 289 477
2026-03-02 08:00 2.80 189 2490 (1945) 43 (1963) 189 47 60 72 81 128 210 224 289 477
2026-03-02 07:00 2.25 97 2490 (1945) 43 (1963) 189 47 60 72 81 128 210 224 289 477
2026-03-02 06:00 2.15 84 2490 (1945) 43 (1963) 189 47 60 72 81 128 210 224 289 477
2026-03-02 05:00 2.12 81 2490 (1945) 43 (1963) 189 47 60 72 81 128 210 224 289 477
2026-03-02 04:00 2.10 78 2490 (1945) 43 (1963) 189 47 60 72 81 128 210 224 289 477
2026-03-02 03:00 2.10 78 2490 (1945) 43 (1963) 189 47 60 72 81 128 210 224 289 477
2026-03-02 02:00 2.09 77 2490 (1945) 43 (1963) 189 47 60 72 81 128 210 224 289 477
2026-03-02 01:00 2.08 76 2490 (1945) 43 (1963) 189 47 60 72 81 128 210 224 289 477
2026-03-02 00:00 2.07 75 2490 (1945) 43 (1963) 189 47 60 72 81 128 210 224 289 477
2026-03-01 23:00 2.07 75 2490 (1945) 43 (1963) 189 47 60 72 81 128 210 224 289 477
2026-03-01 22:00 2.06 74 701 (1997) 37 (1934) 164 47 58 73 78 129 208 229 339 410
2026-03-01 21:00 2.06 74 701 (1997) 37 (1934) 164 47 58 73 78 129 208 229 339 410
2026-03-01 20:00 2.05 72 701 (1997) 37 (1934) 164 47 58 73 78 129 208 229 339 410
2026-03-01 19:00 2.04 71 701 (1997) 37 (1934) 164 47 58 73 78 129 208 229 339 410
2026-03-01 18:00 2.03 70 701 (1997) 37 (1934) 164 47 58 73 78 129 208 229 339 410
2026-03-01 17:00 2.03 70 701 (1997) 37 (1934) 164 47 58 73 78 129 208 229 339 410
2026-03-01 16:00 2.04 71 701 (1997) 37 (1934) 164 47 58 73 78 129 208 229 339 410
2026-03-01 15:00 2.04 71 701 (1997) 37 (1934) 164 47 58 73 78 129 208 229 339 410
2026-03-01 14:00 2.04 71 701 (1997) 37 (1934) 164 47 58 73 78 129 208 229 339 410
2026-03-01 13:00 2.04 71 701 (1997) 37 (1934) 164 47 58 73 78 129 208 229 339 410
2026-03-01 12:00 2.04 71 701 (1997) 37 (1934) 164 47 58 73 78 129 208 229 339 410
2026-03-01 11:00 2.04 71 701 (1997) 37 (1934) 164 47 58 73 78 129 208 229 339 410
2026-03-01 10:00 2.05 72 701 (1997) 37 (1934) 164 47 58 73 78 129 208 229 339 410
2026-03-01 09:00 2.04 71 701 (1997) 37 (1934) 164 47 58 73 78 129 208 229 339 410
2026-03-01 08:00 2.04 71 701 (1997) 37 (1934) 164 47 58 73 78 129 208 229 339 410
2026-03-01 07:00 2.05 72 701 (1997) 37 (1934) 164 47 58 73 78 129 208 229 339 410
2026-03-01 06:00 2.05 72 701 (1997) 37 (1934) 164 47 58 73 78 129 208 229 339 410
2026-03-01 05:00 2.04 71 701 (1997) 37 (1934) 164 47 58 73 78 129 208 229 339 410
2026-03-01 04:00 2.05 72 701 (1997) 37 (1934) 164 47 58 73 78 129 208 229 339 410
2026-03-01 03:00 2.04 71 701 (1997) 37 (1934) 164 47 58 73 78 129 208 229 339 410
2026-03-01 02:00 2.04 71 701 (1997) 37 (1934) 164 47 58 73 78 129 208 229 339 410
2026-03-01 01:00 2.04 71 701 (1997) 37 (1934) 164 47 58 73 78 129 208 229 339 410
2026-03-01 00:00 2.05 72 701 (1997) 37 (1934) 164 47 58 73 78 129 208 229 339 410
2026-02-28 23:00 2.05 72 701 (1997) 37 (1934) 164 47 58 73 78 129 208 229 339 410
2026-02-28 22:00 2.04 71 721 (1997) 36 (1934) 183 46 62 74 76 138 221 234 423 573
2026-02-28 21:00 2.04 71 721 (1997) 36 (1934) 183 46 62 74 76 138 221 234 423 573
2026-02-28 20:00 2.04 71 721 (1997) 36 (1934) 183 46 62 74 76 138 221 234 423 573
2026-02-28 19:00 2.04 71 721 (1997) 36 (1934) 183 46 62 74 76 138 221 234 423 573
2026-02-28 18:00 2.04 71 721 (1997) 36 (1934) 183 46 62 74 76 138 221 234 423 573
2026-02-28 17:00 2.05 72 721 (1997) 36 (1934) 183 46 62 74 76 138 221 234 423 573
2026-02-28 16:00 2.04 71 721 (1997) 36 (1934) 183 46 62 74 76 138 221 234 423 573
2026-02-28 15:00 2.04 71 721 (1997) 36 (1934) 183 46 62 74 76 138 221 234 423 573
2026-02-28 14:00 2.04 71 721 (1997) 36 (1934) 183 46 62 74 76 138 221 234 423 573
2026-02-28 13:00 2.05 72 721 (1997) 36 (1934) 183 46 62 74 76 138 221 234 423 573
2026-02-28 12:00 2.05 72 721 (1997) 36 (1934) 183 46 62 74 76 138 221 234 423 573
2026-02-28 11:00 2.05 72 721 (1997) 36 (1934) 183 46 62 74 76 138 221 234 423 573
2026-02-28 10:00 2.05 72 721 (1997) 36 (1934) 183 46 62 74 76 138 221 234 423 573
2026-02-28 09:00 2.05 72 721 (1997) 36 (1934) 183 46 62 74 76 138 221 234 423 573
2026-02-28 08:00 2.05 72 721 (1997) 36 (1934) 183 46 62 74 76 138 221 234 423 573
2026-02-28 07:00 2.04 71 721 (1997) 36 (1934) 183 46 62 74 76 138 221 234 423 573
2026-02-28 06:00 2.05 72 721 (1997) 36 (1934) 183 46 62 74 76 138 221 234 423 573
2026-02-28 05:00 2.05 72 721 (1997) 36 (1934) 183 46 62 74 76 138 221 234 423 573
2026-02-28 04:00 2.05 72 721 (1997) 36 (1934) 183 46 62 74 76 138 221 234 423 573
2026-02-28 03:00 2.05 72 721 (1997) 36 (1934) 183 46 62 74 76 138 221 234 423 573
2026-02-28 02:00 2.05 72 721 (1997) 36 (1934) 183 46 62 74 76 138 221 234 423 573
2026-02-28 01:00 2.05 72 721 (1997) 36 (1934) 183 46 62 74 76 138 221 234 423 573
2026-02-28 00:00 2.05 72 721 (1997) 36 (1934) 183 46 62 74 76 138 221 234 423 573
2026-02-27 23:00 2.05 72 721 (1997) 36 (1934) 183 46 62 74 76 138 221 234 423 573
2026-02-27 22:00 2.05 72 2220 (1997) 40 (1934) 205 46 63 75 79 144 219 243 412 561
2026-02-27 21:00 2.05 72 2220 (1997) 40 (1934) 205 46 63 75 79 144 219 243 412 561
2026-02-27 20:00 2.05 72 2220 (1997) 40 (1934) 205 46 63 75 79 144 219 243 412 561
2026-02-27 19:00 2.05 72 2220 (1997) 40 (1934) 205 46 63 75 79 144 219 243 412 561
2026-02-27 18:00 2.04 71 2220 (1997) 40 (1934) 205 46 63 75 79 144 219 243 412 561
2026-02-27 17:00 2.05 72 2220 (1997) 40 (1934) 205 46 63 75 79 144 219 243 412 561
2026-02-27 16:00 2.03 70 2220 (1997) 40 (1934) 205 46 63 75 79 144 219 243 412 561
2026-02-27 15:00 2.05 72 2220 (1997) 40 (1934) 205 46 63 75 79 144 219 243 412 561
2026-02-27 14:00 2.05 72 2220 (1997) 40 (1934) 205 46 63 75 79 144 219 243 412 561
2026-02-27 13:00 2.06 74 2220 (1997) 40 (1934) 205 46 63 75 79 144 219 243 412 561
2026-02-27 12:00 2.05 72 2220 (1997) 40 (1934) 205 46 63 75 79 144 219 243 412 561
2026-02-27 11:00 2.06 74 2220 (1997) 40 (1934) 205 46 63 75 79 144 219 243 412 561
2026-02-27 10:00 2.06 74 2220 (1997) 40 (1934) 205 46 63 75 79 144 219 243 412 561
2026-02-27 09:00 2.06 74 2220 (1997) 40 (1934) 205 46 63 75 79 144 219 243 412 561
2026-02-27 08:00 2.06 74 2220 (1997) 40 (1934) 205 46 63 75 79 144 219 243 412 561
2026-02-27 07:00 2.06 74 2220 (1997) 40 (1934) 205 46 63 75 79 144 219 243 412 561
2026-02-27 06:00 2.06 74 2220 (1997) 40 (1934) 205 46 63 75 79 144 219 243 412 561
2026-02-27 05:00 2.07 75 2220 (1997) 40 (1934) 205 46 63 75 79 144 219 243 412 561
2026-02-27 04:00 2.06 74 2220 (1997) 40 (1934) 205 46 63 75 79 144 219 243 412 561
2026-02-27 03:00 2.06 74 2220 (1997) 40 (1934) 205 46 63 75 79 144 219 243 412 561
2026-02-27 02:00 2.06 74 2220 (1997) 40 (1934) 205 46 63 75 79 144 219 243 412 561
2026-02-27 01:00 2.06 74 2220 (1997) 40 (1934) 205 46 63 75 79 144 219 243 412 561
2026-02-27 00:00 2.06 74 2220 (1997) 40 (1934) 205 46 63 75 79 144 219 243 412 561
2026-02-26 23:00 2.06 74 2220 (1997) 40 (1934) 205 46 63 75 79 144 219 243 412 561
2026-02-26 22:00 2.06 74 2160 (1997) 32 (1934) 220 47 58 77 80 132 213 242 353 860
2026-02-26 21:00 2.06 74 2160 (1997) 32 (1934) 220 47 58 77 80 132 213 242 353 860
2026-02-26 20:00 2.06 74 2160 (1997) 32 (1934) 220 47 58 77 80 132 213 242 353 860
2026-02-26 19:00 2.06 74 2160 (1997) 32 (1934) 220 47 58 77 80 132 213 242 353 860
2026-02-26 18:00 2.06 74 2160 (1997) 32 (1934) 220 47 58 77 80 132 213 242 353 860
2026-02-26 17:00 2.06 74 2160 (1997) 32 (1934) 220 47 58 77 80 132 213 242 353 860
2026-02-26 16:00 2.05 72 2160 (1997) 32 (1934) 220 47 58 77 80 132 213 242 353 860
2026-02-26 15:00 2.06 74 2160 (1997) 32 (1934) 220 47 58 77 80 132 213 242 353 860
2026-02-26 14:00 2.06 74 2160 (1997) 32 (1934) 220 47 58 77 80 132 213 242 353 860
2026-02-26 13:00 2.06 74 2160 (1997) 32 (1934) 220 47 58 77 80 132 213 242 353 860
2026-02-26 12:00 2.06 74 2160 (1997) 32 (1934) 220 47 58 77 80 132 213 242 353 860
2026-02-26 11:00 2.06 74 2160 (1997) 32 (1934) 220 47 58 77 80 132 213 242 353 860
2026-02-26 10:00 2.06 74 2160 (1997) 32 (1934) 220 47 58 77 80 132 213 242 353 860
2026-02-26 09:00 2.07 75 2160 (1997) 32 (1934) 220 47 58 77 80 132 213 242 353 860
2026-02-26 08:00 2.06 74 2160 (1997) 32 (1934) 220 47 58 77 80 132 213 242 353 860
2026-02-26 07:00 2.07 75 2160 (1997) 32 (1934) 220 47 58 77 80 132 213 242 353 860
2026-02-26 06:00 2.07 75 2160 (1997) 32 (1934) 220 47 58 77 80 132 213 242 353 860
2026-02-26 05:00 2.07 75 2160 (1997) 32 (1934) 220 47 58 77 80 132 213 242 353 860
2026-02-26 04:00 2.07 75 2160 (1997) 32 (1934) 220 47 58 77 80 132 213 242 353 860
2026-02-26 03:00 2.07 75 2160 (1997) 32 (1934) 220 47 58 77 80 132 213 242 353 860
2026-02-26 02:00 2.07 75 2160 (1997) 32 (1934) 220 47 58 77 80 132 213 242 353 860
2026-02-26 01:00 2.07 75 2160 (1997) 32 (1934) 220 47 58 77 80 132 213 242 353 860
2026-02-26 00:00 2.07 75 2160 (1997) 32 (1934) 220 47 58 77 80 132 213 242 353 860
2026-02-25 23:00 2.07 75 2160 (1997) 32 (1934) 220 47 58 77 80 132 213 242 353 860
2026-02-25 22:00 2.07 75 3160 (1930) 36 (1934) 232 48 59 78 80 136 213 262 390 864
2026-02-25 21:00 2.07 75 3160 (1930) 36 (1934) 232 48 59 78 80 136 213 262 390 864
2026-02-25 20:00 2.07 75 3160 (1930) 36 (1934) 232 48 59 78 80 136 213 262 390 864
2026-02-25 19:00 2.07 75 3160 (1930) 36 (1934) 232 48 59 78 80 136 213 262 390 864
2026-02-25 18:00 2.07 75 3160 (1930) 36 (1934) 232 48 59 78 80 136 213 262 390 864
2026-02-25 17:00 2.07 75 3160 (1930) 36 (1934) 232 48 59 78 80 136 213 262 390 864
2026-02-25 16:00 2.08 76 3160 (1930) 36 (1934) 232 48 59 78 80 136 213 262 390 864
2026-02-25 15:00 2.08 76 3160 (1930) 36 (1934) 232 48 59 78 80 136 213 262 390 864
2026-02-25 14:00 2.08 76 3160 (1930) 36 (1934) 232 48 59 78 80 136 213 262 390 864
2026-02-25 13:00 2.08 76 3160 (1930) 36 (1934) 232 48 59 78 80 136 213 262 390 864
2026-02-25 12:00 2.08 76 3160 (1930) 36 (1934) 232 48 59 78 80 136 213 262 390 864
2026-02-25 11:00 2.08 76 3160 (1930) 36 (1934) 232 48 59 78 80 136 213 262 390 864
2026-02-25 10:00 2.08 76 3160 (1930) 36 (1934) 232 48 59 78 80 136 213 262 390 864
2026-02-25 09:00 2.08 76 3160 (1930) 36 (1934) 232 48 59 78 80 136 213 262 390 864
2026-02-25 08:00 2.09 77 3160 (1930) 36 (1934) 232 48 59 78 80 136 213 262 390 864
2026-02-25 07:00 2.08 76 3160 (1930) 36 (1934) 232 48 59 78 80 136 213 262 390 864
2026-02-25 06:00 2.08 76 3160 (1930) 36 (1934) 232 48 59 78 80 136 213 262 390 864
2026-02-25 05:00 2.08 76 3160 (1930) 36 (1934) 232 48 59 78 80 136 213 262 390 864
2026-02-25 04:00 2.08 76 3160 (1930) 36 (1934) 232 48 59 78 80 136 213 262 390 864
2026-02-25 03:00 2.09 77 3160 (1930) 36 (1934) 232 48 59 78 80 136 213 262 390 864
2026-02-25 02:00 2.09 77 3160 (1930) 36 (1934) 232 48 59 78 80 136 213 262 390 864
2026-02-25 01:00 2.08 76 3160 (1930) 36 (1934) 232 48 59 78 80 136 213 262 390 864
2026-02-25 00:00 2.08 76 3160 (1930) 36 (1934) 232 48 59 78 80 136 213 262 390 864
2026-02-24 23:00 2.08 76 3160 (1930) 36 (1934) 232 48 59 78 80 136 213 262 390 864
2026-02-24 22:00 2.08 76 5570 (2018) 36 (1934) 275 49 59 74 78 121 218 256 373 1070
2026-02-24 21:00 2.08 76 5570 (2018) 36 (1934) 275 49 59 74 78 121 218 256 373 1070
2026-02-24 20:00 2.07 75 5570 (2018) 36 (1934) 275 49 59 74 78 121 218 256 373 1070
2026-02-24 19:00 2.08 76 5570 (2018) 36 (1934) 275 49 59 74 78 121 218 256 373 1070
2026-02-24 18:00 2.08 76 5570 (2018) 36 (1934) 275 49 59 74 78 121 218 256 373 1070
2026-02-24 17:00 2.08 76 5570 (2018) 36 (1934) 275 49 59 74 78 121 218 256 373 1070
2026-02-24 16:00 2.07 75 5570 (2018) 36 (1934) 275 49 59 74 78 121 218 256 373 1070
2026-02-24 15:00 2.08 76 5570 (2018) 36 (1934) 275 49 59 74 78 121 218 256 373 1070
2026-02-24 14:00 2.08 76 5570 (2018) 36 (1934) 275 49 59 74 78 121 218 256 373 1070
2026-02-24 13:00 2.08 76 5570 (2018) 36 (1934) 275 49 59 74 78 121 218 256 373 1070
2026-02-24 12:00 2.07 75 5570 (2018) 36 (1934) 275 49 59 74 78 121 218 256 373 1070
2026-02-24 11:00 2.08 76 5570 (2018) 36 (1934) 275 49 59 74 78 121 218 256 373 1070
2026-02-24 10:00 2.08 76 5570 (2018) 36 (1934) 275 49 59 74 78 121 218 256 373 1070
2026-02-24 09:00 2.07 75 5570 (2018) 36 (1934) 275 49 59 74 78 121 218 256 373 1070
2026-02-24 08:00 2.08 76 5570 (2018) 36 (1934) 275 49 59 74 78 121 218 256 373 1070
2026-02-24 07:00 2.08 76 5570 (2018) 36 (1934) 275 49 59 74 78 121 218 256 373 1070
2026-02-24 06:00 2.08 76 5570 (2018) 36 (1934) 275 49 59 74 78 121 218 256 373 1070
2026-02-24 05:00 2.08 76 5570 (2018) 36 (1934) 275 49 59 74 78 121 218 256 373 1070
2026-02-24 04:00 2.08 76 5570 (2018) 36 (1934) 275 49 59 74 78 121 218 256 373 1070
2026-02-24 03:00 2.07 75 5570 (2018) 36 (1934) 275 49 59 74 78 121 218 256 373 1070
2026-02-24 02:00 2.08 76 5570 (2018) 36 (1934) 275 49 59 74 78 121 218 256 373 1070
2026-02-24 01:00 2.08 76 5570 (2018) 36 (1934) 275 49 59 74 78 121 218 256 373 1070
2026-02-24 00:00 2.07 75 5570 (2018) 36 (1934) 275 49 59 74 78 121 218 256 373 1070
2026-02-23 23:00 2.07 75 5570 (2018) 36 (1934) 275 49 59 74 78 121 218 256 373 1070
2026-02-23 22:00 2.08 76 7850 (1985) 35 (1934) 270 48 56 71 78 115 213 264 372 591
2026-02-23 21:00 2.07 75 7850 (1985) 35 (1934) 270 48 56 71 78 115 213 264 372 591
2026-02-23 20:00 2.07 75 7850 (1985) 35 (1934) 270 48 56 71 78 115 213 264 372 591
2026-02-23 19:00 2.08 76 7850 (1985) 35 (1934) 270 48 56 71 78 115 213 264 372 591
2026-02-23 18:00 2.08 76 7850 (1985) 35 (1934) 270 48 56 71 78 115 213 264 372 591
2026-02-23 17:00 2.08 76 7850 (1985) 35 (1934) 270 48 56 71 78 115 213 264 372 591
2026-02-23 16:00 2.08 76 7850 (1985) 35 (1934) 270 48 56 71 78 115 213 264 372 591
2026-02-23 15:00 2.07 75 7850 (1985) 35 (1934) 270 48 56 71 78 115 213 264 372 591
2026-02-23 14:00 2.08 76 7850 (1985) 35 (1934) 270 48 56 71 78 115 213 264 372 591
2026-02-23 13:00 2.08 76 7850 (1985) 35 (1934) 270 48 56 71 78 115 213 264 372 591
2026-02-23 12:00 2.07 75 7850 (1985) 35 (1934) 270 48 56 71 78 115 213 264 372 591
2026-02-23 11:00 2.07 75 7850 (1985) 35 (1934) 270 48 56 71 78 115 213 264 372 591
2026-02-23 10:00 2.08 76 7850 (1985) 35 (1934) 270 48 56 71 78 115 213 264 372 591
2026-02-23 09:00 2.08 76 7850 (1985) 35 (1934) 270 48 56 71 78 115 213 264 372 591
2026-02-23 08:00 2.07 75 7850 (1985) 35 (1934) 270 48 56 71 78 115 213 264 372 591
2026-02-23 07:00 2.08 76 7850 (1985) 35 (1934) 270 48 56 71 78 115 213 264 372 591
2026-02-23 06:00 2.09 77 7850 (1985) 35 (1934) 270 48 56 71 78 115 213 264 372 591
2026-02-23 05:00 2.09 77 7850 (1985) 35 (1934) 270 48 56 71 78 115 213 264 372 591
2026-02-23 04:00 2.09 77 7850 (1985) 35 (1934) 270 48 56 71 78 115 213 264 372 591
2026-02-23 03:00 2.09 77 7850 (1985) 35 (1934) 270 48 56 71 78 115 213 264 372 591
2026-02-23 02:00 2.09 77 7850 (1985) 35 (1934) 270 48 56 71 78 115 213 264 372 591
2026-02-23 01:00 2.09 77 7850 (1985) 35 (1934) 270 48 56 71 78 115 213 264 372 591
2026-02-23 00:00 2.09 77 7850 (1985) 35 (1934) 270 48 56 71 78 115 213 264 372 591
2026-02-22 23:00 2.09 77 7850 (1985) 35 (1934) 270 48 56 71 78 115 213 264 372 591
2026-02-22 22:00 2.09 77 2550 (1975) 35 (1977) 210 47 50 72 79 119 230 254 398 602
2026-02-22 21:00 2.09 77 2550 (1975) 35 (1977) 210 47 50 72 79 119 230 254 398 602
2026-02-22 20:00 2.10 78 2550 (1975) 35 (1977) 210 47 50 72 79 119 230 254 398 602
2026-02-22 19:00 2.09 77 2550 (1975) 35 (1977) 210 47 50 72 79 119 230 254 398 602
2026-02-22 18:00 2.10 78 2550 (1975) 35 (1977) 210 47 50 72 79 119 230 254 398 602
2026-02-22 17:00 2.10 78 2550 (1975) 35 (1977) 210 47 50 72 79 119 230 254 398 602
2026-02-22 16:00 2.10 78 2550 (1975) 35 (1977) 210 47 50 72 79 119 230 254 398 602
2026-02-22 15:00 2.10 78 2550 (1975) 35 (1977) 210 47 50 72 79 119 230 254 398 602
2026-02-22 14:00 2.10 78 2550 (1975) 35 (1977) 210 47 50 72 79 119 230 254 398 602
2026-02-22 13:00 2.11 79 2550 (1975) 35 (1977) 210 47 50 72 79 119 230 254 398 602
2026-02-22 12:00 2.11 79 2550 (1975) 35 (1977) 210 47 50 72 79 119 230 254 398 602
2026-02-22 11:00 2.10 78 2550 (1975) 35 (1977) 210 47 50 72 79 119 230 254 398 602
2026-02-22 10:00 2.10 78 2550 (1975) 35 (1977) 210 47 50 72 79 119 230 254 398 602
2026-02-22 09:00 2.10 78 2550 (1975) 35 (1977) 210 47 50 72 79 119 230 254 398 602
2026-02-22 08:00 2.09 77 2550 (1975) 35 (1977) 210 47 50 72 79 119 230 254 398 602
2026-02-22 07:00 2.11 79 2550 (1975) 35 (1977) 210 47 50 72 79 119 230 254 398 602
2026-02-22 06:00 2.11 79 2550 (1975) 35 (1977) 210 47 50 72 79 119 230 254 398 602
2026-02-22 05:00 2.11 79 2550 (1975) 35 (1977) 210 47 50 72 79 119 230 254 398 602
2026-02-22 04:00 2.11 79 2550 (1975) 35 (1977) 210 47 50 72 79 119 230 254 398 602
2026-02-22 03:00 2.11 79 2550 (1975) 35 (1977) 210 47 50 72 79 119 230 254 398 602
2026-02-22 02:00 2.11 79 2550 (1975) 35 (1977) 210 47 50 72 79 119 230 254 398 602
2026-02-22 01:00 2.11 79 2550 (1975) 35 (1977) 210 47 50 72 79 119 230 254 398 602
2026-02-22 00:00 2.11 79 2550 (1975) 35 (1977) 210 47 50 72 79 119 230 254 398 602
2026-02-21 23:00 2.11 79 2550 (1975) 35 (1977) 210 47 50 72 79 119 230 254 398 602
2026-02-21 22:00 2.12 81 1270 (1945) 35 (1934) 180 50 53 71 80 119 206 240 391 555
2026-02-21 21:00 2.12 81 1270 (1945) 35 (1934) 180 50 53 71 80 119 206 240 391 555
2026-02-21 20:00 2.12 81 1270 (1945) 35 (1934) 180 50 53 71 80 119 206 240 391 555
2026-02-21 19:00 2.12 81 1270 (1945) 35 (1934) 180 50 53 71 80 119 206 240 391 555
2026-02-21 18:00 2.12 81 1270 (1945) 35 (1934) 180 50 53 71 80 119 206 240 391 555
2026-02-21 17:00 2.12 81 1270 (1945) 35 (1934) 180 50 53 71 80 119 206 240 391 555
2026-02-21 16:00 2.12 81 1270 (1945) 35 (1934) 180 50 53 71 80 119 206 240 391 555
2026-02-21 15:00 2.13 82 1270 (1945) 35 (1934) 180 50 53 71 80 119 206 240 391 555
2026-02-21 14:00 2.13 82 1270 (1945) 35 (1934) 180 50 53 71 80 119 206 240 391 555
2026-02-21 13:00 2.13 82 1270 (1945) 35 (1934) 180 50 53 71 80 119 206 240 391 555
2026-02-21 12:00 2.14 83 1270 (1945) 35 (1934) 180 50 53 71 80 119 206 240 391 555
2026-02-21 11:00 2.13 82 1270 (1945) 35 (1934) 180 50 53 71 80 119 206 240 391 555
2026-02-21 10:00 2.14 83 1270 (1945) 35 (1934) 180 50 53 71 80 119 206 240 391 555
2026-02-21 09:00 2.13 82 1270 (1945) 35 (1934) 180 50 53 71 80 119 206 240 391 555
2026-02-21 08:00 2.13 82 1270 (1945) 35 (1934) 180 50 53 71 80 119 206 240 391 555
2026-02-21 07:00 2.14 83 1270 (1945) 35 (1934) 180 50 53 71 80 119 206 240 391 555
2026-02-21 06:00 2.14 83 1270 (1945) 35 (1934) 180 50 53 71 80 119 206 240 391 555
2026-02-21 05:00 2.14 83 1270 (1945) 35 (1934) 180 50 53 71 80 119 206 240 391 555
2026-02-21 04:00 2.14 83 1270 (1945) 35 (1934) 180 50 53 71 80 119 206 240 391 555
2026-02-21 03:00 2.14 83 1270 (1945) 35 (1934) 180 50 53 71 80 119 206 240 391 555
2026-02-21 02:00 2.14 83 1270 (1945) 35 (1934) 180 50 53 71 80 119 206 240 391 555
2026-02-21 01:00 2.14 83 1270 (1945) 35 (1934) 180 50 53 71 80 119 206 240 391 555
2026-02-21 00:00 2.14 83 1270 (1945) 35 (1934) 180 50 53 71 80 119 206 240 391 555
2026-02-20 23:00 2.14 83 1270 (1945) 35 (1934) 180 50 53 71 80 119 206 240 391 555
2026-02-20 22:00 2.14 83 1120 (1955) 36 (1934) 171 50 53 70 80 119 177 213 329 534
2026-02-20 21:00 2.14 83 1120 (1955) 36 (1934) 171 50 53 70 80 119 177 213 329 534
2026-02-20 20:00 2.14 83 1120 (1955) 36 (1934) 171 50 53 70 80 119 177 213 329 534
2026-02-20 19:00 2.14 83 1120 (1955) 36 (1934) 171 50 53 70 80 119 177 213 329 534
2026-02-20 18:00 2.14 83 1120 (1955) 36 (1934) 171 50 53 70 80 119 177 213 329 534
2026-02-20 17:00 2.15 84 1120 (1955) 36 (1934) 171 50 53 70 80 119 177 213 329 534
2026-02-20 16:00 2.15 84 1120 (1955) 36 (1934) 171 50 53 70 80 119 177 213 329 534
2026-02-20 15:00 2.15 84 1120 (1955) 36 (1934) 171 50 53 70 80 119 177 213 329 534
2026-02-20 14:00 2.16 86 1120 (1955) 36 (1934) 171 50 53 70 80 119 177 213 329 534
2026-02-20 13:00 2.16 86 1120 (1955) 36 (1934) 171 50 53 70 80 119 177 213 329 534
2026-02-20 12:00 2.16 86 1120 (1955) 36 (1934) 171 50 53 70 80 119 177 213 329 534
2026-02-20 11:00 2.15 84 1120 (1955) 36 (1934) 171 50 53 70 80 119 177 213 329 534
2026-02-20 10:00 2.16 86 1120 (1955) 36 (1934) 171 50 53 70 80 119 177 213 329 534
2026-02-20 09:00 2.16 86 1120 (1955) 36 (1934) 171 50 53 70 80 119 177 213 329 534
2026-02-20 08:00 2.16 86 1120 (1955) 36 (1934) 171 50 53 70 80 119 177 213 329 534
2026-02-20 07:00 2.17 87 1120 (1955) 36 (1934) 171 50 53 70 80 119 177 213 329 534
2026-02-20 06:00 2.17 87 1120 (1955) 36 (1934) 171 50 53 70 80 119 177 213 329 534
2026-02-20 05:00 2.17 87 1120 (1955) 36 (1934) 171 50 53 70 80 119 177 213 329 534
2026-02-20 04:00 2.17 87 1120 (1955) 36 (1934) 171 50 53 70 80 119 177 213 329 534
2026-02-20 03:00 2.17 87 1120 (1955) 36 (1934) 171 50 53 70 80 119 177 213 329 534
2026-02-20 02:00 2.17 87 1120 (1955) 36 (1934) 171 50 53 70 80 119 177 213 329 534
2026-02-20 01:00 2.18 88 1120 (1955) 36 (1934) 171 50 53 70 80 119 177 213 329 534
2026-02-20 00:00 2.16 86 1120 (1955) 36 (1934) 171 50 53 70 80 119 177 213 329 534
2026-02-19 23:00 2.17 87 1120 (1955) 36 (1934) 171 50 53 70 80 119 177 213 329 534
2026-02-19 22:00 2.16 86 1160 (1974) 37 (1934) 183 49 54 70 80 120 182 203 349 818
2026-02-19 21:00 2.17 87 1160 (1974) 37 (1934) 183 49 54 70 80 120 182 203 349 818
2026-02-19 20:00 2.18 88 1160 (1974) 37 (1934) 183 49 54 70 80 120 182 203 349 818
2026-02-19 19:00 2.18 88 1160 (1974) 37 (1934) 183 49 54 70 80 120 182 203 349 818
2026-02-19 18:00 2.18 88 1160 (1974) 37 (1934) 183 49 54 70 80 120 182 203 349 818
2026-02-19 17:00 2.17 87 1160 (1974) 37 (1934) 183 49 54 70 80 120 182 203 349 818
2026-02-19 16:00 2.16 86 1160 (1974) 37 (1934) 183 49 54 70 80 120 182 203 349 818
2026-02-19 15:00 2.19 89 1160 (1974) 37 (1934) 183 49 54 70 80 120 182 203 349 818
2026-02-19 14:00 2.20 91 1160 (1974) 37 (1934) 183 49 54 70 80 120 182 203 349 818
2026-02-19 13:00 2.18 88 1160 (1974) 37 (1934) 183 49 54 70 80 120 182 203 349 818
2026-02-19 12:00 2.20 91 1160 (1974) 37 (1934) 183 49 54 70 80 120 182 203 349 818
2026-02-19 11:00 2.21 92 1160 (1974) 37 (1934) 183 49 54 70 80 120 182 203 349 818
2026-02-19 10:00 2.20 91 1160 (1974) 37 (1934) 183 49 54 70 80 120 182 203 349 818
2026-02-19 09:00 2.20 91 1160 (1974) 37 (1934) 183 49 54 70 80 120 182 203 349 818
2026-02-19 08:00 2.21 92 1160 (1974) 37 (1934) 183 49 54 70 80 120 182 203 349 818
2026-02-19 07:00 2.21 92 1160 (1974) 37 (1934) 183 49 54 70 80 120 182 203 349 818
2026-02-19 06:00 2.21 92 1160 (1974) 37 (1934) 183 49 54 70 80 120 182 203 349 818
2026-02-19 05:00 2.21 92 1160 (1974) 37 (1934) 183 49 54 70 80 120 182 203 349 818
2026-02-19 04:00 2.22 93 1160 (1974) 37 (1934) 183 49 54 70 80 120 182 203 349 818
2026-02-19 03:00 2.22 93 1160 (1974) 37 (1934) 183 49 54 70 80 120 182 203 349 818
2026-02-19 02:00 2.22 93 1160 (1974) 37 (1934) 183 49 54 70 80 120 182 203 349 818
2026-02-19 01:00 2.22 93 1160 (1974) 37 (1934) 183 49 54 70 80 120 182 203 349 818
2026-02-19 00:00 2.22 93 1160 (1974) 37 (1934) 183 49 54 70 80 120 182 203 349 818
2026-02-18 23:00 2.22 93 1160 (1974) 37 (1934) 183 49 54 70 80 120 182 203 349 818
2026-02-18 22:00 2.22 93 1960 (1938) 40 (1945) 182 49 52 71 80 120 191 201 280 681
2026-02-18 21:00 2.22 93 1960 (1938) 40 (1945) 182 49 52 71 80 120 191 201 280 681
2026-02-18 20:00 2.23 95 1960 (1938) 40 (1945) 182 49 52 71 80 120 191 201 280 681
2026-02-18 19:00 2.23 95 1960 (1938) 40 (1945) 182 49 52 71 80 120 191 201 280 681
2026-02-18 18:00 2.23 95 1960 (1938) 40 (1945) 182 49 52 71 80 120 191 201 280 681
2026-02-18 17:00 2.23 95 1960 (1938) 40 (1945) 182 49 52 71 80 120 191 201 280 681
2026-02-18 16:00 2.23 95 1960 (1938) 40 (1945) 182 49 52 71 80 120 191 201 280 681
2026-02-18 15:00 2.24 96 1960 (1938) 40 (1945) 182 49 52 71 80 120 191 201 280 681
2026-02-18 14:00 2.24 96 1960 (1938) 40 (1945) 182 49 52 71 80 120 191 201 280 681
2026-02-18 13:00 2.24 96 1960 (1938) 40 (1945) 182 49 52 71 80 120 191 201 280 681
2026-02-18 12:00 2.25 97 1960 (1938) 40 (1945) 182 49 52 71 80 120 191 201 280 681
2026-02-18 11:00 2.25 97 1960 (1938) 40 (1945) 182 49 52 71 80 120 191 201 280 681
2026-02-18 10:00 2.25 97 1960 (1938) 40 (1945) 182 49 52 71 80 120 191 201 280 681
2026-02-18 08:00 2.25 97 1960 (1938) 40 (1945) 182 49 52 71 80 120 191 201 280 681
2026-02-18 07:00 2.25 97 1960 (1938) 40 (1945) 182 49 52 71 80 120 191 201 280 681
2026-02-18 06:00 2.25 97 1960 (1938) 40 (1945) 182 49 52 71 80 120 191 201 280 681
2026-02-18 05:00 2.25 97 1960 (1938) 40 (1945) 182 49 52 71 80 120 191 201 280 681
2026-02-18 04:00 2.26 99 1960 (1938) 40 (1945) 182 49 52 71 80 120 191 201 280 681
2026-02-18 03:00 2.26 99 1960 (1938) 40 (1945) 182 49 52 71 80 120 191 201 280 681
2026-02-18 02:00 2.26 99 1960 (1938) 40 (1945) 182 49 52 71 80 120 191 201 280 681
2026-02-18 01:00 2.26 99 1960 (1938) 40 (1945) 182 49 52 71 80 120 191 201 280 681
2026-02-18 00:00 2.26 99 1960 (1938) 40 (1945) 182 49 52 71 80 120 191 201 280 681
2026-02-17 23:00 2.26 99 1960 (1938) 40 (1945) 182 49 52 71 80 120 191 201 280 681
2026-02-17 22:00 2.27 100 3010 (2008) 34 (1934) 226 47 54 68 77 120 201 213 283 1100
2026-02-17 21:00 2.26 99 3010 (2008) 34 (1934) 226 47 54 68 77 120 201 213 283 1100
2026-02-17 20:00 2.28 101 3010 (2008) 34 (1934) 226 47 54 68 77 120 201 213 283 1100
2026-02-17 19:00 2.27 100 3010 (2008) 34 (1934) 226 47 54 68 77 120 201 213 283 1100
2026-02-17 18:00 2.27 100 3010 (2008) 34 (1934) 226 47 54 68 77 120 201 213 283 1100
2026-02-17 17:00 2.28 101 3010 (2008) 34 (1934) 226 47 54 68 77 120 201 213 283 1100
2026-02-17 16:00 2.28 101 3010 (2008) 34 (1934) 226 47 54 68 77 120 201 213 283 1100
2026-02-17 15:00 2.28 101 3010 (2008) 34 (1934) 226 47 54 68 77 120 201 213 283 1100
2026-02-17 14:00 2.29 103 3010 (2008) 34 (1934) 226 47 54 68 77 120 201 213 283 1100
2026-02-17 13:00 2.29 103 3010 (2008) 34 (1934) 226 47 54 68 77 120 201 213 283 1100
2026-02-17 12:00 2.29 103 3010 (2008) 34 (1934) 226 47 54 68 77 120 201 213 283 1100
2026-02-17 11:00 2.30 104 3010 (2008) 34 (1934) 226 47 54 68 77 120 201 213 283 1100
2026-02-17 10:00 2.30 104 3010 (2008) 34 (1934) 226 47 54 68 77 120 201 213 283 1100
2026-02-17 09:00 2.30 104 3010 (2008) 34 (1934) 226 47 54 68 77 120 201 213 283 1100
2026-02-17 08:00 2.31 106 3010 (2008) 34 (1934) 226 47 54 68 77 120 201 213 283 1100
2026-02-17 07:00 2.31 106 3010 (2008) 34 (1934) 226 47 54 68 77 120 201 213 283 1100
2026-02-17 06:00 2.32 107 3010 (2008) 34 (1934) 226 47 54 68 77 120 201 213 283 1100
2026-02-17 05:00 2.32 107 3010 (2008) 34 (1934) 226 47 54 68 77 120 201 213 283 1100
2026-02-17 04:00 2.32 107 3010 (2008) 34 (1934) 226 47 54 68 77 120 201 213 283 1100
2026-02-17 03:00 2.32 107 3010 (2008) 34 (1934) 226 47 54 68 77 120 201 213 283 1100
2026-02-17 02:00 2.32 107 3010 (2008) 34 (1934) 226 47 54 68 77 120 201 213 283 1100
2026-02-17 01:00 2.33 108 3010 (2008) 34 (1934) 226 47 54 68 77 120 201 213 283 1100
2026-02-17 00:00 2.34 110 3010 (2008) 34 (1934) 226 47 54 68 77 120 201 213 283 1100
2026-02-16 23:00 2.34 110 3010 (2008) 34 (1934) 226 47 54 68 77 120 201 213 283 1100
2026-02-16 22:00 2.34 110 1380 (1949) 34 (1934) 180 47 54 67 70 118 207 218 297 582
2026-02-16 21:00 2.34 110 1380 (1949) 34 (1934) 180 47 54 67 70 118 207 218 297 582
2026-02-16 20:00 2.35 111 1380 (1949) 34 (1934) 180 47 54 67 70 118 207 218 297 582
2026-02-16 19:00 2.35 111 1380 (1949) 34 (1934) 180 47 54 67 70 118 207 218 297 582
2026-02-16 18:00 2.35 111 1380 (1949) 34 (1934) 180 47 54 67 70 118 207 218 297 582
2026-02-16 17:00 2.35 111 1380 (1949) 34 (1934) 180 47 54 67 70 118 207 218 297 582
2026-02-16 16:00 2.36 113 1380 (1949) 34 (1934) 180 47 54 67 70 118 207 218 297 582
2026-02-16 15:00 2.37 114 1380 (1949) 34 (1934) 180 47 54 67 70 118 207 218 297 582
2026-02-16 14:00 2.37 114 1380 (1949) 34 (1934) 180 47 54 67 70 118 207 218 297 582
2026-02-16 13:00 2.37 114 1380 (1949) 34 (1934) 180 47 54 67 70 118 207 218 297 582
2026-02-16 12:00 2.39 117 1380 (1949) 34 (1934) 180 47 54 67 70 118 207 218 297 582
2026-02-16 11:00 2.39 117 1380 (1949) 34 (1934) 180 47 54 67 70 118 207 218 297 582
2026-02-16 10:00 2.39 117 1380 (1949) 34 (1934) 180 47 54 67 70 118 207 218 297 582
2026-02-16 09:00 2.40 119 1380 (1949) 34 (1934) 180 47 54 67 70 118 207 218 297 582
2026-02-16 08:00 2.40 119 1380 (1949) 34 (1934) 180 47 54 67 70 118 207 218 297 582
2026-02-16 07:00 2.41 120 1380 (1949) 34 (1934) 180 47 54 67 70 118 207 218 297 582
2026-02-16 06:00 2.41 120 1380 (1949) 34 (1934) 180 47 54 67 70 118 207 218 297 582
2026-02-16 05:00 2.42 122 1380 (1949) 34 (1934) 180 47 54 67 70 118 207 218 297 582
2026-02-16 04:00 2.42 122 1380 (1949) 34 (1934) 180 47 54 67 70 118 207 218 297 582
2026-02-16 03:00 2.43 123 1380 (1949) 34 (1934) 180 47 54 67 70 118 207 218 297 582
2026-02-16 02:00 2.44 125 1380 (1949) 34 (1934) 180 47 54 67 70 118 207 218 297 582
2026-02-16 01:00 2.44 125 1380 (1949) 34 (1934) 180 47 54 67 70 118 207 218 297 582
2026-02-16 00:00 2.45 126 1380 (1949) 34 (1934) 180 47 54 67 70 118 207 218 297 582
2026-02-15 23:00 2.45 126 1380 (1949) 34 (1934) 180 47 54 67 70 118 207 218 297 582
2026-02-15 22:00 2.46 128 3560 (1949) 35 (1934) 188 44 53 67 71 111 190 207 299 400
2026-02-15 21:00 2.47 130 3560 (1949) 35 (1934) 188 44 53 67 71 111 190 207 299 400
2026-02-15 20:00 2.48 131 3560 (1949) 35 (1934) 188 44 53 67 71 111 190 207 299 400
2026-02-15 19:00 2.49 133 3560 (1949) 35 (1934) 188 44 53 67 71 111 190 207 299 400
2026-02-15 18:00 2.48 131 3560 (1949) 35 (1934) 188 44 53 67 71 111 190 207 299 400
2026-02-15 17:00 2.49 133 3560 (1949) 35 (1934) 188 44 53 67 71 111 190 207 299 400
2026-02-15 16:00 2.50 134 3560 (1949) 35 (1934) 188 44 53 67 71 111 190 207 299 400
2026-02-15 15:00 2.50 134 3560 (1949) 35 (1934) 188 44 53 67 71 111 190 207 299 400
2026-02-15 14:00 2.51 136 3560 (1949) 35 (1934) 188 44 53 67 71 111 190 207 299 400
2026-02-15 13:00 2.52 138 3560 (1949) 35 (1934) 188 44 53 67 71 111 190 207 299 400
2026-02-15 12:00 2.52 138 3560 (1949) 35 (1934) 188 44 53 67 71 111 190 207 299 400
2026-02-15 11:00 2.53 139 3560 (1949) 35 (1934) 188 44 53 67 71 111 190 207 299 400
2026-02-15 10:00 2.52 138 3560 (1949) 35 (1934) 188 44 53 67 71 111 190 207 299 400
2026-02-15 09:00 2.52 138 3560 (1949) 35 (1934) 188 44 53 67 71 111 190 207 299 400
2026-02-15 08:00 2.51 136 3560 (1949) 35 (1934) 188 44 53 67 71 111 190 207 299 400
2026-02-15 07:00 2.51 136 3560 (1949) 35 (1934) 188 44 53 67 71 111 190 207 299 400
2026-02-15 06:00 2.50 134 3560 (1949) 35 (1934) 188 44 53 67 71 111 190 207 299 400
2026-02-15 05:00 2.51 136 3560 (1949) 35 (1934) 188 44 53 67 71 111 190 207 299 400
2026-02-15 04:00 2.51 136 3560 (1949) 35 (1934) 188 44 53 67 71 111 190 207 299 400
2026-02-15 03:00 2.52 138 3560 (1949) 35 (1934) 188 44 53 67 71 111 190 207 299 400
2026-02-15 02:00 2.52 138 3560 (1949) 35 (1934) 188 44 53 67 71 111 190 207 299 400
2026-02-15 01:00 2.53 139 3560 (1949) 35 (1934) 188 44 53 67 71 111 190 207 299 400
2026-02-15 00:00 2.53 139 3560 (1949) 35 (1934) 188 44 53 67 71 111 190 207 299 400
2026-02-14 23:00 2.54 141 3560 (1949) 35 (1934) 188 44 53 67 71 111 190 207 299 400
2026-02-14 22:00 2.51 136 934 (1946) 35 (1934) 150 44 55 68 72 106 171 193 287 459
2026-02-14 21:00 2.48 131 934 (1946) 35 (1934) 150 44 55 68 72 106 171 193 287 459
2026-02-14 20:00 2.43 123 934 (1946) 35 (1934) 150 44 55 68 72 106 171 193 287 459
2026-02-14 19:00 2.33 108 934 (1946) 35 (1934) 150 44 55 68 72 106 171 193 287 459
2026-02-14 18:00 2.23 95 934 (1946) 35 (1934) 150 44 55 68 72 106 171 193 287 459
2026-02-14 17:00 2.18 88 934 (1946) 35 (1934) 150 44 55 68 72 106 171 193 287 459
2026-02-14 16:00 2.18 88 934 (1946) 35 (1934) 150 44 55 68 72 106 171 193 287 459
2026-02-14 15:00 2.16 86 934 (1946) 35 (1934) 150 44 55 68 72 106 171 193 287 459
2026-02-14 14:00 2.15 84 934 (1946) 35 (1934) 150 44 55 68 72 106 171 193 287 459
2026-02-14 12:00 2.08 76 934 (1946) 35 (1934) 150 44 55 68 72 106 171 193 287 459
2026-02-14 11:00 2.08 76 934 (1946) 35 (1934) 150 44 55 68 72 106 171 193 287 459
2026-02-14 10:00 2.07 75 934 (1946) 35 (1934) 150 44 55 68 72 106 171 193 287 459
2026-02-14 09:00 2.07 75 934 (1946) 35 (1934) 150 44 55 68 72 106 171 193 287 459
2026-02-14 08:00 2.05 72 934 (1946) 35 (1934) 150 44 55 68 72 106 171 193 287 459
2026-02-14 07:00 2.04 71 934 (1946) 35 (1934) 150 44 55 68 72 106 171 193 287 459
2026-02-14 06:00 2.02 69 934 (1946) 35 (1934) 150 44 55 68 72 106 171 193 287 459
2026-02-14 05:00 2.01 68 934 (1946) 35 (1934) 150 44 55 68 72 106 171 193 287 459
2026-02-14 04:00 2.00 67 934 (1946) 35 (1934) 150 44 55 68 72 106 171 193 287 459
2026-02-14 03:00 2.00 67 934 (1946) 35 (1934) 150 44 55 68 72 106 171 193 287 459
2026-02-14 02:00 2.00 67 934 (1946) 35 (1934) 150 44 55 68 72 106 171 193 287 459
2026-02-14 01:00 2.00 67 934 (1946) 35 (1934) 150 44 55 68 72 106 171 193 287 459
2026-02-14 00:00 2.00 67 934 (1946) 35 (1934) 150 44 55 68 72 106 171 193 287 459
2026-02-13 23:00 2.00 67 934 (1946) 35 (1934) 150 44 55 68 72 106 171 193 287 459
2026-02-13 22:00 2.00 67 1860 (1946) 34 (1934) 165 42 54 68 71 109 171 192 324 499
2026-02-13 21:00 2.00 67 1860 (1946) 34 (1934) 165 42 54 68 71 109 171 192 324 499
2026-02-13 20:00 2.00 67 1860 (1946) 34 (1934) 165 42 54 68 71 109 171 192 324 499
2026-02-13 19:00 2.00 67 1860 (1946) 34 (1934) 165 42 54 68 71 109 171 192 324 499
2026-02-13 18:00 2.00 67 1860 (1946) 34 (1934) 165 42 54 68 71 109 171 192 324 499
2026-02-13 17:00 2.00 67 1860 (1946) 34 (1934) 165 42 54 68 71 109 171 192 324 499
2026-02-13 16:00 2.00 67 1860 (1946) 34 (1934) 165 42 54 68 71 109 171 192 324 499
2026-02-13 15:00 2.00 67 1860 (1946) 34 (1934) 165 42 54 68 71 109 171 192 324 499
2026-02-13 14:00 2.01 68 1860 (1946) 34 (1934) 165 42 54 68 71 109 171 192 324 499
2026-02-13 13:00 2.01 68 1860 (1946) 34 (1934) 165 42 54 68 71 109 171 192 324 499
2026-02-13 12:00 2.01 68 1860 (1946) 34 (1934) 165 42 54 68 71 109 171 192 324 499
2026-02-13 11:00 2.01 68 1860 (1946) 34 (1934) 165 42 54 68 71 109 171 192 324 499
2026-02-13 10:00 2.01 68 1860 (1946) 34 (1934) 165 42 54 68 71 109 171 192 324 499
2026-02-13 09:00 2.00 67 1860 (1946) 34 (1934) 165 42 54 68 71 109 171 192 324 499
2026-02-13 08:00 2.01 68 1860 (1946) 34 (1934) 165 42 54 68 71 109 171 192 324 499
2026-02-13 07:00 2.01 68 1860 (1946) 34 (1934) 165 42 54 68 71 109 171 192 324 499
2026-02-13 06:00 2.01 68 1860 (1946) 34 (1934) 165 42 54 68 71 109 171 192 324 499
2026-02-13 05:00 2.01 68 1860 (1946) 34 (1934) 165 42 54 68 71 109 171 192 324 499
2026-02-13 04:00 2.00 67 1860 (1946) 34 (1934) 165 42 54 68 71 109 171 192 324 499
2026-02-13 03:00 2.00 67 1860 (1946) 34 (1934) 165 42 54 68 71 109 171 192 324 499
2026-02-13 02:00 2.00 67 1860 (1946) 34 (1934) 165 42 54 68 71 109 171 192 324 499
2026-02-13 01:00 2.00 67 1860 (1946) 34 (1934) 165 42 54 68 71 109 171 192 324 499
2026-02-13 00:00 2.00 67 1860 (1946) 34 (1934) 165 42 54 68 71 109 171 192 324 499
2026-02-12 23:00 2.00 67 1860 (1946) 34 (1934) 165 42 54 68 71 109 171 192 324 499
2026-02-12 22:00 2.00 67 695 (1951) 35 (1934) 144 42 51 61 69 101 160 183 250 562
2026-02-12 21:00 2.00 67 695 (1951) 35 (1934) 144 42 51 61 69 101 160 183 250 562
2026-02-12 20:00 2.00 67 695 (1951) 35 (1934) 144 42 51 61 69 101 160 183 250 562
2026-02-12 19:00 2.00 67 695 (1951) 35 (1934) 144 42 51 61 69 101 160 183 250 562
2026-02-12 18:00 2.00 67 695 (1951) 35 (1934) 144 42 51 61 69 101 160 183 250 562
2026-02-12 17:00 2.01 68 695 (1951) 35 (1934) 144 42 51 61 69 101 160 183 250 562
2026-02-12 16:00 2.00 67 695 (1951) 35 (1934) 144 42 51 61 69 101 160 183 250 562
2026-02-12 15:00 2.01 68 695 (1951) 35 (1934) 144 42 51 61 69 101 160 183 250 562
2026-02-12 14:00 2.00 67 695 (1951) 35 (1934) 144 42 51 61 69 101 160 183 250 562
2026-02-12 13:00 2.00 67 695 (1951) 35 (1934) 144 42 51 61 69 101 160 183 250 562
2026-02-12 12:00 2.01 68 695 (1951) 35 (1934) 144 42 51 61 69 101 160 183 250 562
2026-02-12 11:00 2.00 67 695 (1951) 35 (1934) 144 42 51 61 69 101 160 183 250 562
2026-02-12 10:00 2.01 68 695 (1951) 35 (1934) 144 42 51 61 69 101 160 183 250 562
2026-02-12 09:00 2.01 68 695 (1951) 35 (1934) 144 42 51 61 69 101 160 183 250 562
2026-02-12 08:00 2.01 68 695 (1951) 35 (1934) 144 42 51 61 69 101 160 183 250 562
2026-02-12 07:00 2.01 68 695 (1951) 35 (1934) 144 42 51 61 69 101 160 183 250 562
2026-02-12 06:00 2.01 68 695 (1951) 35 (1934) 144 42 51 61 69 101 160 183 250 562
2026-02-12 05:00 2.00 67 695 (1951) 35 (1934) 144 42 51 61 69 101 160 183 250 562
2026-02-12 04:00 2.00 67 695 (1951) 35 (1934) 144 42 51 61 69 101 160 183 250 562
2026-02-12 03:00 2.01 68 695 (1951) 35 (1934) 144 42 51 61 69 101 160 183 250 562
2026-02-12 02:00 2.00 67 695 (1951) 35 (1934) 144 42 51 61 69 101 160 183 250 562
2026-02-12 01:00 2.00 67 695 (1951) 35 (1934) 144 42 51 61 69 101 160 183 250 562
2026-02-12 00:00 2.00 67 695 (1951) 35 (1934) 144 42 51 61 69 101 160 183 250 562
2026-02-11 23:00 2.00 67 695 (1951) 35 (1934) 144 42 51 61 69 101 160 183 250 562
2026-02-11 22:00 2.00 67 1460 (2009) 35 (1934) 152 42 48 60 68 104 173 190 249 345
2026-02-11 21:00 2.00 67 1460 (2009) 35 (1934) 152 42 48 60 68 104 173 190 249 345
2026-02-11 20:00 2.00 67 1460 (2009) 35 (1934) 152 42 48 60 68 104 173 190 249 345
2026-02-11 19:00 2.00 67 1460 (2009) 35 (1934) 152 42 48 60 68 104 173 190 249 345
2026-02-11 18:00 2.00 67 1460 (2009) 35 (1934) 152 42 48 60 68 104 173 190 249 345
2026-02-11 17:00 2.00 67 1460 (2009) 35 (1934) 152 42 48 60 68 104 173 190 249 345
2026-02-11 16:00 2.00 67 1460 (2009) 35 (1934) 152 42 48 60 68 104 173 190 249 345
2026-02-11 15:00 2.01 68 1460 (2009) 35 (1934) 152 42 48 60 68 104 173 190 249 345
2026-02-11 14:00 2.01 68 1460 (2009) 35 (1934) 152 42 48 60 68 104 173 190 249 345
2026-02-11 13:00 2.01 68 1460 (2009) 35 (1934) 152 42 48 60 68 104 173 190 249 345
2026-02-11 12:00 2.01 68 1460 (2009) 35 (1934) 152 42 48 60 68 104 173 190 249 345
2026-02-11 11:00 2.01 68 1460 (2009) 35 (1934) 152 42 48 60 68 104 173 190 249 345
2026-02-11 10:00 2.01 68 1460 (2009) 35 (1934) 152 42 48 60 68 104 173 190 249 345
2026-02-11 09:00 2.01 68 1460 (2009) 35 (1934) 152 42 48 60 68 104 173 190 249 345
2026-02-11 08:00 2.01 68 1460 (2009) 35 (1934) 152 42 48 60 68 104 173 190 249 345
2026-02-11 07:00 2.01 68 1460 (2009) 35 (1934) 152 42 48 60 68 104 173 190 249 345
2026-02-11 06:00 2.01 68 1460 (2009) 35 (1934) 152 42 48 60 68 104 173 190 249 345
2026-02-11 05:00 2.01 68 1460 (2009) 35 (1934) 152 42 48 60 68 104 173 190 249 345
2026-02-11 04:00 2.01 68 1460 (2009) 35 (1934) 152 42 48 60 68 104 173 190 249 345
2026-02-11 03:00 2.01 68 1460 (2009) 35 (1934) 152 42 48 60 68 104 173 190 249 345
2026-02-11 02:00 2.01 68 1460 (2009) 35 (1934) 152 42 48 60 68 104 173 190 249 345
2026-02-11 01:00 2.01 68 1460 (2009) 35 (1934) 152 42 48 60 68 104 173 190 249 345
2026-02-11 00:00 2.01 68 1460 (2009) 35 (1934) 152 42 48 60 68 104 173 190 249 345
2026-02-10 23:00 2.02 69 1460 (2009) 35 (1934) 152 42 48 60 68 104 173 190 249 345
2026-02-10 22:00 2.01 68 3330 (1966) 33 (1934) 164 43 46 60 67 105 183 203 239 311
2026-02-10 21:00 2.01 68 3330 (1966) 33 (1934) 164 43 46 60 67 105 183 203 239 311
2026-02-10 20:00 2.01 68 3330 (1966) 33 (1934) 164 43 46 60 67 105 183 203 239 311
2026-02-10 19:00 2.01 68 3330 (1966) 33 (1934) 164 43 46 60 67 105 183 203 239 311
2026-02-10 18:00 2.01 68 3330 (1966) 33 (1934) 164 43 46 60 67 105 183 203 239 311
2026-02-10 17:00 2.01 68 3330 (1966) 33 (1934) 164 43 46 60 67 105 183 203 239 311
2026-02-10 16:00 2.01 68 3330 (1966) 33 (1934) 164 43 46 60 67 105 183 203 239 311
2026-02-10 15:00 2.02 69 3330 (1966) 33 (1934) 164 43 46 60 67 105 183 203 239 311
2026-02-10 14:00 2.01 68 3330 (1966) 33 (1934) 164 43 46 60 67 105 183 203 239 311
2026-02-10 13:00 2.01 68 3330 (1966) 33 (1934) 164 43 46 60 67 105 183 203 239 311
2026-02-10 12:00 2.01 68 3330 (1966) 33 (1934) 164 43 46 60 67 105 183 203 239 311
2026-02-10 11:00 2.01 68 3330 (1966) 33 (1934) 164 43 46 60 67 105 183 203 239 311
2026-02-10 10:00 2.01 68 3330 (1966) 33 (1934) 164 43 46 60 67 105 183 203 239 311
2026-02-10 09:00 2.02 69 3330 (1966) 33 (1934) 164 43 46 60 67 105 183 203 239 311
2026-02-10 08:00 2.01 68 3330 (1966) 33 (1934) 164 43 46 60 67 105 183 203 239 311
2026-02-10 07:00 2.01 68 3330 (1966) 33 (1934) 164 43 46 60 67 105 183 203 239 311
2026-02-10 06:00 2.01 68 3330 (1966) 33 (1934) 164 43 46 60 67 105 183 203 239 311
2026-02-10 05:00 2.01 68 3330 (1966) 33 (1934) 164 43 46 60 67 105 183 203 239 311
2026-02-10 04:00 2.01 68 3330 (1966) 33 (1934) 164 43 46 60 67 105 183 203 239 311
2026-02-10 03:00 2.01 68 3330 (1966) 33 (1934) 164 43 46 60 67 105 183 203 239 311
2026-02-10 02:00 2.01 68 3330 (1966) 33 (1934) 164 43 46 60 67 105 183 203 239 311
2026-02-10 01:00 2.01 68 3330 (1966) 33 (1934) 164 43 46 60 67 105 183 203 239 311
2026-02-10 00:00 2.01 68 3330 (1966) 33 (1934) 164 43 46 60 67 105 183 203 239 311
2026-02-09 23:00 2.01 68 3330 (1966) 33 (1934) 164 43 46 60 67 105 183 203 239 311
2026-02-09 22:00 2.02 69 1940 (1966) 35 (1934) 153 38 45 58 65 101 183 198 251 364
2026-02-09 21:00 2.01 68 1940 (1966) 35 (1934) 153 38 45 58 65 101 183 198 251 364
2026-02-09 20:00 2.01 68 1940 (1966) 35 (1934) 153 38 45 58 65 101 183 198 251 364
2026-02-09 19:00 2.01 68 1940 (1966) 35 (1934) 153 38 45 58 65 101 183 198 251 364
2026-02-09 18:00 2.01 68 1940 (1966) 35 (1934) 153 38 45 58 65 101 183 198 251 364
2026-02-09 17:00 2.01 68 1940 (1966) 35 (1934) 153 38 45 58 65 101 183 198 251 364
2026-02-09 16:00 2.01 68 1940 (1966) 35 (1934) 153 38 45 58 65 101 183 198 251 364
2026-02-09 15:00 2.01 68 1940 (1966) 35 (1934) 153 38 45 58 65 101 183 198 251 364
2026-02-09 14:00 2.02 69 1940 (1966) 35 (1934) 153 38 45 58 65 101 183 198 251 364
2026-02-09 13:00 2.02 69 1940 (1966) 35 (1934) 153 38 45 58 65 101 183 198 251 364
2026-02-09 12:00 2.02 69 1940 (1966) 35 (1934) 153 38 45 58 65 101 183 198 251 364
2026-02-09 11:00 2.02 69 1940 (1966) 35 (1934) 153 38 45 58 65 101 183 198 251 364
2026-02-09 10:00 2.02 69 1940 (1966) 35 (1934) 153 38 45 58 65 101 183 198 251 364
2026-02-09 09:00 2.02 69 1940 (1966) 35 (1934) 153 38 45 58 65 101 183 198 251 364
2026-02-09 08:00 2.02 69 1940 (1966) 35 (1934) 153 38 45 58 65 101 183 198 251 364
2026-02-09 07:00 2.02 69 1940 (1966) 35 (1934) 153 38 45 58 65 101 183 198 251 364
2026-02-09 06:00 2.02 69 1940 (1966) 35 (1934) 153 38 45 58 65 101 183 198 251 364
2026-02-09 05:00 2.01 68 1940 (1966) 35 (1934) 153 38 45 58 65 101 183 198 251 364
2026-02-09 04:00 2.02 69 1940 (1966) 35 (1934) 153 38 45 58 65 101 183 198 251 364
2026-02-09 03:00 2.02 69 1940 (1966) 35 (1934) 153 38 45 58 65 101 183 198 251 364
2026-02-09 02:00 2.02 69 1940 (1966) 35 (1934) 153 38 45 58 65 101 183 198 251 364
2026-02-09 01:00 2.02 69 1940 (1966) 35 (1934) 153 38 45 58 65 101 183 198 251 364
2026-02-09 00:00 2.02 69 1940 (1966) 35 (1934) 153 38 45 58 65 101 183 198 251 364
2026-02-08 23:00 2.03 70 1940 (1966) 35 (1934) 153 38 45 58 65 101 183 198 251 364
2026-02-08 22:00 2.03 70 838 (1951) 34 (1977) 140 39 44 60 66 101 179 193 260 388
2026-02-08 21:00 2.03 70 838 (1951) 34 (1977) 140 39 44 60 66 101 179 193 260 388
2026-02-08 20:00 2.02 69 838 (1951) 34 (1977) 140 39 44 60 66 101 179 193 260 388
2026-02-08 19:00 2.03 70 838 (1951) 34 (1977) 140 39 44 60 66 101 179 193 260 388
2026-02-08 18:00 2.02 69 838 (1951) 34 (1977) 140 39 44 60 66 101 179 193 260 388
2026-02-08 17:00 2.02 69 838 (1951) 34 (1977) 140 39 44 60 66 101 179 193 260 388
2026-02-08 16:00 2.02 69 838 (1951) 34 (1977) 140 39 44 60 66 101 179 193 260 388
2026-02-08 15:00 2.02 69 838 (1951) 34 (1977) 140 39 44 60 66 101 179 193 260 388
2026-02-08 14:00 2.02 69 838 (1951) 34 (1977) 140 39 44 60 66 101 179 193 260 388
2026-02-08 13:00 2.02 69 838 (1951) 34 (1977) 140 39 44 60 66 101 179 193 260 388
2026-02-08 12:00 2.02 69 838 (1951) 34 (1977) 140 39 44 60 66 101 179 193 260 388
2026-02-08 11:00 2.03 70 838 (1951) 34 (1977) 140 39 44 60 66 101 179 193 260 388
2026-02-08 10:00 2.02 69 838 (1951) 34 (1977) 140 39 44 60 66 101 179 193 260 388
2026-02-08 09:00 2.03 70 838 (1951) 34 (1977) 140 39 44 60 66 101 179 193 260 388
2026-02-08 08:00 2.02 69 838 (1951) 34 (1977) 140 39 44 60 66 101 179 193 260 388
2026-02-08 07:00 2.02 69 838 (1951) 34 (1977) 140 39 44 60 66 101 179 193 260 388
2026-02-08 06:00 2.02 69 838 (1951) 34 (1977) 140 39 44 60 66 101 179 193 260 388
2026-02-08 05:00 2.02 69 838 (1951) 34 (1977) 140 39 44 60 66 101 179 193 260 388
2026-02-08 04:00 2.03 70 838 (1951) 34 (1977) 140 39 44 60 66 101 179 193 260 388
2026-02-08 03:00 2.02 69 838 (1951) 34 (1977) 140 39 44 60 66 101 179 193 260 388
2026-02-08 02:00 2.02 69 838 (1951) 34 (1977) 140 39 44 60 66 101 179 193 260 388
2026-02-08 01:00 2.02 69 838 (1951) 34 (1977) 140 39 44 60 66 101 179 193 260 388
2026-02-08 00:00 2.02 69 838 (1951) 34 (1977) 140 39 44 60 66 101 179 193 260 388
2026-02-07 23:00 2.02 69 838 (1951) 34 (1977) 140 39 44 60 66 101 179 193 260 388

A total of 2194 rows are displayed for years 1929 through 2025.